<?xml version="1.0" encoding="UTF-8"?>
<gpx xmlns="http://www.topografix.com/GPX/1/1" xmlns:xsi="http://www.w3.org/2001/XMLSchema-instance" version="1.1" xsi:schemaLocation="http://www.topografix.com/GPX/1/1 http://www.topografix.com/GPX/1/1/gpx.xsd">
  <metadata>
    <name>Lochore Off Road Triathlon</name>
  </metadata>
  <trk>
    <name>Lochore Off Road Triathlon</name>
    <trkseg>
      <trkpt lat="56.15011" lon="-3.336999">
        <ele>96.378204</ele>
        <time>2024-09-01T09:05:00.000Z</time>
      </trkpt>
      <trkpt lat="56.150082" lon="-3.337079">
        <ele>96.378216</ele>
        <time>2024-09-01T09:05:01.000Z</time>
      </trkpt>
      <trkpt lat="56.150108" lon="-3.337208">
        <ele>96.378201</ele>
        <time>2024-09-01T09:05:02.000Z</time>
      </trkpt>
      <trkpt lat="56.150148" lon="-3.337322">
        <ele>96.378206</ele>
        <time>2024-09-01T09:05:03.000Z</time>
      </trkpt>
      <trkpt lat="56.150182" lon="-3.337388">
        <ele>96.378212</ele>
        <time>2024-09-01T09:05:04.000Z</time>
      </trkpt>
      <trkpt lat="56.150251" lon="-3.33747">
        <ele>96.378204</ele>
        <time>2024-09-01T09:05:05.000Z</time>
      </trkpt>
      <trkpt lat="56.150315" lon="-3.337494">
        <ele>96.378217</ele>
        <time>2024-09-01T09:05:06.000Z</time>
      </trkpt>
      <trkpt lat="56.150368" lon="-3.337521">
        <ele>96.378213</ele>
        <time>2024-09-01T09:05:07.000Z</time>
      </trkpt>
      <trkpt lat="56.150471" lon="-3.337537">
        <ele>96.378216</ele>
        <time>2024-09-01T09:05:08.000Z</time>
      </trkpt>
      <trkpt lat="56.15053" lon="-3.337525">
        <ele>96.378215</ele>
        <time>2024-09-01T09:05:09.000Z</time>
      </trkpt>
      <trkpt lat="56.150548" lon="-3.337485">
        <ele>96.378206</ele>
        <time>2024-09-01T09:05:09.000Z</time>
      </trkpt>
      <trkpt lat="56.150598" lon="-3.337436">
        <ele>96.378216</ele>
        <time>2024-09-01T09:05:10.000Z</time>
      </trkpt>
      <trkpt lat="56.150668" lon="-3.337416">
        <ele>96.378207</ele>
        <time>2024-09-01T09:05:11.000Z</time>
      </trkpt>
      <trkpt lat="56.15076" lon="-3.3374">
        <ele>96.378214</ele>
        <time>2024-09-01T09:05:12.000Z</time>
      </trkpt>
      <trkpt lat="56.150836" lon="-3.337367">
        <ele>96.447803</ele>
        <time>2024-09-01T09:05:13.000Z</time>
      </trkpt>
      <trkpt lat="56.150915" lon="-3.337351">
        <ele>96.551669</ele>
        <time>2024-09-01T09:05:14.000Z</time>
      </trkpt>
      <trkpt lat="56.151034" lon="-3.337313">
        <ele>96.756068</ele>
        <time>2024-09-01T09:05:15.000Z</time>
      </trkpt>
      <trkpt lat="56.151158" lon="-3.337309">
        <ele>96.925752</ele>
        <time>2024-09-01T09:05:16.000Z</time>
      </trkpt>
      <trkpt lat="56.151224" lon="-3.337305">
        <ele>97.056455</ele>
        <time>2024-09-01T09:05:17.000Z</time>
      </trkpt>
      <trkpt lat="56.151366" lon="-3.337297">
        <ele>97.255619</ele>
        <time>2024-09-01T09:05:19.000Z</time>
      </trkpt>
      <trkpt lat="56.151463" lon="-3.337335">
        <ele>97.427624</ele>
        <time>2024-09-01T09:05:20.000Z</time>
      </trkpt>
      <trkpt lat="56.151588" lon="-3.337335">
        <ele>97.596371</ele>
        <time>2024-09-01T09:05:21.000Z</time>
      </trkpt>
      <trkpt lat="56.151705" lon="-3.337347">
        <ele>97.781528</ele>
        <time>2024-09-01T09:05:22.000Z</time>
      </trkpt>
      <trkpt lat="56.151813" lon="-3.337343">
        <ele>97.952678</ele>
        <time>2024-09-01T09:05:23.000Z</time>
      </trkpt>
      <trkpt lat="56.151893" lon="-3.337338">
        <ele>98.07094</ele>
        <time>2024-09-01T09:05:24.000Z</time>
      </trkpt>
      <trkpt lat="56.15202" lon="-3.33736">
        <ele>98.285761</ele>
        <time>2024-09-01T09:05:25.000Z</time>
      </trkpt>
      <trkpt lat="56.152078" lon="-3.337351">
        <ele>98.368256</ele>
        <time>2024-09-01T09:05:26.000Z</time>
      </trkpt>
      <trkpt lat="56.15219" lon="-3.337299">
        <ele>98.558593</ele>
        <time>2024-09-01T09:05:27.000Z</time>
      </trkpt>
      <trkpt lat="56.152281" lon="-3.337238">
        <ele>98.690619</ele>
        <time>2024-09-01T09:05:28.000Z</time>
      </trkpt>
      <trkpt lat="56.152336" lon="-3.337098">
        <ele>98.85959</ele>
        <time>2024-09-01T09:05:29.000Z</time>
      </trkpt>
      <trkpt lat="56.152363" lon="-3.336885">
        <ele>99.042213</ele>
        <time>2024-09-01T09:05:30.000Z</time>
      </trkpt>
      <trkpt lat="56.152353" lon="-3.336802">
        <ele>99.109881</ele>
        <time>2024-09-01T09:05:31.000Z</time>
      </trkpt>
      <trkpt lat="56.152371" lon="-3.336701">
        <ele>99.20614</ele>
        <time>2024-09-01T09:05:32.000Z</time>
      </trkpt>
      <trkpt lat="56.152469" lon="-3.336633">
        <ele>99.420852</ele>
        <time>2024-09-01T09:05:33.000Z</time>
      </trkpt>
      <trkpt lat="56.152513" lon="-3.336639">
        <ele>99.521872</ele>
        <time>2024-09-01T09:05:33.000Z</time>
      </trkpt>
      <trkpt lat="56.152654" lon="-3.336544">
        <ele>99.829222</ele>
        <time>2024-09-01T09:05:35.000Z</time>
      </trkpt>
      <trkpt lat="56.152692" lon="-3.336581">
        <ele>99.927294</ele>
        <time>2024-09-01T09:05:35.000Z</time>
      </trkpt>
      <trkpt lat="56.152701" lon="-3.336662">
        <ele>100.014038</ele>
        <time>2024-09-01T09:05:36.000Z</time>
      </trkpt>
      <trkpt lat="56.152696" lon="-3.336731">
        <ele>100.103</ele>
        <time>2024-09-01T09:05:36.000Z</time>
      </trkpt>
      <trkpt lat="56.152754" lon="-3.336827">
        <ele>100.268297</ele>
        <time>2024-09-01T09:05:37.000Z</time>
      </trkpt>
      <trkpt lat="56.15285" lon="-3.336789">
        <ele>100.481917</ele>
        <time>2024-09-01T09:05:38.000Z</time>
      </trkpt>
      <trkpt lat="56.152962" lon="-3.336794">
        <ele>100.688887</ele>
        <time>2024-09-01T09:05:39.000Z</time>
      </trkpt>
      <trkpt lat="56.15305" lon="-3.336713">
        <ele>100.905519</ele>
        <time>2024-09-01T09:05:40.000Z</time>
      </trkpt>
      <trkpt lat="56.153163" lon="-3.336625">
        <ele>101.147229</ele>
        <time>2024-09-01T09:05:41.000Z</time>
      </trkpt>
      <trkpt lat="56.153259" lon="-3.336519">
        <ele>101.3784</ele>
        <time>2024-09-01T09:05:42.000Z</time>
      </trkpt>
      <trkpt lat="56.153379" lon="-3.33651">
        <ele>101.620562</ele>
        <time>2024-09-01T09:05:43.000Z</time>
      </trkpt>
      <trkpt lat="56.153509" lon="-3.336426">
        <ele>101.903184</ele>
        <time>2024-09-01T09:05:45.000Z</time>
      </trkpt>
      <trkpt lat="56.153542" lon="-3.336426">
        <ele>101.98028</ele>
        <time>2024-09-01T09:05:45.000Z</time>
      </trkpt>
      <trkpt lat="56.153614" lon="-3.336403">
        <ele>102.111366</ele>
        <time>2024-09-01T09:05:46.000Z</time>
      </trkpt>
      <trkpt lat="56.153717" lon="-3.336418">
        <ele>102.344719</ele>
        <time>2024-09-01T09:05:47.000Z</time>
      </trkpt>
      <trkpt lat="56.153815" lon="-3.336379">
        <ele>102.519633</ele>
        <time>2024-09-01T09:05:48.000Z</time>
      </trkpt>
      <trkpt lat="56.153927" lon="-3.336394">
        <ele>102.739566</ele>
        <time>2024-09-01T09:05:49.000Z</time>
      </trkpt>
      <trkpt lat="56.15402" lon="-3.336404">
        <ele>102.915928</ele>
        <time>2024-09-01T09:05:50.000Z</time>
      </trkpt>
      <trkpt lat="56.154107" lon="-3.336225">
        <ele>103.09013</ele>
        <time>2024-09-01T09:05:51.000Z</time>
      </trkpt>
      <trkpt lat="56.154186" lon="-3.336112">
        <ele>103.230141</ele>
        <time>2024-09-01T09:05:52.000Z</time>
      </trkpt>
      <trkpt lat="56.154281" lon="-3.336024">
        <ele>103.378634</ele>
        <time>2024-09-01T09:05:53.000Z</time>
      </trkpt>
      <trkpt lat="56.154275" lon="-3.335878">
        <ele>103.506456</ele>
        <time>2024-09-01T09:05:54.000Z</time>
      </trkpt>
      <trkpt lat="56.154337" lon="-3.335699">
        <ele>103.667581</ele>
        <time>2024-09-01T09:05:55.000Z</time>
      </trkpt>
      <trkpt lat="56.154353" lon="-3.335659">
        <ele>103.706778</ele>
        <time>2024-09-01T09:05:55.000Z</time>
      </trkpt>
      <trkpt lat="56.154375" lon="-3.335553">
        <ele>103.788641</ele>
        <time>2024-09-01T09:05:56.000Z</time>
      </trkpt>
      <trkpt lat="56.154458" lon="-3.335406">
        <ele>103.946285</ele>
        <time>2024-09-01T09:05:57.000Z</time>
      </trkpt>
      <trkpt lat="56.154492" lon="-3.335247">
        <ele>104.084534</ele>
        <time>2024-09-01T09:05:58.000Z</time>
      </trkpt>
      <trkpt lat="56.154529" lon="-3.335093">
        <ele>104.209032</ele>
        <time>2024-09-01T09:05:59.000Z</time>
      </trkpt>
      <trkpt lat="56.154584" lon="-3.335123">
        <ele>104.294943</ele>
        <time>2024-09-01T09:06:00.000Z</time>
      </trkpt>
      <trkpt lat="56.154649" lon="-3.33503">
        <ele>104.406028</ele>
        <time>2024-09-01T09:06:01.000Z</time>
      </trkpt>
      <trkpt lat="56.15467" lon="-3.334911">
        <ele>104.510321</ele>
        <time>2024-09-01T09:06:02.000Z</time>
      </trkpt>
      <trkpt lat="56.154665" lon="-3.334826">
        <ele>104.570303</ele>
        <time>2024-09-01T09:06:03.000Z</time>
      </trkpt>
      <trkpt lat="56.154669" lon="-3.334695">
        <ele>104.673193</ele>
        <time>2024-09-01T09:06:04.000Z</time>
      </trkpt>
      <trkpt lat="56.154664" lon="-3.334692">
        <ele>104.673181</ele>
        <time>2024-09-01T09:06:04.000Z</time>
      </trkpt>
      <trkpt lat="56.154659" lon="-3.334379">
        <ele>104.913905</ele>
        <time>2024-09-01T09:06:06.000Z</time>
      </trkpt>
      <trkpt lat="56.154659" lon="-3.334321">
        <ele>104.960149</ele>
        <time>2024-09-01T09:06:06.000Z</time>
      </trkpt>
      <trkpt lat="56.15467" lon="-3.33426">
        <ele>105.007152</ele>
        <time>2024-09-01T09:06:06.000Z</time>
      </trkpt>
      <trkpt lat="56.15469" lon="-3.333781">
        <ele>105.461699</ele>
        <time>2024-09-01T09:06:09.000Z</time>
      </trkpt>
      <trkpt lat="56.154723" lon="-3.333566">
        <ele>105.815031</ele>
        <time>2024-09-01T09:06:10.000Z</time>
      </trkpt>
      <trkpt lat="56.154745" lon="-3.333317">
        <ele>106.208022</ele>
        <time>2024-09-01T09:06:12.000Z</time>
      </trkpt>
      <trkpt lat="56.154783" lon="-3.333208">
        <ele>106.412173</ele>
        <time>2024-09-01T09:06:13.000Z</time>
      </trkpt>
      <trkpt lat="56.15487" lon="-3.333049">
        <ele>106.779513</ele>
        <time>2024-09-01T09:06:14.000Z</time>
      </trkpt>
      <trkpt lat="56.154957" lon="-3.33304">
        <ele>107.035184</ele>
        <time>2024-09-01T09:06:15.000Z</time>
      </trkpt>
      <trkpt lat="56.155001" lon="-3.333062">
        <ele>107.163463</ele>
        <time>2024-09-01T09:06:16.000Z</time>
      </trkpt>
      <trkpt lat="56.155093" lon="-3.333135">
        <ele>107.440423</ele>
        <time>2024-09-01T09:06:17.000Z</time>
      </trkpt>
      <trkpt lat="56.155144" lon="-3.333173">
        <ele>107.602969</ele>
        <time>2024-09-01T09:06:18.000Z</time>
      </trkpt>
      <trkpt lat="56.155172" lon="-3.333185">
        <ele>107.698096</ele>
        <time>2024-09-01T09:06:18.000Z</time>
      </trkpt>
      <trkpt lat="56.155255" lon="-3.333207">
        <ele>107.903467</ele>
        <time>2024-09-01T09:06:19.000Z</time>
      </trkpt>
      <trkpt lat="56.155293" lon="-3.333231">
        <ele>108.004965</ele>
        <time>2024-09-01T09:06:19.000Z</time>
      </trkpt>
      <trkpt lat="56.15535" lon="-3.333272">
        <ele>108.212645</ele>
        <time>2024-09-01T09:06:20.000Z</time>
      </trkpt>
      <trkpt lat="56.155422" lon="-3.333309">
        <ele>108.415022</ele>
        <time>2024-09-01T09:06:21.000Z</time>
      </trkpt>
      <trkpt lat="56.155492" lon="-3.333345">
        <ele>108.61981</ele>
        <time>2024-09-01T09:06:22.000Z</time>
      </trkpt>
      <trkpt lat="56.155569" lon="-3.333351">
        <ele>108.820957</ele>
        <time>2024-09-01T09:06:23.000Z</time>
      </trkpt>
      <trkpt lat="56.155631" lon="-3.333345">
        <ele>109.029274</ele>
        <time>2024-09-01T09:06:24.000Z</time>
      </trkpt>
      <trkpt lat="56.155708" lon="-3.333337">
        <ele>109.232058</ele>
        <time>2024-09-01T09:06:25.000Z</time>
      </trkpt>
      <trkpt lat="56.155783" lon="-3.333328">
        <ele>109.434593</ele>
        <time>2024-09-01T09:06:26.000Z</time>
      </trkpt>
      <trkpt lat="56.155855" lon="-3.333318">
        <ele>109.631846</ele>
        <time>2024-09-01T09:06:27.000Z</time>
      </trkpt>
      <trkpt lat="56.15592" lon="-3.333249">
        <ele>109.834698</ele>
        <time>2024-09-01T09:06:28.000Z</time>
      </trkpt>
      <trkpt lat="56.15593" lon="-3.333217">
        <ele>109.942886</ele>
        <time>2024-09-01T09:06:28.000Z</time>
      </trkpt>
      <trkpt lat="56.155962" lon="-3.332989">
        <ele>110.29629</ele>
        <time>2024-09-01T09:06:29.000Z</time>
      </trkpt>
      <trkpt lat="56.155998" lon="-3.332852">
        <ele>110.535305</ele>
        <time>2024-09-01T09:06:30.000Z</time>
      </trkpt>
      <trkpt lat="56.155999" lon="-3.332749">
        <ele>110.662392</ele>
        <time>2024-09-01T09:06:31.000Z</time>
      </trkpt>
      <trkpt lat="56.15601" lon="-3.332678">
        <ele>110.767186</ele>
        <time>2024-09-01T09:06:31.000Z</time>
      </trkpt>
      <trkpt lat="56.155904" lon="-3.33263">
        <ele>111.011412</ele>
        <time>2024-09-01T09:06:32.000Z</time>
      </trkpt>
      <trkpt lat="56.155857" lon="-3.332516">
        <ele>111.25343</ele>
        <time>2024-09-01T09:06:33.000Z</time>
      </trkpt>
      <trkpt lat="56.15582" lon="-3.332419">
        <ele>111.409621</ele>
        <time>2024-09-01T09:06:34.000Z</time>
      </trkpt>
      <trkpt lat="56.155748" lon="-3.332157">
        <ele>111.81674</ele>
        <time>2024-09-01T09:06:36.000Z</time>
      </trkpt>
      <trkpt lat="56.155746" lon="-3.332096">
        <ele>111.913424</ele>
        <time>2024-09-01T09:06:36.000Z</time>
      </trkpt>
      <trkpt lat="56.155707" lon="-3.331887">
        <ele>112.232141</ele>
        <time>2024-09-01T09:06:37.000Z</time>
      </trkpt>
      <trkpt lat="56.155707" lon="-3.331564">
        <ele>112.713749</ele>
        <time>2024-09-01T09:06:39.000Z</time>
      </trkpt>
      <trkpt lat="56.155711" lon="-3.331311">
        <ele>113.077149</ele>
        <time>2024-09-01T09:06:41.000Z</time>
      </trkpt>
      <trkpt lat="56.155729" lon="-3.331242">
        <ele>113.185803</ele>
        <time>2024-09-01T09:06:41.000Z</time>
      </trkpt>
      <trkpt lat="56.155785" lon="-3.331159">
        <ele>113.367235</ele>
        <time>2024-09-01T09:06:42.000Z</time>
      </trkpt>
      <trkpt lat="56.155805" lon="-3.331097">
        <ele>113.470289</ele>
        <time>2024-09-01T09:06:42.000Z</time>
      </trkpt>
      <trkpt lat="56.155859" lon="-3.331011">
        <ele>113.675608</ele>
        <time>2024-09-01T09:06:43.000Z</time>
      </trkpt>
      <trkpt lat="56.155945" lon="-3.331055">
        <ele>113.898184</ele>
        <time>2024-09-01T09:06:44.000Z</time>
      </trkpt>
      <trkpt lat="56.156035" lon="-3.331048">
        <ele>114.15139</ele>
        <time>2024-09-01T09:06:45.000Z</time>
      </trkpt>
      <trkpt lat="56.156076" lon="-3.330923">
        <ele>114.361667</ele>
        <time>2024-09-01T09:06:46.000Z</time>
      </trkpt>
      <trkpt lat="56.156078" lon="-3.330887">
        <ele>114.423893</ele>
        <time>2024-09-01T09:06:46.000Z</time>
      </trkpt>
      <trkpt lat="56.156091" lon="-3.330845">
        <ele>114.495177</ele>
        <time>2024-09-01T09:06:46.000Z</time>
      </trkpt>
      <trkpt lat="56.15617" lon="-3.330919">
        <ele>114.725531</ele>
        <time>2024-09-01T09:06:47.000Z</time>
      </trkpt>
      <trkpt lat="56.156239" lon="-3.330941">
        <ele>114.912656</ele>
        <time>2024-09-01T09:06:48.000Z</time>
      </trkpt>
      <trkpt lat="56.156274" lon="-3.330971">
        <ele>115.00456</ele>
        <time>2024-09-01T09:06:48.000Z</time>
      </trkpt>
      <trkpt lat="56.156372" lon="-3.331042">
        <ele>115.351864</ele>
        <time>2024-09-01T09:06:49.000Z</time>
      </trkpt>
      <trkpt lat="56.156425" lon="-3.331063">
        <ele>115.565341</ele>
        <time>2024-09-01T09:06:50.000Z</time>
      </trkpt>
      <trkpt lat="56.156472" lon="-3.331049">
        <ele>115.740657</ele>
        <time>2024-09-01T09:06:51.000Z</time>
      </trkpt>
      <trkpt lat="56.156489" lon="-3.331068">
        <ele>115.779013</ele>
        <time>2024-09-01T09:06:51.000Z</time>
      </trkpt>
      <trkpt lat="56.156556" lon="-3.331077">
        <ele>115.99754</ele>
        <time>2024-09-01T09:06:52.000Z</time>
      </trkpt>
      <trkpt lat="56.156562" lon="-3.331049">
        <ele>116.06691</ele>
        <time>2024-09-01T09:06:52.000Z</time>
      </trkpt>
      <trkpt lat="56.15657" lon="-3.330924">
        <ele>116.338623</ele>
        <time>2024-09-01T09:06:53.000Z</time>
      </trkpt>
      <trkpt lat="56.156621" lon="-3.330848">
        <ele>116.535234</ele>
        <time>2024-09-01T09:06:54.000Z</time>
      </trkpt>
      <trkpt lat="56.156628" lon="-3.330846">
        <ele>116.594124</ele>
        <time>2024-09-01T09:06:54.000Z</time>
      </trkpt>
      <trkpt lat="56.15665" lon="-3.330835">
        <ele>116.65544</ele>
        <time>2024-09-01T09:06:54.000Z</time>
      </trkpt>
      <trkpt lat="56.156687" lon="-3.330778">
        <ele>116.862445</ele>
        <time>2024-09-01T09:06:55.000Z</time>
      </trkpt>
      <trkpt lat="56.156737" lon="-3.330752">
        <ele>117.031399</ele>
        <time>2024-09-01T09:06:56.000Z</time>
      </trkpt>
      <trkpt lat="56.156745" lon="-3.330742">
        <ele>117.054131</ele>
        <time>2024-09-01T09:06:56.000Z</time>
      </trkpt>
      <trkpt lat="56.156789" lon="-3.33072">
        <ele>117.244883</ele>
        <time>2024-09-01T09:06:57.000Z</time>
      </trkpt>
      <trkpt lat="56.156835" lon="-3.330707">
        <ele>117.466066</ele>
        <time>2024-09-01T09:06:58.000Z</time>
      </trkpt>
      <trkpt lat="56.156867" lon="-3.330673">
        <ele>117.577017</ele>
        <time>2024-09-01T09:06:58.000Z</time>
      </trkpt>
      <trkpt lat="56.15691" lon="-3.330569">
        <ele>117.853415</ele>
        <time>2024-09-01T09:06:59.000Z</time>
      </trkpt>
      <trkpt lat="56.156955" lon="-3.330534">
        <ele>118.023327</ele>
        <time>2024-09-01T09:07:00.000Z</time>
      </trkpt>
      <trkpt lat="56.156979" lon="-3.33055">
        <ele>118.153494</ele>
        <time>2024-09-01T09:07:00.000Z</time>
      </trkpt>
      <trkpt lat="56.156989" lon="-3.330571">
        <ele>118.19289</ele>
        <time>2024-09-01T09:07:00.000Z</time>
      </trkpt>
      <trkpt lat="56.15705" lon="-3.330606">
        <ele>118.436655</ele>
        <time>2024-09-01T09:07:01.000Z</time>
      </trkpt>
      <trkpt lat="56.157097" lon="-3.330674">
        <ele>118.663709</ele>
        <time>2024-09-01T09:07:02.000Z</time>
      </trkpt>
      <trkpt lat="56.157147" lon="-3.330715">
        <ele>118.836338</ele>
        <time>2024-09-01T09:07:03.000Z</time>
      </trkpt>
      <trkpt lat="56.157186" lon="-3.330772">
        <ele>119.022291</ele>
        <time>2024-09-01T09:07:04.000Z</time>
      </trkpt>
      <trkpt lat="56.157219" lon="-3.330849">
        <ele>119.202306</ele>
        <time>2024-09-01T09:07:05.000Z</time>
      </trkpt>
      <trkpt lat="56.15725" lon="-3.330937">
        <ele>119.421995</ele>
        <time>2024-09-01T09:07:06.000Z</time>
      </trkpt>
      <trkpt lat="56.157251" lon="-3.331015">
        <ele>119.607548</ele>
        <time>2024-09-01T09:07:06.000Z</time>
      </trkpt>
      <trkpt lat="56.157258" lon="-3.331026">
        <ele>119.624128</ele>
        <time>2024-09-01T09:07:06.000Z</time>
      </trkpt>
      <trkpt lat="56.15725" lon="-3.331185">
        <ele>119.931637</ele>
        <time>2024-09-01T09:07:07.000Z</time>
      </trkpt>
      <trkpt lat="56.157265" lon="-3.331198">
        <ele>119.975214</ele>
        <time>2024-09-01T09:07:07.000Z</time>
      </trkpt>
      <trkpt lat="56.157299" lon="-3.331279">
        <ele>120.185556</ele>
        <time>2024-09-01T09:07:08.000Z</time>
      </trkpt>
      <trkpt lat="56.157286" lon="-3.3313">
        <ele>120.242659</ele>
        <time>2024-09-01T09:07:08.000Z</time>
      </trkpt>
      <trkpt lat="56.157243" lon="-3.331385">
        <ele>120.47503</ele>
        <time>2024-09-01T09:07:09.000Z</time>
      </trkpt>
      <trkpt lat="56.15721" lon="-3.331449">
        <ele>120.643253</ele>
        <time>2024-09-01T09:07:10.000Z</time>
      </trkpt>
      <trkpt lat="56.15719" lon="-3.331432">
        <ele>120.768618</ele>
        <time>2024-09-01T09:07:10.000Z</time>
      </trkpt>
      <trkpt lat="56.157147" lon="-3.331421">
        <ele>120.930094</ele>
        <time>2024-09-01T09:07:10.000Z</time>
      </trkpt>
      <trkpt lat="56.157095" lon="-3.331489">
        <ele>121.123165</ele>
        <time>2024-09-01T09:07:11.000Z</time>
      </trkpt>
      <trkpt lat="56.157074" lon="-3.331535">
        <ele>121.254832</ele>
        <time>2024-09-01T09:07:11.000Z</time>
      </trkpt>
      <trkpt lat="56.157021" lon="-3.331656">
        <ele>121.60062</ele>
        <time>2024-09-01T09:07:12.000Z</time>
      </trkpt>
      <trkpt lat="56.156993" lon="-3.331752">
        <ele>121.843028</ele>
        <time>2024-09-01T09:07:13.000Z</time>
      </trkpt>
      <trkpt lat="56.157004" lon="-3.33187">
        <ele>122.214587</ele>
        <time>2024-09-01T09:07:14.000Z</time>
      </trkpt>
      <trkpt lat="56.156993" lon="-3.331968">
        <ele>122.553245</ele>
        <time>2024-09-01T09:07:15.000Z</time>
      </trkpt>
      <trkpt lat="56.157007" lon="-3.332079">
        <ele>122.981151</ele>
        <time>2024-09-01T09:07:16.000Z</time>
      </trkpt>
      <trkpt lat="56.157038" lon="-3.33225">
        <ele>123.624135</ele>
        <time>2024-09-01T09:07:17.000Z</time>
      </trkpt>
      <trkpt lat="56.157071" lon="-3.332319">
        <ele>123.924303</ele>
        <time>2024-09-01T09:07:18.000Z</time>
      </trkpt>
      <trkpt lat="56.15712" lon="-3.332423">
        <ele>124.39766</ele>
        <time>2024-09-01T09:07:19.000Z</time>
      </trkpt>
      <trkpt lat="56.15713" lon="-3.332498">
        <ele>124.70115</ele>
        <time>2024-09-01T09:07:19.000Z</time>
      </trkpt>
      <trkpt lat="56.157149" lon="-3.332586">
        <ele>125.039442</ele>
        <time>2024-09-01T09:07:20.000Z</time>
      </trkpt>
      <trkpt lat="56.157169" lon="-3.332663">
        <ele>125.295507</ele>
        <time>2024-09-01T09:07:21.000Z</time>
      </trkpt>
      <trkpt lat="56.157167" lon="-3.332697">
        <ele>125.413804</ele>
        <time>2024-09-01T09:07:21.000Z</time>
      </trkpt>
      <trkpt lat="56.157115" lon="-3.332818">
        <ele>125.971191</ele>
        <time>2024-09-01T09:07:22.000Z</time>
      </trkpt>
      <trkpt lat="56.157083" lon="-3.332935">
        <ele>126.382544</ele>
        <time>2024-09-01T09:07:23.000Z</time>
      </trkpt>
      <trkpt lat="56.157058" lon="-3.33303">
        <ele>126.814036</ele>
        <time>2024-09-01T09:07:24.000Z</time>
      </trkpt>
      <trkpt lat="56.157044" lon="-3.333071">
        <ele>126.974431</ele>
        <time>2024-09-01T09:07:24.000Z</time>
      </trkpt>
      <trkpt lat="56.157087" lon="-3.333183">
        <ele>127.45127</ele>
        <time>2024-09-01T09:07:25.000Z</time>
      </trkpt>
      <trkpt lat="56.157128" lon="-3.33325">
        <ele>127.875915</ele>
        <time>2024-09-01T09:07:26.000Z</time>
      </trkpt>
      <trkpt lat="56.1572" lon="-3.333287">
        <ele>128.33576</ele>
        <time>2024-09-01T09:07:27.000Z</time>
      </trkpt>
      <trkpt lat="56.157253" lon="-3.333349">
        <ele>128.711096</ele>
        <time>2024-09-01T09:07:28.000Z</time>
      </trkpt>
      <trkpt lat="56.157298" lon="-3.333415">
        <ele>129.092944</ele>
        <time>2024-09-01T09:07:29.000Z</time>
      </trkpt>
      <trkpt lat="56.157345" lon="-3.333459">
        <ele>129.466366</ele>
        <time>2024-09-01T09:07:30.000Z</time>
      </trkpt>
      <trkpt lat="56.157377" lon="-3.333502">
        <ele>129.6381</ele>
        <time>2024-09-01T09:07:30.000Z</time>
      </trkpt>
      <trkpt lat="56.157412" lon="-3.333554">
        <ele>129.998269</ele>
        <time>2024-09-01T09:07:31.000Z</time>
      </trkpt>
      <trkpt lat="56.157458" lon="-3.333634">
        <ele>130.336599</ele>
        <time>2024-09-01T09:07:32.000Z</time>
      </trkpt>
      <trkpt lat="56.157486" lon="-3.333708">
        <ele>130.686907</ele>
        <time>2024-09-01T09:07:33.000Z</time>
      </trkpt>
      <trkpt lat="56.157509" lon="-3.3338">
        <ele>131.06225</ele>
        <time>2024-09-01T09:07:34.000Z</time>
      </trkpt>
      <trkpt lat="56.157531" lon="-3.333946">
        <ele>131.544718</ele>
        <time>2024-09-01T09:07:35.000Z</time>
      </trkpt>
      <trkpt lat="56.157548" lon="-3.334021">
        <ele>131.860653</ele>
        <time>2024-09-01T09:07:36.000Z</time>
      </trkpt>
      <trkpt lat="56.157571" lon="-3.334101">
        <ele>132.223376</ele>
        <time>2024-09-01T09:07:37.000Z</time>
      </trkpt>
      <trkpt lat="56.157598" lon="-3.334116">
        <ele>132.357244</ele>
        <time>2024-09-01T09:07:37.000Z</time>
      </trkpt>
      <trkpt lat="56.157643" lon="-3.334138">
        <ele>132.693763</ele>
        <time>2024-09-01T09:07:38.000Z</time>
      </trkpt>
      <trkpt lat="56.157695" lon="-3.334222">
        <ele>133.089475</ele>
        <time>2024-09-01T09:07:39.000Z</time>
      </trkpt>
      <trkpt lat="56.157734" lon="-3.334276">
        <ele>133.400785</ele>
        <time>2024-09-01T09:07:40.000Z</time>
      </trkpt>
      <trkpt lat="56.157788" lon="-3.33434">
        <ele>133.774475</ele>
        <time>2024-09-01T09:07:41.000Z</time>
      </trkpt>
      <trkpt lat="56.157819" lon="-3.334405">
        <ele>134.044121</ele>
        <time>2024-09-01T09:07:42.000Z</time>
      </trkpt>
      <trkpt lat="56.157855" lon="-3.33445">
        <ele>134.301953</ele>
        <time>2024-09-01T09:07:42.000Z</time>
      </trkpt>
      <trkpt lat="56.157906" lon="-3.334536">
        <ele>134.657499</ele>
        <time>2024-09-01T09:07:43.000Z</time>
      </trkpt>
      <trkpt lat="56.157943" lon="-3.334603">
        <ele>134.96301</ele>
        <time>2024-09-01T09:07:44.000Z</time>
      </trkpt>
      <trkpt lat="56.157972" lon="-3.334688">
        <ele>135.281325</ele>
        <time>2024-09-01T09:07:45.000Z</time>
      </trkpt>
      <trkpt lat="56.158016" lon="-3.334774">
        <ele>135.581778</ele>
        <time>2024-09-01T09:07:46.000Z</time>
      </trkpt>
      <trkpt lat="56.158032" lon="-3.334851">
        <ele>135.871606</ele>
        <time>2024-09-01T09:07:47.000Z</time>
      </trkpt>
      <trkpt lat="56.158081" lon="-3.334914">
        <ele>136.173906</ele>
        <time>2024-09-01T09:07:48.000Z</time>
      </trkpt>
      <trkpt lat="56.158128" lon="-3.334982">
        <ele>136.534282</ele>
        <time>2024-09-01T09:07:49.000Z</time>
      </trkpt>
      <trkpt lat="56.158173" lon="-3.335058">
        <ele>136.890632</ele>
        <time>2024-09-01T09:07:50.000Z</time>
      </trkpt>
      <trkpt lat="56.158184" lon="-3.335105">
        <ele>136.985584</ele>
        <time>2024-09-01T09:07:50.000Z</time>
      </trkpt>
      <trkpt lat="56.158163" lon="-3.335189">
        <ele>137.262583</ele>
        <time>2024-09-01T09:07:51.000Z</time>
      </trkpt>
      <trkpt lat="56.158138" lon="-3.335287">
        <ele>137.615187</ele>
        <time>2024-09-01T09:07:52.000Z</time>
      </trkpt>
      <trkpt lat="56.15811" lon="-3.335339">
        <ele>137.797744</ele>
        <time>2024-09-01T09:07:52.000Z</time>
      </trkpt>
      <trkpt lat="56.158043" lon="-3.335506">
        <ele>138.42535</ele>
        <time>2024-09-01T09:07:53.000Z</time>
      </trkpt>
      <trkpt lat="56.157992" lon="-3.335605">
        <ele>138.877121</ele>
        <time>2024-09-01T09:07:54.000Z</time>
      </trkpt>
      <trkpt lat="56.157931" lon="-3.335729">
        <ele>139.363397</ele>
        <time>2024-09-01T09:07:55.000Z</time>
      </trkpt>
      <trkpt lat="56.157872" lon="-3.335835">
        <ele>139.836489</ele>
        <time>2024-09-01T09:07:56.000Z</time>
      </trkpt>
      <trkpt lat="56.157823" lon="-3.335979">
        <ele>140.353546</ele>
        <time>2024-09-01T09:07:57.000Z</time>
      </trkpt>
      <trkpt lat="56.157777" lon="-3.336113">
        <ele>140.856802</ele>
        <time>2024-09-01T09:07:58.000Z</time>
      </trkpt>
      <trkpt lat="56.157716" lon="-3.33624">
        <ele>141.364155</ele>
        <time>2024-09-01T09:07:59.000Z</time>
      </trkpt>
      <trkpt lat="56.157659" lon="-3.336403">
        <ele>141.899197</ele>
        <time>2024-09-01T09:08:00.000Z</time>
      </trkpt>
      <trkpt lat="56.157637" lon="-3.336498">
        <ele>142.252398</ele>
        <time>2024-09-01T09:08:01.000Z</time>
      </trkpt>
      <trkpt lat="56.157584" lon="-3.336688">
        <ele>142.875332</ele>
        <time>2024-09-01T09:08:02.000Z</time>
      </trkpt>
      <trkpt lat="56.157524" lon="-3.336877">
        <ele>143.447547</ele>
        <time>2024-09-01T09:08:03.000Z</time>
      </trkpt>
      <trkpt lat="56.157521" lon="-3.336953">
        <ele>143.659241</ele>
        <time>2024-09-01T09:08:03.000Z</time>
      </trkpt>
      <trkpt lat="56.157492" lon="-3.337025">
        <ele>143.861212</ele>
        <time>2024-09-01T09:08:04.000Z</time>
      </trkpt>
      <trkpt lat="56.157415" lon="-3.337266">
        <ele>144.469441</ele>
        <time>2024-09-01T09:08:06.000Z</time>
      </trkpt>
      <trkpt lat="56.157383" lon="-3.337409">
        <ele>144.866608</ele>
        <time>2024-09-01T09:08:07.000Z</time>
      </trkpt>
      <trkpt lat="56.157365" lon="-3.337558">
        <ele>145.239381</ele>
        <time>2024-09-01T09:08:08.000Z</time>
      </trkpt>
      <trkpt lat="56.157336" lon="-3.337722">
        <ele>145.623724</ele>
        <time>2024-09-01T09:08:09.000Z</time>
      </trkpt>
      <trkpt lat="56.157318" lon="-3.337891">
        <ele>146.027097</ele>
        <time>2024-09-01T09:08:10.000Z</time>
      </trkpt>
      <trkpt lat="56.157313" lon="-3.337974">
        <ele>146.233842</ele>
        <time>2024-09-01T09:08:11.000Z</time>
      </trkpt>
      <trkpt lat="56.157301" lon="-3.338054">
        <ele>146.428113</ele>
        <time>2024-09-01T09:08:12.000Z</time>
      </trkpt>
      <trkpt lat="56.157285" lon="-3.338299">
        <ele>146.991471</ele>
        <time>2024-09-01T09:08:14.000Z</time>
      </trkpt>
      <trkpt lat="56.157273" lon="-3.338453">
        <ele>147.384024</ele>
        <time>2024-09-01T09:08:15.000Z</time>
      </trkpt>
      <trkpt lat="56.157267" lon="-3.338545">
        <ele>147.579287</ele>
        <time>2024-09-01T09:08:16.000Z</time>
      </trkpt>
      <trkpt lat="56.157276" lon="-3.338712">
        <ele>147.955989</ele>
        <time>2024-09-01T09:08:17.000Z</time>
      </trkpt>
      <trkpt lat="56.157277" lon="-3.338873">
        <ele>148.3562</ele>
        <time>2024-09-01T09:08:18.000Z</time>
      </trkpt>
      <trkpt lat="56.157287" lon="-3.339037">
        <ele>148.75612</ele>
        <time>2024-09-01T09:08:19.000Z</time>
      </trkpt>
      <trkpt lat="56.157279" lon="-3.339157">
        <ele>149.039916</ele>
        <time>2024-09-01T09:08:20.000Z</time>
      </trkpt>
      <trkpt lat="56.157255" lon="-3.339289">
        <ele>149.358482</ele>
        <time>2024-09-01T09:08:21.000Z</time>
      </trkpt>
      <trkpt lat="56.157252" lon="-3.339384">
        <ele>149.560802</ele>
        <time>2024-09-01T09:08:22.000Z</time>
      </trkpt>
      <trkpt lat="56.157272" lon="-3.339543">
        <ele>149.95395</ele>
        <time>2024-09-01T09:08:23.000Z</time>
      </trkpt>
      <trkpt lat="56.157257" lon="-3.339712">
        <ele>150.354</ele>
        <time>2024-09-01T09:08:24.000Z</time>
      </trkpt>
      <trkpt lat="56.157272" lon="-3.339889">
        <ele>150.73993</ele>
        <time>2024-09-01T09:08:25.000Z</time>
      </trkpt>
      <trkpt lat="56.157265" lon="-3.339968">
        <ele>150.919505</ele>
        <time>2024-09-01T09:08:25.000Z</time>
      </trkpt>
      <trkpt lat="56.157275" lon="-3.340208">
        <ele>151.440601</ele>
        <time>2024-09-01T09:08:26.000Z</time>
      </trkpt>
      <trkpt lat="56.157292" lon="-3.340287">
        <ele>151.628287</ele>
        <time>2024-09-01T09:08:27.000Z</time>
      </trkpt>
      <trkpt lat="56.157292" lon="-3.340364">
        <ele>151.787115</ele>
        <time>2024-09-01T09:08:27.000Z</time>
      </trkpt>
      <trkpt lat="56.157293" lon="-3.340608">
        <ele>152.313905</ele>
        <time>2024-09-01T09:08:29.000Z</time>
      </trkpt>
      <trkpt lat="56.157305" lon="-3.340815">
        <ele>152.733952</ele>
        <time>2024-09-01T09:08:30.000Z</time>
      </trkpt>
      <trkpt lat="56.157303" lon="-3.340932">
        <ele>153.01037</ele>
        <time>2024-09-01T09:08:31.000Z</time>
      </trkpt>
      <trkpt lat="56.157297" lon="-3.34108">
        <ele>153.329452</ele>
        <time>2024-09-01T09:08:32.000Z</time>
      </trkpt>
      <trkpt lat="56.157298" lon="-3.341165">
        <ele>153.484013</ele>
        <time>2024-09-01T09:08:33.000Z</time>
      </trkpt>
      <trkpt lat="56.15731" lon="-3.341328">
        <ele>153.831185</ele>
        <time>2024-09-01T09:08:34.000Z</time>
      </trkpt>
      <trkpt lat="56.157294" lon="-3.341388">
        <ele>153.98319</ele>
        <time>2024-09-01T09:08:34.000Z</time>
      </trkpt>
      <trkpt lat="56.157304" lon="-3.341562">
        <ele>154.33426</ele>
        <time>2024-09-01T09:08:35.000Z</time>
      </trkpt>
      <trkpt lat="56.157322" lon="-3.341592">
        <ele>154.41219</ele>
        <time>2024-09-01T09:08:35.000Z</time>
      </trkpt>
      <trkpt lat="56.157313" lon="-3.341814">
        <ele>154.891981</ele>
        <time>2024-09-01T09:08:36.000Z</time>
      </trkpt>
      <trkpt lat="56.157318" lon="-3.341972">
        <ele>155.228092</ele>
        <time>2024-09-01T09:08:37.000Z</time>
      </trkpt>
      <trkpt lat="56.157313" lon="-3.342038">
        <ele>155.380158</ele>
        <time>2024-09-01T09:08:37.000Z</time>
      </trkpt>
      <trkpt lat="56.157313" lon="-3.342319">
        <ele>155.951968</ele>
        <time>2024-09-01T09:08:39.000Z</time>
      </trkpt>
      <trkpt lat="56.15732" lon="-3.342358">
        <ele>156.037682</ele>
        <time>2024-09-01T09:08:39.000Z</time>
      </trkpt>
      <trkpt lat="56.15735" lon="-3.342567">
        <ele>156.511082</ele>
        <time>2024-09-01T09:08:40.000Z</time>
      </trkpt>
      <trkpt lat="56.15736" lon="-3.342702">
        <ele>156.82373</ele>
        <time>2024-09-01T09:08:41.000Z</time>
      </trkpt>
      <trkpt lat="56.157387" lon="-3.342816">
        <ele>157.078291</ele>
        <time>2024-09-01T09:08:42.000Z</time>
      </trkpt>
      <trkpt lat="56.15741" lon="-3.342872">
        <ele>157.207879</ele>
        <time>2024-09-01T09:08:42.000Z</time>
      </trkpt>
      <trkpt lat="56.157476" lon="-3.343034">
        <ele>157.651672</ele>
        <time>2024-09-01T09:08:43.000Z</time>
      </trkpt>
      <trkpt lat="56.157512" lon="-3.343153">
        <ele>157.848607</ele>
        <time>2024-09-01T09:08:44.000Z</time>
      </trkpt>
      <trkpt lat="56.157547" lon="-3.343294">
        <ele>158.024957</ele>
        <time>2024-09-01T09:08:45.000Z</time>
      </trkpt>
      <trkpt lat="56.157603" lon="-3.343431">
        <ele>158.217663</ele>
        <time>2024-09-01T09:08:46.000Z</time>
      </trkpt>
      <trkpt lat="56.157654" lon="-3.34361">
        <ele>158.462373</ele>
        <time>2024-09-01T09:08:47.000Z</time>
      </trkpt>
      <trkpt lat="56.157695" lon="-3.343715">
        <ele>158.616927</ele>
        <time>2024-09-01T09:08:48.000Z</time>
      </trkpt>
      <trkpt lat="56.157738" lon="-3.343892">
        <ele>158.830379</ele>
        <time>2024-09-01T09:08:49.000Z</time>
      </trkpt>
      <trkpt lat="56.157781" lon="-3.344051">
        <ele>159.04391</ele>
        <time>2024-09-01T09:08:50.000Z</time>
      </trkpt>
      <trkpt lat="56.157797" lon="-3.344133">
        <ele>159.149549</ele>
        <time>2024-09-01T09:08:51.000Z</time>
      </trkpt>
      <trkpt lat="56.15783" lon="-3.344302">
        <ele>159.361735</ele>
        <time>2024-09-01T09:08:52.000Z</time>
      </trkpt>
      <trkpt lat="56.157849" lon="-3.34437">
        <ele>159.461034</ele>
        <time>2024-09-01T09:08:52.000Z</time>
      </trkpt>
      <trkpt lat="56.157875" lon="-3.344534">
        <ele>159.659283</ele>
        <time>2024-09-01T09:08:53.000Z</time>
      </trkpt>
      <trkpt lat="56.157905" lon="-3.344754">
        <ele>159.923968</ele>
        <time>2024-09-01T09:08:54.000Z</time>
      </trkpt>
      <trkpt lat="56.157934" lon="-3.344896">
        <ele>160.103038</ele>
        <time>2024-09-01T09:08:55.000Z</time>
      </trkpt>
      <trkpt lat="56.157965" lon="-3.344954">
        <ele>160.17412</ele>
        <time>2024-09-01T09:08:55.000Z</time>
      </trkpt>
      <trkpt lat="56.157952" lon="-3.345167">
        <ele>160.424157</ele>
        <time>2024-09-01T09:08:56.000Z</time>
      </trkpt>
      <trkpt lat="56.157961" lon="-3.345299">
        <ele>160.591272</ele>
        <time>2024-09-01T09:08:57.000Z</time>
      </trkpt>
      <trkpt lat="56.157982" lon="-3.3455">
        <ele>160.810223</ele>
        <time>2024-09-01T09:08:58.000Z</time>
      </trkpt>
      <trkpt lat="56.15797" lon="-3.345693">
        <ele>161.041365</ele>
        <time>2024-09-01T09:08:59.000Z</time>
      </trkpt>
      <trkpt lat="56.157969" lon="-3.345874">
        <ele>161.272541</ele>
        <time>2024-09-01T09:09:00.000Z</time>
      </trkpt>
      <trkpt lat="56.157971" lon="-3.346085">
        <ele>161.509769</ele>
        <time>2024-09-01T09:09:01.000Z</time>
      </trkpt>
      <trkpt lat="56.157971" lon="-3.346191">
        <ele>161.632809</ele>
        <time>2024-09-01T09:09:02.000Z</time>
      </trkpt>
      <trkpt lat="56.157948" lon="-3.346509">
        <ele>162.041935</ele>
        <time>2024-09-01T09:09:04.000Z</time>
      </trkpt>
      <trkpt lat="56.157928" lon="-3.346599">
        <ele>162.170577</ele>
        <time>2024-09-01T09:09:05.000Z</time>
      </trkpt>
      <trkpt lat="56.157915" lon="-3.346724">
        <ele>162.327847</ele>
        <time>2024-09-01T09:09:06.000Z</time>
      </trkpt>
      <trkpt lat="56.157899" lon="-3.346923">
        <ele>162.596337</ele>
        <time>2024-09-01T09:09:07.000Z</time>
      </trkpt>
      <trkpt lat="56.157844" lon="-3.3472">
        <ele>162.943979</ele>
        <time>2024-09-01T09:09:09.000Z</time>
      </trkpt>
      <trkpt lat="56.157845" lon="-3.347251">
        <ele>163.028134</ele>
        <time>2024-09-01T09:09:09.000Z</time>
      </trkpt>
      <trkpt lat="56.157774" lon="-3.347591">
        <ele>163.461181</ele>
        <time>2024-09-01T09:09:11.000Z</time>
      </trkpt>
      <trkpt lat="56.157744" lon="-3.347831">
        <ele>163.799736</ele>
        <time>2024-09-01T09:09:13.000Z</time>
      </trkpt>
      <trkpt lat="56.1577" lon="-3.348018">
        <ele>164.028142</ele>
        <time>2024-09-01T09:09:14.000Z</time>
      </trkpt>
      <trkpt lat="56.157669" lon="-3.34826">
        <ele>164.34293</ele>
        <time>2024-09-01T09:09:16.000Z</time>
      </trkpt>
      <trkpt lat="56.157643" lon="-3.348463">
        <ele>164.61765</ele>
        <time>2024-09-01T09:09:17.000Z</time>
      </trkpt>
      <trkpt lat="56.157631" lon="-3.348643">
        <ele>164.852208</ele>
        <time>2024-09-01T09:09:18.000Z</time>
      </trkpt>
      <trkpt lat="56.157605" lon="-3.348903">
        <ele>165.193032</ele>
        <time>2024-09-01T09:09:20.000Z</time>
      </trkpt>
      <trkpt lat="56.157602" lon="-3.349144">
        <ele>165.481757</ele>
        <time>2024-09-01T09:09:21.000Z</time>
      </trkpt>
      <trkpt lat="56.157614" lon="-3.349371">
        <ele>165.907303</ele>
        <time>2024-09-01T09:09:22.000Z</time>
      </trkpt>
      <trkpt lat="56.157615" lon="-3.34957">
        <ele>166.37815</ele>
        <time>2024-09-01T09:09:23.000Z</time>
      </trkpt>
      <trkpt lat="56.157622" lon="-3.349768">
        <ele>166.835667</ele>
        <time>2024-09-01T09:09:24.000Z</time>
      </trkpt>
      <trkpt lat="56.157624" lon="-3.349931">
        <ele>167.196203</ele>
        <time>2024-09-01T09:09:25.000Z</time>
      </trkpt>
      <trkpt lat="56.157629" lon="-3.350047">
        <ele>167.478783</ele>
        <time>2024-09-01T09:09:26.000Z</time>
      </trkpt>
      <trkpt lat="56.157653" lon="-3.35031">
        <ele>168.058495</ele>
        <time>2024-09-01T09:09:28.000Z</time>
      </trkpt>
      <trkpt lat="56.157657" lon="-3.350428">
        <ele>168.340159</ele>
        <time>2024-09-01T09:09:29.000Z</time>
      </trkpt>
      <trkpt lat="56.157611" lon="-3.350492">
        <ele>168.551015</ele>
        <time>2024-09-01T09:09:30.000Z</time>
      </trkpt>
      <trkpt lat="56.157562" lon="-3.350515">
        <ele>168.799139</ele>
        <time>2024-09-01T09:09:31.000Z</time>
      </trkpt>
      <trkpt lat="56.157502" lon="-3.350518">
        <ele>169.090933</ele>
        <time>2024-09-01T09:09:32.000Z</time>
      </trkpt>
      <trkpt lat="56.157401" lon="-3.350488">
        <ele>169.453249</ele>
        <time>2024-09-01T09:09:33.000Z</time>
      </trkpt>
      <trkpt lat="56.157316" lon="-3.350466">
        <ele>169.859917</ele>
        <time>2024-09-01T09:09:34.000Z</time>
      </trkpt>
      <trkpt lat="56.157268" lon="-3.350441">
        <ele>170.053152</ele>
        <time>2024-09-01T09:09:35.000Z</time>
      </trkpt>
      <trkpt lat="56.157196" lon="-3.350392">
        <ele>170.380718</ele>
        <time>2024-09-01T09:09:36.000Z</time>
      </trkpt>
      <trkpt lat="56.157072" lon="-3.350322">
        <ele>170.904883</ele>
        <time>2024-09-01T09:09:37.000Z</time>
      </trkpt>
      <trkpt lat="56.157068" lon="-3.350327">
        <ele>170.90489</ele>
        <time>2024-09-01T09:09:37.000Z</time>
      </trkpt>
      <trkpt lat="56.157" lon="-3.350451">
        <ele>171.351054</ele>
        <time>2024-09-01T09:09:38.000Z</time>
      </trkpt>
      <trkpt lat="56.156971" lon="-3.350665">
        <ele>171.857855</ele>
        <time>2024-09-01T09:09:39.000Z</time>
      </trkpt>
      <trkpt lat="56.156941" lon="-3.350733">
        <ele>172.023317</ele>
        <time>2024-09-01T09:09:40.000Z</time>
      </trkpt>
      <trkpt lat="56.156894" lon="-3.350832">
        <ele>172.294441</ele>
        <time>2024-09-01T09:09:41.000Z</time>
      </trkpt>
      <trkpt lat="56.156786" lon="-3.350982">
        <ele>172.874191</ele>
        <time>2024-09-01T09:09:43.000Z</time>
      </trkpt>
      <trkpt lat="56.156723" lon="-3.351071">
        <ele>173.173418</ele>
        <time>2024-09-01T09:09:44.000Z</time>
      </trkpt>
      <trkpt lat="56.156652" lon="-3.351139">
        <ele>173.407239</ele>
        <time>2024-09-01T09:09:45.000Z</time>
      </trkpt>
      <trkpt lat="56.156587" lon="-3.351209">
        <ele>173.635921</ele>
        <time>2024-09-01T09:09:46.000Z</time>
      </trkpt>
      <trkpt lat="56.156558" lon="-3.351262">
        <ele>173.750132</ele>
        <time>2024-09-01T09:09:46.000Z</time>
      </trkpt>
      <trkpt lat="56.156516" lon="-3.351349">
        <ele>173.951343</ele>
        <time>2024-09-01T09:09:47.000Z</time>
      </trkpt>
      <trkpt lat="56.156489" lon="-3.351448">
        <ele>174.110798</ele>
        <time>2024-09-01T09:09:48.000Z</time>
      </trkpt>
      <trkpt lat="56.156464" lon="-3.351575">
        <ele>174.359775</ele>
        <time>2024-09-01T09:09:49.000Z</time>
      </trkpt>
      <trkpt lat="56.156434" lon="-3.351747">
        <ele>174.634574</ele>
        <time>2024-09-01T09:09:50.000Z</time>
      </trkpt>
      <trkpt lat="56.156406" lon="-3.351903">
        <ele>174.908676</ele>
        <time>2024-09-01T09:09:51.000Z</time>
      </trkpt>
      <trkpt lat="56.156372" lon="-3.352049">
        <ele>175.16204</ele>
        <time>2024-09-01T09:09:52.000Z</time>
      </trkpt>
      <trkpt lat="56.15636" lon="-3.352109">
        <ele>175.284745</ele>
        <time>2024-09-01T09:09:52.000Z</time>
      </trkpt>
      <trkpt lat="56.156348" lon="-3.352266">
        <ele>175.540803</ele>
        <time>2024-09-01T09:09:53.000Z</time>
      </trkpt>
      <trkpt lat="56.156337" lon="-3.352344">
        <ele>175.662099</ele>
        <time>2024-09-01T09:09:53.000Z</time>
      </trkpt>
      <trkpt lat="56.156321" lon="-3.352579">
        <ele>176.055468</ele>
        <time>2024-09-01T09:09:54.000Z</time>
      </trkpt>
      <trkpt lat="56.156302" lon="-3.352712">
        <ele>176.286019</ele>
        <time>2024-09-01T09:09:55.000Z</time>
      </trkpt>
      <trkpt lat="56.156292" lon="-3.352903">
        <ele>176.581918</ele>
        <time>2024-09-01T09:09:56.000Z</time>
      </trkpt>
      <trkpt lat="56.156277" lon="-3.353042">
        <ele>176.83225</ele>
        <time>2024-09-01T09:09:57.000Z</time>
      </trkpt>
      <trkpt lat="56.15625" lon="-3.353173">
        <ele>177.040453</ele>
        <time>2024-09-01T09:09:58.000Z</time>
      </trkpt>
      <trkpt lat="56.156238" lon="-3.353259">
        <ele>177.194315</ele>
        <time>2024-09-01T09:09:59.000Z</time>
      </trkpt>
      <trkpt lat="56.156186" lon="-3.353369">
        <ele>177.447891</ele>
        <time>2024-09-01T09:10:00.000Z</time>
      </trkpt>
      <trkpt lat="56.15612" lon="-3.353474">
        <ele>177.668916</ele>
        <time>2024-09-01T09:10:01.000Z</time>
      </trkpt>
      <trkpt lat="56.156085" lon="-3.35352">
        <ele>177.824734</ele>
        <time>2024-09-01T09:10:01.000Z</time>
      </trkpt>
      <trkpt lat="56.156063" lon="-3.353527">
        <ele>177.89143</ele>
        <time>2024-09-01T09:10:01.000Z</time>
      </trkpt>
      <trkpt lat="56.156058" lon="-3.353528">
        <ele>177.89142</ele>
        <time>2024-09-01T09:10:01.000Z</time>
      </trkpt>
      <trkpt lat="56.156054" lon="-3.353541">
        <ele>177.891418</ele>
        <time>2024-09-01T09:10:01.000Z</time>
      </trkpt>
      <trkpt lat="56.155895" lon="-3.353681">
        <ele>178.297103</ele>
        <time>2024-09-01T09:10:03.000Z</time>
      </trkpt>
      <trkpt lat="56.155874" lon="-3.353697">
        <ele>178.224003</ele>
        <time>2024-09-01T09:10:03.000Z</time>
      </trkpt>
      <trkpt lat="56.155835" lon="-3.353744">
        <ele>178.019163</ele>
        <time>2024-09-01T09:10:04.000Z</time>
      </trkpt>
      <trkpt lat="56.155809" lon="-3.353922">
        <ele>177.606138</ele>
        <time>2024-09-01T09:10:05.000Z</time>
      </trkpt>
      <trkpt lat="56.155778" lon="-3.354057">
        <ele>177.289539</ele>
        <time>2024-09-01T09:10:06.000Z</time>
      </trkpt>
      <trkpt lat="56.155775" lon="-3.354122">
        <ele>177.129754</ele>
        <time>2024-09-01T09:10:06.000Z</time>
      </trkpt>
      <trkpt lat="56.155672" lon="-3.354209">
        <ele>176.678156</ele>
        <time>2024-09-01T09:10:07.000Z</time>
      </trkpt>
      <trkpt lat="56.15559" lon="-3.354218">
        <ele>176.417</ele>
        <time>2024-09-01T09:10:08.000Z</time>
      </trkpt>
      <trkpt lat="56.155545" lon="-3.354219">
        <ele>176.222698</ele>
        <time>2024-09-01T09:10:09.000Z</time>
      </trkpt>
      <trkpt lat="56.155495" lon="-3.35424">
        <ele>175.969592</ele>
        <time>2024-09-01T09:10:10.000Z</time>
      </trkpt>
      <trkpt lat="56.155413" lon="-3.354246">
        <ele>175.710309</ele>
        <time>2024-09-01T09:10:11.000Z</time>
      </trkpt>
      <trkpt lat="56.155352" lon="-3.354212">
        <ele>175.462778</ele>
        <time>2024-09-01T09:10:12.000Z</time>
      </trkpt>
      <trkpt lat="56.155306" lon="-3.354163">
        <ele>175.190262</ele>
        <time>2024-09-01T09:10:13.000Z</time>
      </trkpt>
      <trkpt lat="56.155229" lon="-3.354146">
        <ele>174.929366</ele>
        <time>2024-09-01T09:10:14.000Z</time>
      </trkpt>
      <trkpt lat="56.155143" lon="-3.354145">
        <ele>174.57725</ele>
        <time>2024-09-01T09:10:15.000Z</time>
      </trkpt>
      <trkpt lat="56.155049" lon="-3.35411">
        <ele>174.214031</ele>
        <time>2024-09-01T09:10:16.000Z</time>
      </trkpt>
      <trkpt lat="56.154948" lon="-3.354023">
        <ele>173.732103</ele>
        <time>2024-09-01T09:10:17.000Z</time>
      </trkpt>
      <trkpt lat="56.15485" lon="-3.353957">
        <ele>173.318021</ele>
        <time>2024-09-01T09:10:18.000Z</time>
      </trkpt>
      <trkpt lat="56.154801" lon="-3.353939">
        <ele>173.106681</ele>
        <time>2024-09-01T09:10:19.000Z</time>
      </trkpt>
      <trkpt lat="56.154723" lon="-3.353941">
        <ele>172.809655</ele>
        <time>2024-09-01T09:10:20.000Z</time>
      </trkpt>
      <trkpt lat="56.154656" lon="-3.353968">
        <ele>172.567391</ele>
        <time>2024-09-01T09:10:21.000Z</time>
      </trkpt>
      <trkpt lat="56.154581" lon="-3.35397">
        <ele>172.238896</ele>
        <time>2024-09-01T09:10:22.000Z</time>
      </trkpt>
      <trkpt lat="56.154531" lon="-3.353973">
        <ele>172.092247</ele>
        <time>2024-09-01T09:10:23.000Z</time>
      </trkpt>
      <trkpt lat="56.154478" lon="-3.35396">
        <ele>171.874108</ele>
        <time>2024-09-01T09:10:24.000Z</time>
      </trkpt>
      <trkpt lat="56.154306" lon="-3.353987">
        <ele>170.901152</ele>
        <time>2024-09-01T09:10:26.000Z</time>
      </trkpt>
      <trkpt lat="56.154266" lon="-3.353999">
        <ele>170.224947</ele>
        <time>2024-09-01T09:10:26.000Z</time>
      </trkpt>
      <trkpt lat="56.154139" lon="-3.354053">
        <ele>168.525511</ele>
        <time>2024-09-01T09:10:27.000Z</time>
      </trkpt>
      <trkpt lat="56.15408" lon="-3.354067">
        <ele>167.640029</ele>
        <time>2024-09-01T09:10:28.000Z</time>
      </trkpt>
      <trkpt lat="56.153943" lon="-3.354166">
        <ele>165.327128</ele>
        <time>2024-09-01T09:10:30.000Z</time>
      </trkpt>
      <trkpt lat="56.153915" lon="-3.354205">
        <ele>164.811961</ele>
        <time>2024-09-01T09:10:30.000Z</time>
      </trkpt>
      <trkpt lat="56.153691" lon="-3.354359">
        <ele>161.354535</ele>
        <time>2024-09-01T09:10:33.000Z</time>
      </trkpt>
      <trkpt lat="56.153585" lon="-3.354503">
        <ele>159.421586</ele>
        <time>2024-09-01T09:10:34.000Z</time>
      </trkpt>
      <trkpt lat="56.153556" lon="-3.354523">
        <ele>159.006184</ele>
        <time>2024-09-01T09:10:34.000Z</time>
      </trkpt>
      <trkpt lat="56.153484" lon="-3.354578">
        <ele>157.764954</ele>
        <time>2024-09-01T09:10:35.000Z</time>
      </trkpt>
      <trkpt lat="56.15342" lon="-3.354601">
        <ele>156.943469</ele>
        <time>2024-09-01T09:10:36.000Z</time>
      </trkpt>
      <trkpt lat="56.15326" lon="-3.354682">
        <ele>154.488226</ele>
        <time>2024-09-01T09:10:38.000Z</time>
      </trkpt>
      <trkpt lat="56.153179" lon="-3.354779">
        <ele>153.011018</ele>
        <time>2024-09-01T09:10:39.000Z</time>
      </trkpt>
      <trkpt lat="56.153138" lon="-3.354861">
        <ele>152.188771</ele>
        <time>2024-09-01T09:10:40.000Z</time>
      </trkpt>
      <trkpt lat="56.153097" lon="-3.354928">
        <ele>151.419306</ele>
        <time>2024-09-01T09:10:41.000Z</time>
      </trkpt>
      <trkpt lat="56.153041" lon="-3.35496">
        <ele>150.303661</ele>
        <time>2024-09-01T09:10:42.000Z</time>
      </trkpt>
      <trkpt lat="56.153021" lon="-3.354978">
        <ele>150.004798</ele>
        <time>2024-09-01T09:10:42.000Z</time>
      </trkpt>
      <trkpt lat="56.152879" lon="-3.355113">
        <ele>147.676391</ele>
        <time>2024-09-01T09:10:44.000Z</time>
      </trkpt>
      <trkpt lat="56.152775" lon="-3.355169">
        <ele>146.251595</ele>
        <time>2024-09-01T09:10:45.000Z</time>
      </trkpt>
      <trkpt lat="56.152722" lon="-3.355244">
        <ele>145.088164</ele>
        <time>2024-09-01T09:10:46.000Z</time>
      </trkpt>
      <trkpt lat="56.152635" lon="-3.35533">
        <ele>143.766471</ele>
        <time>2024-09-01T09:10:47.000Z</time>
      </trkpt>
      <trkpt lat="56.15254" lon="-3.355398">
        <ele>142.502135</ele>
        <time>2024-09-01T09:10:48.000Z</time>
      </trkpt>
      <trkpt lat="56.152516" lon="-3.355429">
        <ele>142.051281</ele>
        <time>2024-09-01T09:10:48.000Z</time>
      </trkpt>
      <trkpt lat="56.152439" lon="-3.355505">
        <ele>141.026016</ele>
        <time>2024-09-01T09:10:49.000Z</time>
      </trkpt>
      <trkpt lat="56.152338" lon="-3.355594">
        <ele>139.507451</ele>
        <time>2024-09-01T09:10:50.000Z</time>
      </trkpt>
      <trkpt lat="56.152299" lon="-3.355631">
        <ele>138.771924</ele>
        <time>2024-09-01T09:10:50.000Z</time>
      </trkpt>
      <trkpt lat="56.152192" lon="-3.355678">
        <ele>137.310512</ele>
        <time>2024-09-01T09:10:51.000Z</time>
      </trkpt>
      <trkpt lat="56.152103" lon="-3.355782">
        <ele>136.04104</ele>
        <time>2024-09-01T09:10:52.000Z</time>
      </trkpt>
      <trkpt lat="56.152066" lon="-3.355815">
        <ele>135.412257</ele>
        <time>2024-09-01T09:10:52.000Z</time>
      </trkpt>
      <trkpt lat="56.151963" lon="-3.35589">
        <ele>133.897747</ele>
        <time>2024-09-01T09:10:53.000Z</time>
      </trkpt>
      <trkpt lat="56.151843" lon="-3.355977">
        <ele>132.234401</ele>
        <time>2024-09-01T09:10:54.000Z</time>
      </trkpt>
      <trkpt lat="56.151788" lon="-3.356022">
        <ele>131.496245</ele>
        <time>2024-09-01T09:10:55.000Z</time>
      </trkpt>
      <trkpt lat="56.151697" lon="-3.356053">
        <ele>130.169866</ele>
        <time>2024-09-01T09:10:56.000Z</time>
      </trkpt>
      <trkpt lat="56.151646" lon="-3.356103">
        <ele>129.533108</ele>
        <time>2024-09-01T09:10:57.000Z</time>
      </trkpt>
      <trkpt lat="56.15158" lon="-3.356196">
        <ele>128.323883</ele>
        <time>2024-09-01T09:10:58.000Z</time>
      </trkpt>
      <trkpt lat="56.151529" lon="-3.356238">
        <ele>127.649953</ele>
        <time>2024-09-01T09:10:59.000Z</time>
      </trkpt>
      <trkpt lat="56.151377" lon="-3.356373">
        <ele>125.324735</ele>
        <time>2024-09-01T09:11:01.000Z</time>
      </trkpt>
      <trkpt lat="56.151205" lon="-3.356469">
        <ele>122.949774</ele>
        <time>2024-09-01T09:11:03.000Z</time>
      </trkpt>
      <trkpt lat="56.151149" lon="-3.356486">
        <ele>122.215014</ele>
        <time>2024-09-01T09:11:04.000Z</time>
      </trkpt>
      <trkpt lat="56.151029" lon="-3.35654">
        <ele>120.731843</ele>
        <time>2024-09-01T09:11:05.000Z</time>
      </trkpt>
      <trkpt lat="56.150898" lon="-3.356614">
        <ele>119.601644</ele>
        <time>2024-09-01T09:11:07.000Z</time>
      </trkpt>
      <trkpt lat="56.150849" lon="-3.35667">
        <ele>119.06205</ele>
        <time>2024-09-01T09:11:08.000Z</time>
      </trkpt>
      <trkpt lat="56.150798" lon="-3.356724">
        <ele>118.53594</ele>
        <time>2024-09-01T09:11:09.000Z</time>
      </trkpt>
      <trkpt lat="56.150672" lon="-3.356739">
        <ele>117.357478</ele>
        <time>2024-09-01T09:11:10.000Z</time>
      </trkpt>
      <trkpt lat="56.150585" lon="-3.356688">
        <ele>116.649007</ele>
        <time>2024-09-01T09:11:11.000Z</time>
      </trkpt>
      <trkpt lat="56.150472" lon="-3.356617">
        <ele>115.548053</ele>
        <time>2024-09-01T09:11:12.000Z</time>
      </trkpt>
      <trkpt lat="56.150401" lon="-3.35657">
        <ele>114.887582</ele>
        <time>2024-09-01T09:11:13.000Z</time>
      </trkpt>
      <trkpt lat="56.150268" lon="-3.356507">
        <ele>113.783822</ele>
        <time>2024-09-01T09:11:15.000Z</time>
      </trkpt>
      <trkpt lat="56.150037" lon="-3.356488">
        <ele>111.681783</ele>
        <time>2024-09-01T09:11:18.000Z</time>
      </trkpt>
      <trkpt lat="56.149952" lon="-3.356472">
        <ele>111.030162</ele>
        <time>2024-09-01T09:11:19.000Z</time>
      </trkpt>
      <trkpt lat="56.149814" lon="-3.356443">
        <ele>109.75416</ele>
        <time>2024-09-01T09:11:21.000Z</time>
      </trkpt>
      <trkpt lat="56.149691" lon="-3.356467">
        <ele>108.704867</ele>
        <time>2024-09-01T09:11:22.000Z</time>
      </trkpt>
      <trkpt lat="56.149603" lon="-3.356568">
        <ele>107.702306</ele>
        <time>2024-09-01T09:11:23.000Z</time>
      </trkpt>
      <trkpt lat="56.149553" lon="-3.356649">
        <ele>107.115075</ele>
        <time>2024-09-01T09:11:24.000Z</time>
      </trkpt>
      <trkpt lat="56.149365" lon="-3.356925">
        <ele>105.244656</ele>
        <time>2024-09-01T09:11:27.000Z</time>
      </trkpt>
      <trkpt lat="56.149256" lon="-3.357079">
        <ele>104.623251</ele>
        <time>2024-09-01T09:11:29.000Z</time>
      </trkpt>
      <trkpt lat="56.14918" lon="-3.357188">
        <ele>104.13797</ele>
        <time>2024-09-01T09:11:30.000Z</time>
      </trkpt>
      <trkpt lat="56.149107" lon="-3.357216">
        <ele>103.849297</ele>
        <time>2024-09-01T09:11:31.000Z</time>
      </trkpt>
      <trkpt lat="56.149037" lon="-3.357146">
        <ele>103.443807</ele>
        <time>2024-09-01T09:11:32.000Z</time>
      </trkpt>
      <trkpt lat="56.149028" lon="-3.356982">
        <ele>103.017159</ele>
        <time>2024-09-01T09:11:33.000Z</time>
      </trkpt>
      <trkpt lat="56.149103" lon="-3.356817">
        <ele>102.497592</ele>
        <time>2024-09-01T09:11:34.000Z</time>
      </trkpt>
      <trkpt lat="56.149157" lon="-3.356614">
        <ele>101.925359</ele>
        <time>2024-09-01T09:11:35.000Z</time>
      </trkpt>
      <trkpt lat="56.149182" lon="-3.356502">
        <ele>101.629193</ele>
        <time>2024-09-01T09:11:36.000Z</time>
      </trkpt>
      <trkpt lat="56.149249" lon="-3.356283">
        <ele>101.01444</ele>
        <time>2024-09-01T09:11:38.000Z</time>
      </trkpt>
      <trkpt lat="56.149304" lon="-3.356058">
        <ele>100.373667</ele>
        <time>2024-09-01T09:11:40.000Z</time>
      </trkpt>
      <trkpt lat="56.149367" lon="-3.355817">
        <ele>99.70037</ele>
        <time>2024-09-01T09:11:42.000Z</time>
      </trkpt>
      <trkpt lat="56.149435" lon="-3.355537">
        <ele>98.950678</ele>
        <time>2024-09-01T09:11:44.000Z</time>
      </trkpt>
      <trkpt lat="56.149516" lon="-3.355265">
        <ele>98.198706</ele>
        <time>2024-09-01T09:11:46.000Z</time>
      </trkpt>
      <trkpt lat="56.149576" lon="-3.354998">
        <ele>97.466059</ele>
        <time>2024-09-01T09:11:48.000Z</time>
      </trkpt>
      <trkpt lat="56.149645" lon="-3.354737">
        <ele>97.137631</ele>
        <time>2024-09-01T09:11:50.000Z</time>
      </trkpt>
      <trkpt lat="56.149713" lon="-3.354492">
        <ele>96.952618</ele>
        <time>2024-09-01T09:11:52.000Z</time>
      </trkpt>
      <trkpt lat="56.149731" lon="-3.354389">
        <ele>96.881197</ele>
        <time>2024-09-01T09:11:53.000Z</time>
      </trkpt>
      <trkpt lat="56.149712" lon="-3.354184">
        <ele>96.748518</ele>
        <time>2024-09-01T09:11:54.000Z</time>
      </trkpt>
      <trkpt lat="56.149668" lon="-3.353972">
        <ele>96.609374</ele>
        <time>2024-09-01T09:11:55.000Z</time>
      </trkpt>
      <trkpt lat="56.149654" lon="-3.353784">
        <ele>96.477089</ele>
        <time>2024-09-01T09:11:56.000Z</time>
      </trkpt>
      <trkpt lat="56.149626" lon="-3.353513">
        <ele>96.308496</ele>
        <time>2024-09-01T09:11:58.000Z</time>
      </trkpt>
      <trkpt lat="56.149631" lon="-3.353387">
        <ele>96.224573</ele>
        <time>2024-09-01T09:11:59.000Z</time>
      </trkpt>
      <trkpt lat="56.149646" lon="-3.353124">
        <ele>96.052976</ele>
        <time>2024-09-01T09:12:01.000Z</time>
      </trkpt>
      <trkpt lat="56.149643" lon="-3.353036">
        <ele>95.987926</ele>
        <time>2024-09-01T09:12:02.000Z</time>
      </trkpt>
      <trkpt lat="56.149652" lon="-3.352586">
        <ele>95.702994</ele>
        <time>2024-09-01T09:12:05.000Z</time>
      </trkpt>
      <trkpt lat="56.149649" lon="-3.352332">
        <ele>95.532793</ele>
        <time>2024-09-01T09:12:07.000Z</time>
      </trkpt>
      <trkpt lat="56.149628" lon="-3.352082">
        <ele>95.365269</ele>
        <time>2024-09-01T09:12:09.000Z</time>
      </trkpt>
      <trkpt lat="56.149617" lon="-3.351833">
        <ele>95.202408</ele>
        <time>2024-09-01T09:12:11.000Z</time>
      </trkpt>
      <trkpt lat="56.149606" lon="-3.351578">
        <ele>95.226032</ele>
        <time>2024-09-01T09:12:13.000Z</time>
      </trkpt>
      <trkpt lat="56.149583" lon="-3.35136">
        <ele>95.284617</ele>
        <time>2024-09-01T09:12:14.000Z</time>
      </trkpt>
      <trkpt lat="56.149585" lon="-3.351255">
        <ele>95.309558</ele>
        <time>2024-09-01T09:12:15.000Z</time>
      </trkpt>
      <trkpt lat="56.149627" lon="-3.351155">
        <ele>95.341806</ele>
        <time>2024-09-01T09:12:16.000Z</time>
      </trkpt>
      <trkpt lat="56.149699" lon="-3.351184">
        <ele>95.374449</ele>
        <time>2024-09-01T09:12:17.000Z</time>
      </trkpt>
      <trkpt lat="56.149721" lon="-3.351201">
        <ele>95.390732</ele>
        <time>2024-09-01T09:12:17.000Z</time>
      </trkpt>
      <trkpt lat="56.149753" lon="-3.351184">
        <ele>95.402487</ele>
        <time>2024-09-01T09:12:17.000Z</time>
      </trkpt>
      <trkpt lat="56.14979" lon="-3.351083">
        <ele>95.432152</ele>
        <time>2024-09-01T09:12:18.000Z</time>
      </trkpt>
      <trkpt lat="56.149813" lon="-3.351">
        <ele>95.461816</ele>
        <time>2024-09-01T09:12:19.000Z</time>
      </trkpt>
      <trkpt lat="56.149838" lon="-3.35094">
        <ele>95.479292</ele>
        <time>2024-09-01T09:12:19.000Z</time>
      </trkpt>
      <trkpt lat="56.149937" lon="-3.350826">
        <ele>95.532596</ele>
        <time>2024-09-01T09:12:20.000Z</time>
      </trkpt>
      <trkpt lat="56.150034" lon="-3.350797">
        <ele>95.573545</ele>
        <time>2024-09-01T09:12:21.000Z</time>
      </trkpt>
      <trkpt lat="56.150107" lon="-3.350741">
        <ele>95.616015</ele>
        <time>2024-09-01T09:12:22.000Z</time>
      </trkpt>
      <trkpt lat="56.150164" lon="-3.350682">
        <ele>95.645194</ele>
        <time>2024-09-01T09:12:23.000Z</time>
      </trkpt>
      <trkpt lat="56.150179" lon="-3.350601">
        <ele>95.663746</ele>
        <time>2024-09-01T09:12:24.000Z</time>
      </trkpt>
      <trkpt lat="56.150196" lon="-3.350519">
        <ele>95.689125</ele>
        <time>2024-09-01T09:12:25.000Z</time>
      </trkpt>
      <trkpt lat="56.150242" lon="-3.350389">
        <ele>95.726824</ele>
        <time>2024-09-01T09:12:26.000Z</time>
      </trkpt>
      <trkpt lat="56.150285" lon="-3.350253">
        <ele>95.770583</ele>
        <time>2024-09-01T09:12:27.000Z</time>
      </trkpt>
      <trkpt lat="56.150298" lon="-3.350108">
        <ele>95.807806</ele>
        <time>2024-09-01T09:12:28.000Z</time>
      </trkpt>
      <trkpt lat="56.150312" lon="-3.350033">
        <ele>95.827934</ele>
        <time>2024-09-01T09:12:28.000Z</time>
      </trkpt>
      <trkpt lat="56.150311" lon="-3.349925">
        <ele>95.855636</ele>
        <time>2024-09-01T09:12:29.000Z</time>
      </trkpt>
      <trkpt lat="56.150413" lon="-3.349661">
        <ele>95.936387</ele>
        <time>2024-09-01T09:12:31.000Z</time>
      </trkpt>
      <trkpt lat="56.150401" lon="-3.349492">
        <ele>95.97949</ele>
        <time>2024-09-01T09:12:32.000Z</time>
      </trkpt>
      <trkpt lat="56.150379" lon="-3.349451">
        <ele>95.991399</ele>
        <time>2024-09-01T09:12:32.000Z</time>
      </trkpt>
      <trkpt lat="56.150381" lon="-3.349365">
        <ele>95.985798</ele>
        <time>2024-09-01T09:12:33.000Z</time>
      </trkpt>
      <trkpt lat="56.150396" lon="-3.349261">
        <ele>95.936692</ele>
        <time>2024-09-01T09:12:34.000Z</time>
      </trkpt>
      <trkpt lat="56.150424" lon="-3.349155">
        <ele>95.890756</ele>
        <time>2024-09-01T09:12:35.000Z</time>
      </trkpt>
      <trkpt lat="56.150431" lon="-3.348949">
        <ele>95.797263</ele>
        <time>2024-09-01T09:12:36.000Z</time>
      </trkpt>
      <trkpt lat="56.150449" lon="-3.348886">
        <ele>95.769722</ele>
        <time>2024-09-01T09:12:36.000Z</time>
      </trkpt>
      <trkpt lat="56.150452" lon="-3.348797">
        <ele>95.732234</ele>
        <time>2024-09-01T09:12:37.000Z</time>
      </trkpt>
      <trkpt lat="56.150418" lon="-3.34864">
        <ele>95.658052</ele>
        <time>2024-09-01T09:12:38.000Z</time>
      </trkpt>
      <trkpt lat="56.150385" lon="-3.348564">
        <ele>95.622388</ele>
        <time>2024-09-01T09:12:39.000Z</time>
      </trkpt>
      <trkpt lat="56.150385" lon="-3.348506">
        <ele>95.600569</ele>
        <time>2024-09-01T09:12:39.000Z</time>
      </trkpt>
      <trkpt lat="56.150435" lon="-3.348296">
        <ele>95.496077</ele>
        <time>2024-09-01T09:12:40.000Z</time>
      </trkpt>
      <trkpt lat="56.150442" lon="-3.348119">
        <ele>95.417447</ele>
        <time>2024-09-01T09:12:41.000Z</time>
      </trkpt>
      <trkpt lat="56.150433" lon="-3.348051">
        <ele>95.389552</ele>
        <time>2024-09-01T09:12:41.000Z</time>
      </trkpt>
      <trkpt lat="56.150426" lon="-3.347879">
        <ele>95.313721</ele>
        <time>2024-09-01T09:12:42.000Z</time>
      </trkpt>
      <trkpt lat="56.150436" lon="-3.34781">
        <ele>95.284487</ele>
        <time>2024-09-01T09:12:42.000Z</time>
      </trkpt>
      <trkpt lat="56.150477" lon="-3.347662">
        <ele>95.212954</ele>
        <time>2024-09-01T09:12:43.000Z</time>
      </trkpt>
      <trkpt lat="56.150487" lon="-3.347614">
        <ele>95.186594</ele>
        <time>2024-09-01T09:12:43.000Z</time>
      </trkpt>
      <trkpt lat="56.150522" lon="-3.347377">
        <ele>95.084434</ele>
        <time>2024-09-01T09:12:45.000Z</time>
      </trkpt>
      <trkpt lat="56.150522" lon="-3.347221">
        <ele>95.013831</ele>
        <time>2024-09-01T09:12:46.000Z</time>
      </trkpt>
      <trkpt lat="56.150513" lon="-3.347096">
        <ele>94.955423</ele>
        <time>2024-09-01T09:12:47.000Z</time>
      </trkpt>
      <trkpt lat="56.150484" lon="-3.347023">
        <ele>94.919504</ele>
        <time>2024-09-01T09:12:48.000Z</time>
      </trkpt>
      <trkpt lat="56.150421" lon="-3.346883">
        <ele>94.843668</ele>
        <time>2024-09-01T09:12:49.000Z</time>
      </trkpt>
      <trkpt lat="56.150393" lon="-3.346809">
        <ele>94.800147</ele>
        <time>2024-09-01T09:12:50.000Z</time>
      </trkpt>
      <trkpt lat="56.150301" lon="-3.34665">
        <ele>94.711818</ele>
        <time>2024-09-01T09:12:51.000Z</time>
      </trkpt>
      <trkpt lat="56.150232" lon="-3.346501">
        <ele>94.624238</ele>
        <time>2024-09-01T09:12:52.000Z</time>
      </trkpt>
      <trkpt lat="56.150197" lon="-3.346422">
        <ele>94.616129</ele>
        <time>2024-09-01T09:12:53.000Z</time>
      </trkpt>
      <trkpt lat="56.150136" lon="-3.346308">
        <ele>94.686081</ele>
        <time>2024-09-01T09:12:54.000Z</time>
      </trkpt>
      <trkpt lat="56.150121" lon="-3.3462">
        <ele>94.734848</ele>
        <time>2024-09-01T09:12:55.000Z</time>
      </trkpt>
      <trkpt lat="56.15012" lon="-3.346024">
        <ele>94.81198</ele>
        <time>2024-09-01T09:12:56.000Z</time>
      </trkpt>
      <trkpt lat="56.15007" lon="-3.345837">
        <ele>94.89939</ele>
        <time>2024-09-01T09:12:57.000Z</time>
      </trkpt>
      <trkpt lat="56.150017" lon="-3.345646">
        <ele>94.990845</ele>
        <time>2024-09-01T09:12:58.000Z</time>
      </trkpt>
      <trkpt lat="56.149983" lon="-3.34549">
        <ele>95.062975</ele>
        <time>2024-09-01T09:12:59.000Z</time>
      </trkpt>
      <trkpt lat="56.15" lon="-3.345432">
        <ele>95.09424</ele>
        <time>2024-09-01T09:12:59.000Z</time>
      </trkpt>
      <trkpt lat="56.150054" lon="-3.345293">
        <ele>95.16097</ele>
        <time>2024-09-01T09:13:00.000Z</time>
      </trkpt>
      <trkpt lat="56.150052" lon="-3.345247">
        <ele>95.184255</ele>
        <time>2024-09-01T09:13:00.000Z</time>
      </trkpt>
      <trkpt lat="56.149977" lon="-3.345109">
        <ele>95.275606</ele>
        <time>2024-09-01T09:13:01.000Z</time>
      </trkpt>
      <trkpt lat="56.149906" lon="-3.344996">
        <ele>95.346671</ele>
        <time>2024-09-01T09:13:02.000Z</time>
      </trkpt>
      <trkpt lat="56.149837" lon="-3.344858">
        <ele>95.423374</ele>
        <time>2024-09-01T09:13:03.000Z</time>
      </trkpt>
      <trkpt lat="56.149811" lon="-3.344779">
        <ele>95.4629</ele>
        <time>2024-09-01T09:13:04.000Z</time>
      </trkpt>
      <trkpt lat="56.149782" lon="-3.344714">
        <ele>95.501061</ele>
        <time>2024-09-01T09:13:05.000Z</time>
      </trkpt>
      <trkpt lat="56.149722" lon="-3.344581">
        <ele>95.575028</ele>
        <time>2024-09-01T09:13:06.000Z</time>
      </trkpt>
      <trkpt lat="56.149688" lon="-3.344512">
        <ele>95.612545</ele>
        <time>2024-09-01T09:13:07.000Z</time>
      </trkpt>
      <trkpt lat="56.149657" lon="-3.344374">
        <ele>95.680184</ele>
        <time>2024-09-01T09:13:08.000Z</time>
      </trkpt>
      <trkpt lat="56.149654" lon="-3.344296">
        <ele>95.711731</ele>
        <time>2024-09-01T09:13:08.000Z</time>
      </trkpt>
      <trkpt lat="56.149585" lon="-3.344198">
        <ele>95.772996</ele>
        <time>2024-09-01T09:13:09.000Z</time>
      </trkpt>
      <trkpt lat="56.149516" lon="-3.344146">
        <ele>95.841706</ele>
        <time>2024-09-01T09:13:10.000Z</time>
      </trkpt>
      <trkpt lat="56.149476" lon="-3.344084">
        <ele>95.873655</ele>
        <time>2024-09-01T09:13:11.000Z</time>
      </trkpt>
      <trkpt lat="56.149457" lon="-3.344016">
        <ele>95.911654</ele>
        <time>2024-09-01T09:13:11.000Z</time>
      </trkpt>
      <trkpt lat="56.149347" lon="-3.343849">
        <ele>96.010684</ele>
        <time>2024-09-01T09:13:13.000Z</time>
      </trkpt>
      <trkpt lat="56.149253" lon="-3.343775">
        <ele>96.071852</ele>
        <time>2024-09-01T09:13:14.000Z</time>
      </trkpt>
      <trkpt lat="56.149183" lon="-3.343643">
        <ele>96.130075</ele>
        <time>2024-09-01T09:13:15.000Z</time>
      </trkpt>
      <trkpt lat="56.149152" lon="-3.343558">
        <ele>96.162504</ele>
        <time>2024-09-01T09:13:16.000Z</time>
      </trkpt>
      <trkpt lat="56.149069" lon="-3.343456">
        <ele>96.225646</ele>
        <time>2024-09-01T09:13:17.000Z</time>
      </trkpt>
      <trkpt lat="56.148949" lon="-3.343209">
        <ele>96.322903</ele>
        <time>2024-09-01T09:13:19.000Z</time>
      </trkpt>
      <trkpt lat="56.148915" lon="-3.343148">
        <ele>96.35548</ele>
        <time>2024-09-01T09:13:20.000Z</time>
      </trkpt>
      <trkpt lat="56.148834" lon="-3.343017">
        <ele>96.419124</ele>
        <time>2024-09-01T09:13:21.000Z</time>
      </trkpt>
      <trkpt lat="56.148763" lon="-3.342888">
        <ele>96.480097</ele>
        <time>2024-09-01T09:13:22.000Z</time>
      </trkpt>
      <trkpt lat="56.148701" lon="-3.342722">
        <ele>96.54496</ele>
        <time>2024-09-01T09:13:23.000Z</time>
      </trkpt>
      <trkpt lat="56.148623" lon="-3.342636">
        <ele>96.595643</ele>
        <time>2024-09-01T09:13:24.000Z</time>
      </trkpt>
      <trkpt lat="56.148614" lon="-3.342533">
        <ele>96.625956</ele>
        <time>2024-09-01T09:13:25.000Z</time>
      </trkpt>
      <trkpt lat="56.14862" lon="-3.34248">
        <ele>96.642783</ele>
        <time>2024-09-01T09:13:25.000Z</time>
      </trkpt>
      <trkpt lat="56.148611" lon="-3.342358">
        <ele>96.685894</ele>
        <time>2024-09-01T09:13:26.000Z</time>
      </trkpt>
      <trkpt lat="56.148643" lon="-3.342285">
        <ele>96.716012</ele>
        <time>2024-09-01T09:13:27.000Z</time>
      </trkpt>
      <trkpt lat="56.148704" lon="-3.342295">
        <ele>96.761259</ele>
        <time>2024-09-01T09:13:28.000Z</time>
      </trkpt>
      <trkpt lat="56.148746" lon="-3.34232">
        <ele>96.77654</ele>
        <time>2024-09-01T09:13:28.000Z</time>
      </trkpt>
      <trkpt lat="56.148837" lon="-3.342356">
        <ele>96.8336</ele>
        <time>2024-09-01T09:13:29.000Z</time>
      </trkpt>
      <trkpt lat="56.148869" lon="-3.342349">
        <ele>96.85572</ele>
        <time>2024-09-01T09:13:29.000Z</time>
      </trkpt>
      <trkpt lat="56.148918" lon="-3.342246">
        <ele>96.901622</ele>
        <time>2024-09-01T09:13:30.000Z</time>
      </trkpt>
      <trkpt lat="56.148928" lon="-3.342244">
        <ele>96.901616</ele>
        <time>2024-09-01T09:13:30.000Z</time>
      </trkpt>
      <trkpt lat="56.149044" lon="-3.341728">
        <ele>97.031988</ele>
        <time>2024-09-01T09:13:33.000Z</time>
      </trkpt>
      <trkpt lat="56.14908" lon="-3.341631">
        <ele>97.032662</ele>
        <time>2024-09-01T09:13:34.000Z</time>
      </trkpt>
      <trkpt lat="56.149164" lon="-3.341344">
        <ele>97.034761</ele>
        <time>2024-09-01T09:13:36.000Z</time>
      </trkpt>
      <trkpt lat="56.14923" lon="-3.341127">
        <ele>97.036231</ele>
        <time>2024-09-01T09:13:38.000Z</time>
      </trkpt>
      <trkpt lat="56.149285" lon="-3.340931">
        <ele>97.037731</ele>
        <time>2024-09-01T09:13:39.000Z</time>
      </trkpt>
      <trkpt lat="56.149302" lon="-3.340921">
        <ele>97.037728</ele>
        <time>2024-09-01T09:13:39.000Z</time>
      </trkpt>
      <trkpt lat="56.149358" lon="-3.340792">
        <ele>97.03874</ele>
        <time>2024-09-01T09:13:40.000Z</time>
      </trkpt>
      <trkpt lat="56.149467" lon="-3.340547">
        <ele>97.040779</ele>
        <time>2024-09-01T09:13:42.000Z</time>
      </trkpt>
      <trkpt lat="56.149456" lon="-3.340449">
        <ele>97.041347</ele>
        <time>2024-09-01T09:13:43.000Z</time>
      </trkpt>
      <trkpt lat="56.149432" lon="-3.340388">
        <ele>97.04187</ele>
        <time>2024-09-01T09:13:43.000Z</time>
      </trkpt>
      <trkpt lat="56.149406" lon="-3.34018">
        <ele>97.043151</ele>
        <time>2024-09-01T09:13:44.000Z</time>
      </trkpt>
      <trkpt lat="56.149428" lon="-3.339927">
        <ele>97.044814</ele>
        <time>2024-09-01T09:13:46.000Z</time>
      </trkpt>
      <trkpt lat="56.14951" lon="-3.339892">
        <ele>97.045752</ele>
        <time>2024-09-01T09:13:47.000Z</time>
      </trkpt>
      <trkpt lat="56.149582" lon="-3.339808">
        <ele>97.046721</ele>
        <time>2024-09-01T09:13:48.000Z</time>
      </trkpt>
      <trkpt lat="56.14967" lon="-3.339714">
        <ele>97.047865</ele>
        <time>2024-09-01T09:13:49.000Z</time>
      </trkpt>
      <trkpt lat="56.149722" lon="-3.339658">
        <ele>97.048416</ele>
        <time>2024-09-01T09:13:50.000Z</time>
      </trkpt>
      <trkpt lat="56.149802" lon="-3.339576">
        <ele>97.049519</ele>
        <time>2024-09-01T09:13:51.000Z</time>
      </trkpt>
      <trkpt lat="56.149913" lon="-3.339528">
        <ele>97.050769</ele>
        <time>2024-09-01T09:13:52.000Z</time>
      </trkpt>
      <trkpt lat="56.150025" lon="-3.339517">
        <ele>97.088135</ele>
        <time>2024-09-01T09:13:53.000Z</time>
      </trkpt>
      <trkpt lat="56.150065" lon="-3.339544">
        <ele>97.115273</ele>
        <time>2024-09-01T09:13:53.000Z</time>
      </trkpt>
      <trkpt lat="56.150105" lon="-3.339587">
        <ele>97.139963</ele>
        <time>2024-09-01T09:13:54.000Z</time>
      </trkpt>
      <trkpt lat="56.150176" lon="-3.339732">
        <ele>97.195379</ele>
        <time>2024-09-01T09:13:55.000Z</time>
      </trkpt>
      <trkpt lat="56.150211" lon="-3.339786">
        <ele>97.221502</ele>
        <time>2024-09-01T09:13:56.000Z</time>
      </trkpt>
      <trkpt lat="56.150346" lon="-3.339999">
        <ele>97.306144</ele>
        <time>2024-09-01T09:13:58.000Z</time>
      </trkpt>
      <trkpt lat="56.150395" lon="-3.34002">
        <ele>97.333863</ele>
        <time>2024-09-01T09:13:59.000Z</time>
      </trkpt>
      <trkpt lat="56.150497" lon="-3.339955">
        <ele>97.389264</ele>
        <time>2024-09-01T09:14:00.000Z</time>
      </trkpt>
      <trkpt lat="56.150606" lon="-3.339905">
        <ele>97.444642</ele>
        <time>2024-09-01T09:14:01.000Z</time>
      </trkpt>
      <trkpt lat="56.150711" lon="-3.339911">
        <ele>97.499611</ele>
        <time>2024-09-01T09:14:02.000Z</time>
      </trkpt>
      <trkpt lat="56.150735" lon="-3.339923">
        <ele>97.514928</ele>
        <time>2024-09-01T09:14:02.000Z</time>
      </trkpt>
      <trkpt lat="56.150812" lon="-3.339966">
        <ele>97.549206</ele>
        <time>2024-09-01T09:14:03.000Z</time>
      </trkpt>
      <trkpt lat="56.150895" lon="-3.339901">
        <ele>97.599948</ele>
        <time>2024-09-01T09:14:04.000Z</time>
      </trkpt>
      <trkpt lat="56.150997" lon="-3.339737">
        <ele>97.66921</ele>
        <time>2024-09-01T09:14:06.000Z</time>
      </trkpt>
      <trkpt lat="56.151074" lon="-3.339713">
        <ele>97.705917</ele>
        <time>2024-09-01T09:14:07.000Z</time>
      </trkpt>
      <trkpt lat="56.151111" lon="-3.339694">
        <ele>97.725375</ele>
        <time>2024-09-01T09:14:07.000Z</time>
      </trkpt>
      <trkpt lat="56.151283" lon="-3.339593">
        <ele>97.819624</ele>
        <time>2024-09-01T09:14:09.000Z</time>
      </trkpt>
      <trkpt lat="56.151324" lon="-3.33957">
        <ele>97.839385</ele>
        <time>2024-09-01T09:14:09.000Z</time>
      </trkpt>
      <trkpt lat="56.151456" lon="-3.339372">
        <ele>97.928949</ele>
        <time>2024-09-01T09:14:11.000Z</time>
      </trkpt>
      <trkpt lat="56.151524" lon="-3.339367">
        <ele>97.961009</ele>
        <time>2024-09-01T09:14:12.000Z</time>
      </trkpt>
      <trkpt lat="56.15159" lon="-3.339401">
        <ele>98.016447</ele>
        <time>2024-09-01T09:14:13.000Z</time>
      </trkpt>
      <trkpt lat="56.151672" lon="-3.339395">
        <ele>98.0655</ele>
        <time>2024-09-01T09:14:14.000Z</time>
      </trkpt>
      <trkpt lat="56.151743" lon="-3.33927">
        <ele>98.137976</ele>
        <time>2024-09-01T09:14:15.000Z</time>
      </trkpt>
      <trkpt lat="56.151772" lon="-3.33918">
        <ele>98.177998</ele>
        <time>2024-09-01T09:14:16.000Z</time>
      </trkpt>
      <trkpt lat="56.151788" lon="-3.339006">
        <ele>98.246194</ele>
        <time>2024-09-01T09:14:17.000Z</time>
      </trkpt>
      <trkpt lat="56.151804" lon="-3.338677">
        <ele>98.375245</ele>
        <time>2024-09-01T09:14:19.000Z</time>
      </trkpt>
      <trkpt lat="56.151793" lon="-3.338507">
        <ele>98.445511</ele>
        <time>2024-09-01T09:14:20.000Z</time>
      </trkpt>
      <trkpt lat="56.151799" lon="-3.338449">
        <ele>98.470153</ele>
        <time>2024-09-01T09:14:20.000Z</time>
      </trkpt>
      <trkpt lat="56.151842" lon="-3.338334">
        <ele>98.521012</ele>
        <time>2024-09-01T09:14:21.000Z</time>
      </trkpt>
      <trkpt lat="56.151963" lon="-3.338165">
        <ele>98.624968</ele>
        <time>2024-09-01T09:14:23.000Z</time>
      </trkpt>
      <trkpt lat="56.152046" lon="-3.338133">
        <ele>98.690682</ele>
        <time>2024-09-01T09:14:24.000Z</time>
      </trkpt>
      <trkpt lat="56.152121" lon="-3.338148">
        <ele>98.740488</ele>
        <time>2024-09-01T09:14:25.000Z</time>
      </trkpt>
      <trkpt lat="56.152211" lon="-3.338099">
        <ele>98.804323</ele>
        <time>2024-09-01T09:14:26.000Z</time>
      </trkpt>
      <trkpt lat="56.152294" lon="-3.338057">
        <ele>98.868591</ele>
        <time>2024-09-01T09:14:27.000Z</time>
      </trkpt>
      <trkpt lat="56.152317" lon="-3.338063">
        <ele>98.890381</ele>
        <time>2024-09-01T09:14:27.000Z</time>
      </trkpt>
      <trkpt lat="56.152409" lon="-3.338087">
        <ele>98.943506</ele>
        <time>2024-09-01T09:14:28.000Z</time>
      </trkpt>
      <trkpt lat="56.152551" lon="-3.338112">
        <ele>99.048785</ele>
        <time>2024-09-01T09:14:30.000Z</time>
      </trkpt>
      <trkpt lat="56.152635" lon="-3.338148">
        <ele>99.115739</ele>
        <time>2024-09-01T09:14:31.000Z</time>
      </trkpt>
      <trkpt lat="56.152724" lon="-3.338187">
        <ele>99.175338</ele>
        <time>2024-09-01T09:14:32.000Z</time>
      </trkpt>
      <trkpt lat="56.152783" lon="-3.338203">
        <ele>99.21316</ele>
        <time>2024-09-01T09:14:33.000Z</time>
      </trkpt>
      <trkpt lat="56.152826" lon="-3.338237">
        <ele>99.212282</ele>
        <time>2024-09-01T09:14:34.000Z</time>
      </trkpt>
      <trkpt lat="56.152932" lon="-3.33835">
        <ele>99.200765</ele>
        <time>2024-09-01T09:14:35.000Z</time>
      </trkpt>
      <trkpt lat="56.152997" lon="-3.338385">
        <ele>99.195204</ele>
        <time>2024-09-01T09:14:36.000Z</time>
      </trkpt>
      <trkpt lat="56.153047" lon="-3.338465">
        <ele>99.187685</ele>
        <time>2024-09-01T09:14:37.000Z</time>
      </trkpt>
      <trkpt lat="56.153056" lon="-3.33855">
        <ele>99.183517</ele>
        <time>2024-09-01T09:14:38.000Z</time>
      </trkpt>
      <trkpt lat="56.153055" lon="-3.338699">
        <ele>99.175552</ele>
        <time>2024-09-01T09:14:39.000Z</time>
      </trkpt>
      <trkpt lat="56.153184" lon="-3.338816">
        <ele>99.161518</ele>
        <time>2024-09-01T09:14:41.000Z</time>
      </trkpt>
      <trkpt lat="56.153243" lon="-3.338815">
        <ele>99.15678</ele>
        <time>2024-09-01T09:14:42.000Z</time>
      </trkpt>
      <trkpt lat="56.153316" lon="-3.338824">
        <ele>99.148639</ele>
        <time>2024-09-01T09:14:43.000Z</time>
      </trkpt>
      <trkpt lat="56.153456" lon="-3.338866">
        <ele>99.134972</ele>
        <time>2024-09-01T09:14:45.000Z</time>
      </trkpt>
      <trkpt lat="56.153478" lon="-3.338846">
        <ele>99.132454</ele>
        <time>2024-09-01T09:14:45.000Z</time>
      </trkpt>
      <trkpt lat="56.153579" lon="-3.338846">
        <ele>99.123286</ele>
        <time>2024-09-01T09:14:46.000Z</time>
      </trkpt>
      <trkpt lat="56.153689" lon="-3.338779">
        <ele>99.112473</ele>
        <time>2024-09-01T09:14:47.000Z</time>
      </trkpt>
      <trkpt lat="56.153694" lon="-3.33874">
        <ele>99.109928</ele>
        <time>2024-09-01T09:14:47.000Z</time>
      </trkpt>
      <trkpt lat="56.153674" lon="-3.338516">
        <ele>99.09816</ele>
        <time>2024-09-01T09:14:48.000Z</time>
      </trkpt>
      <trkpt lat="56.153492" lon="-3.33832">
        <ele>99.078329</ele>
        <time>2024-09-01T09:14:50.000Z</time>
      </trkpt>
      <trkpt lat="56.153389" lon="-3.338244">
        <ele>99.067598</ele>
        <time>2024-09-01T09:14:51.000Z</time>
      </trkpt>
      <trkpt lat="56.15328" lon="-3.338169">
        <ele>99.055849</ele>
        <time>2024-09-01T09:14:52.000Z</time>
      </trkpt>
      <trkpt lat="56.153188" lon="-3.338105">
        <ele>99.046737</ele>
        <time>2024-09-01T09:14:53.000Z</time>
      </trkpt>
      <trkpt lat="56.153079" lon="-3.338002">
        <ele>98.95304</ele>
        <time>2024-09-01T09:14:54.000Z</time>
      </trkpt>
      <trkpt lat="56.152966" lon="-3.337934">
        <ele>98.84846</ele>
        <time>2024-09-01T09:14:55.000Z</time>
      </trkpt>
      <trkpt lat="56.152888" lon="-3.337886">
        <ele>98.76022</ele>
        <time>2024-09-01T09:14:56.000Z</time>
      </trkpt>
      <trkpt lat="56.1528" lon="-3.337861">
        <ele>98.690531</ele>
        <time>2024-09-01T09:14:57.000Z</time>
      </trkpt>
      <trkpt lat="56.152684" lon="-3.337822">
        <ele>98.582996</ele>
        <time>2024-09-01T09:14:58.000Z</time>
      </trkpt>
      <trkpt lat="56.152574" lon="-3.337793">
        <ele>98.47698</ele>
        <time>2024-09-01T09:14:59.000Z</time>
      </trkpt>
      <trkpt lat="56.152474" lon="-3.337761">
        <ele>98.372739</ele>
        <time>2024-09-01T09:15:00.000Z</time>
      </trkpt>
      <trkpt lat="56.152354" lon="-3.337729">
        <ele>98.268888</ele>
        <time>2024-09-01T09:15:01.000Z</time>
      </trkpt>
      <trkpt lat="56.152296" lon="-3.337722">
        <ele>98.217701</ele>
        <time>2024-09-01T09:15:02.000Z</time>
      </trkpt>
      <trkpt lat="56.152199" lon="-3.337709">
        <ele>98.112691</ele>
        <time>2024-09-01T09:15:03.000Z</time>
      </trkpt>
      <trkpt lat="56.152096" lon="-3.337714">
        <ele>98.01608</ele>
        <time>2024-09-01T09:15:04.000Z</time>
      </trkpt>
      <trkpt lat="56.151982" lon="-3.337723">
        <ele>97.919445</ele>
        <time>2024-09-01T09:15:05.000Z</time>
      </trkpt>
      <trkpt lat="56.15193" lon="-3.337729">
        <ele>97.872085</ele>
        <time>2024-09-01T09:15:06.000Z</time>
      </trkpt>
      <trkpt lat="56.151904" lon="-3.33776">
        <ele>97.837074</ele>
        <time>2024-09-01T09:15:06.000Z</time>
      </trkpt>
      <trkpt lat="56.151744" lon="-3.337877">
        <ele>97.680248</ele>
        <time>2024-09-01T09:15:08.000Z</time>
      </trkpt>
      <trkpt lat="56.151652" lon="-3.337927">
        <ele>97.5868</ele>
        <time>2024-09-01T09:15:09.000Z</time>
      </trkpt>
      <trkpt lat="56.151553" lon="-3.337972">
        <ele>97.49388</ele>
        <time>2024-09-01T09:15:10.000Z</time>
      </trkpt>
      <trkpt lat="56.151497" lon="-3.337991">
        <ele>97.449635</ele>
        <time>2024-09-01T09:15:11.000Z</time>
      </trkpt>
      <trkpt lat="56.151373" lon="-3.338061">
        <ele>97.377591</ele>
        <time>2024-09-01T09:15:12.000Z</time>
      </trkpt>
      <trkpt lat="56.15129" lon="-3.338098">
        <ele>97.384034</ele>
        <time>2024-09-01T09:15:13.000Z</time>
      </trkpt>
      <trkpt lat="56.151216" lon="-3.338111">
        <ele>97.389297</ele>
        <time>2024-09-01T09:15:14.000Z</time>
      </trkpt>
      <trkpt lat="56.1511" lon="-3.33811">
        <ele>97.397423</ele>
        <time>2024-09-01T09:15:15.000Z</time>
      </trkpt>
      <trkpt lat="56.151053" lon="-3.338086">
        <ele>97.401638</ele>
        <time>2024-09-01T09:15:16.000Z</time>
      </trkpt>
      <trkpt lat="56.15094" lon="-3.338053">
        <ele>97.410201</ele>
        <time>2024-09-01T09:15:17.000Z</time>
      </trkpt>
      <trkpt lat="56.150845" lon="-3.338012">
        <ele>97.417901</ele>
        <time>2024-09-01T09:15:18.000Z</time>
      </trkpt>
      <trkpt lat="56.15077" lon="-3.337982">
        <ele>97.423274</ele>
        <time>2024-09-01T09:15:19.000Z</time>
      </trkpt>
      <trkpt lat="56.150697" lon="-3.337898">
        <ele>97.430077</ele>
        <time>2024-09-01T09:15:20.000Z</time>
      </trkpt>
      <trkpt lat="56.150646" lon="-3.337616">
        <ele>97.44305</ele>
        <time>2024-09-01T09:15:22.000Z</time>
      </trkpt>
      <trkpt lat="56.150715" lon="-3.337454">
        <ele>97.45123</ele>
        <time>2024-09-01T09:15:23.000Z</time>
      </trkpt>
      <trkpt lat="56.150745" lon="-3.33742">
        <ele>97.454163</ele>
        <time>2024-09-01T09:15:23.000Z</time>
      </trkpt>
      <trkpt lat="56.150841" lon="-3.337377">
        <ele>97.460409</ele>
        <time>2024-09-01T09:15:24.000Z</time>
      </trkpt>
      <trkpt lat="56.150966" lon="-3.337355">
        <ele>97.46997</ele>
        <time>2024-09-01T09:15:25.000Z</time>
      </trkpt>
      <trkpt lat="56.151072" lon="-3.337306">
        <ele>97.47925</ele>
        <time>2024-09-01T09:15:26.000Z</time>
      </trkpt>
      <trkpt lat="56.151117" lon="-3.337311">
        <ele>97.482315</ele>
        <time>2024-09-01T09:15:27.000Z</time>
      </trkpt>
      <trkpt lat="56.151316" lon="-3.337221">
        <ele>97.497354</ele>
        <time>2024-09-01T09:15:29.000Z</time>
      </trkpt>
      <trkpt lat="56.151419" lon="-3.337175">
        <ele>97.506116</ele>
        <time>2024-09-01T09:15:30.000Z</time>
      </trkpt>
      <trkpt lat="56.151539" lon="-3.33713">
        <ele>97.628685</ele>
        <time>2024-09-01T09:15:31.000Z</time>
      </trkpt>
      <trkpt lat="56.151596" lon="-3.337129">
        <ele>97.723972</ele>
        <time>2024-09-01T09:15:32.000Z</time>
      </trkpt>
      <trkpt lat="56.151715" lon="-3.337139">
        <ele>97.921515</ele>
        <time>2024-09-01T09:15:33.000Z</time>
      </trkpt>
      <trkpt lat="56.151816" lon="-3.337158">
        <ele>98.090455</ele>
        <time>2024-09-01T09:15:34.000Z</time>
      </trkpt>
      <trkpt lat="56.151957" lon="-3.337175">
        <ele>98.330275</ele>
        <time>2024-09-01T09:15:36.000Z</time>
      </trkpt>
      <trkpt lat="56.152076" lon="-3.33722">
        <ele>98.533434</ele>
        <time>2024-09-01T09:15:37.000Z</time>
      </trkpt>
      <trkpt lat="56.152203" lon="-3.33725">
        <ele>98.742894</ele>
        <time>2024-09-01T09:15:38.000Z</time>
      </trkpt>
      <trkpt lat="56.152248" lon="-3.337237">
        <ele>98.834837</ele>
        <time>2024-09-01T09:15:39.000Z</time>
      </trkpt>
      <trkpt lat="56.152325" lon="-3.33712">
        <ele>99.002772</ele>
        <time>2024-09-01T09:15:40.000Z</time>
      </trkpt>
      <trkpt lat="56.152337" lon="-3.336907">
        <ele>99.195005</ele>
        <time>2024-09-01T09:15:41.000Z</time>
      </trkpt>
      <trkpt lat="56.152354" lon="-3.336838">
        <ele>99.260236</ele>
        <time>2024-09-01T09:15:41.000Z</time>
      </trkpt>
      <trkpt lat="56.152347" lon="-3.336705">
        <ele>99.394517</ele>
        <time>2024-09-01T09:15:42.000Z</time>
      </trkpt>
      <trkpt lat="56.152406" lon="-3.336611">
        <ele>99.528248</ele>
        <time>2024-09-01T09:15:43.000Z</time>
      </trkpt>
      <trkpt lat="56.15251" lon="-3.336607">
        <ele>99.700372</ele>
        <time>2024-09-01T09:15:44.000Z</time>
      </trkpt>
      <trkpt lat="56.152546" lon="-3.336589">
        <ele>99.763342</ele>
        <time>2024-09-01T09:15:44.000Z</time>
      </trkpt>
      <trkpt lat="56.152607" lon="-3.336542">
        <ele>99.881505</ele>
        <time>2024-09-01T09:15:45.000Z</time>
      </trkpt>
      <trkpt lat="56.152673" lon="-3.336638">
        <ele>100.022642</ele>
        <time>2024-09-01T09:15:46.000Z</time>
      </trkpt>
      <trkpt lat="56.152707" lon="-3.336787">
        <ele>100.178953</ele>
        <time>2024-09-01T09:15:47.000Z</time>
      </trkpt>
      <trkpt lat="56.152729" lon="-3.336821">
        <ele>100.230794</ele>
        <time>2024-09-01T09:15:47.000Z</time>
      </trkpt>
      <trkpt lat="56.152808" lon="-3.336793">
        <ele>100.353279</ele>
        <time>2024-09-01T09:15:48.000Z</time>
      </trkpt>
      <trkpt lat="56.152924" lon="-3.336822">
        <ele>100.545365</ele>
        <time>2024-09-01T09:15:49.000Z</time>
      </trkpt>
      <trkpt lat="56.153023" lon="-3.33676">
        <ele>100.752796</ele>
        <time>2024-09-01T09:15:50.000Z</time>
      </trkpt>
      <trkpt lat="56.153058" lon="-3.336741">
        <ele>100.819185</ele>
        <time>2024-09-01T09:15:50.000Z</time>
      </trkpt>
      <trkpt lat="56.15315" lon="-3.33669">
        <ele>100.980706</ele>
        <time>2024-09-01T09:15:51.000Z</time>
      </trkpt>
      <trkpt lat="56.153136" lon="-3.336691">
        <ele>100.980692</ele>
        <time>2024-09-01T09:15:51.000Z</time>
      </trkpt>
      <trkpt lat="56.153314" lon="-3.336536">
        <ele>101.315749</ele>
        <time>2024-09-01T09:15:53.000Z</time>
      </trkpt>
      <trkpt lat="56.153427" lon="-3.3365">
        <ele>101.545125</ele>
        <time>2024-09-01T09:15:54.000Z</time>
      </trkpt>
      <trkpt lat="56.153481" lon="-3.336469">
        <ele>101.65246</ele>
        <time>2024-09-01T09:15:55.000Z</time>
      </trkpt>
      <trkpt lat="56.153608" lon="-3.336452">
        <ele>101.873076</ele>
        <time>2024-09-01T09:15:56.000Z</time>
      </trkpt>
      <trkpt lat="56.153786" lon="-3.336428">
        <ele>102.194757</ele>
        <time>2024-09-01T09:15:58.000Z</time>
      </trkpt>
      <trkpt lat="56.153886" lon="-3.336427">
        <ele>102.377565</ele>
        <time>2024-09-01T09:15:59.000Z</time>
      </trkpt>
      <trkpt lat="56.153988" lon="-3.336424">
        <ele>102.584217</ele>
        <time>2024-09-01T09:16:00.000Z</time>
      </trkpt>
      <trkpt lat="56.154082" lon="-3.336323">
        <ele>102.789017</ele>
        <time>2024-09-01T09:16:01.000Z</time>
      </trkpt>
      <trkpt lat="56.15416" lon="-3.336156">
        <ele>103.002154</ele>
        <time>2024-09-01T09:16:02.000Z</time>
      </trkpt>
      <trkpt lat="56.154244" lon="-3.336103">
        <ele>103.186881</ele>
        <time>2024-09-01T09:16:03.000Z</time>
      </trkpt>
      <trkpt lat="56.154294" lon="-3.335979">
        <ele>103.344251</ele>
        <time>2024-09-01T09:16:04.000Z</time>
      </trkpt>
      <trkpt lat="56.154293" lon="-3.335802">
        <ele>103.509701</ele>
        <time>2024-09-01T09:16:05.000Z</time>
      </trkpt>
      <trkpt lat="56.154359" lon="-3.335646">
        <ele>103.715939</ele>
        <time>2024-09-01T09:16:06.000Z</time>
      </trkpt>
      <trkpt lat="56.154443" lon="-3.335485">
        <ele>103.937653</ele>
        <time>2024-09-01T09:16:07.000Z</time>
      </trkpt>
      <trkpt lat="56.154491" lon="-3.335316">
        <ele>104.161683</ele>
        <time>2024-09-01T09:16:08.000Z</time>
      </trkpt>
      <trkpt lat="56.154508" lon="-3.335198">
        <ele>104.271929</ele>
        <time>2024-09-01T09:16:09.000Z</time>
      </trkpt>
      <trkpt lat="56.154543" lon="-3.335133">
        <ele>104.355872</ele>
        <time>2024-09-01T09:16:10.000Z</time>
      </trkpt>
      <trkpt lat="56.154618" lon="-3.33514">
        <ele>104.509398</ele>
        <time>2024-09-01T09:16:11.000Z</time>
      </trkpt>
      <trkpt lat="56.154664" lon="-3.335051">
        <ele>104.637765</ele>
        <time>2024-09-01T09:16:12.000Z</time>
      </trkpt>
      <trkpt lat="56.154682" lon="-3.334985">
        <ele>104.71862</ele>
        <time>2024-09-01T09:16:12.000Z</time>
      </trkpt>
      <trkpt lat="56.154665" lon="-3.334901">
        <ele>104.80084</ele>
        <time>2024-09-01T09:16:13.000Z</time>
      </trkpt>
      <trkpt lat="56.154665" lon="-3.334759">
        <ele>104.957337</ele>
        <time>2024-09-01T09:16:14.000Z</time>
      </trkpt>
      <trkpt lat="56.154658" lon="-3.334576">
        <ele>105.14629</ele>
        <time>2024-09-01T09:16:15.000Z</time>
      </trkpt>
      <trkpt lat="56.154669" lon="-3.334416">
        <ele>105.310981</ele>
        <time>2024-09-01T09:16:16.000Z</time>
      </trkpt>
      <trkpt lat="56.154694" lon="-3.334262">
        <ele>105.489573</ele>
        <time>2024-09-01T09:16:17.000Z</time>
      </trkpt>
      <trkpt lat="56.154669" lon="-3.334193">
        <ele>105.573911</ele>
        <time>2024-09-01T09:16:18.000Z</time>
      </trkpt>
      <trkpt lat="56.154671" lon="-3.3341">
        <ele>105.658437</ele>
        <time>2024-09-01T09:16:19.000Z</time>
      </trkpt>
      <trkpt lat="56.154705" lon="-3.333929">
        <ele>105.861209</ele>
        <time>2024-09-01T09:16:20.000Z</time>
      </trkpt>
      <trkpt lat="56.154731" lon="-3.333715">
        <ele>106.092172</ele>
        <time>2024-09-01T09:16:21.000Z</time>
      </trkpt>
      <trkpt lat="56.154729" lon="-3.333599">
        <ele>106.209097</ele>
        <time>2024-09-01T09:16:22.000Z</time>
      </trkpt>
      <trkpt lat="56.154752" lon="-3.333424">
        <ele>106.40189</ele>
        <time>2024-09-01T09:16:23.000Z</time>
      </trkpt>
      <trkpt lat="56.154795" lon="-3.333304">
        <ele>106.554091</ele>
        <time>2024-09-01T09:16:24.000Z</time>
      </trkpt>
      <trkpt lat="56.154818" lon="-3.333265">
        <ele>106.628088</ele>
        <time>2024-09-01T09:16:24.000Z</time>
      </trkpt>
      <trkpt lat="56.154852" lon="-3.333229">
        <ele>106.700478</ele>
        <time>2024-09-01T09:16:24.000Z</time>
      </trkpt>
      <trkpt lat="56.154988" lon="-3.333074">
        <ele>106.995452</ele>
        <time>2024-09-01T09:16:26.000Z</time>
      </trkpt>
      <trkpt lat="56.15505" lon="-3.33313">
        <ele>107.131403</ele>
        <time>2024-09-01T09:16:27.000Z</time>
      </trkpt>
      <trkpt lat="56.155073" lon="-3.333163">
        <ele>107.192618</ele>
        <time>2024-09-01T09:16:27.000Z</time>
      </trkpt>
      <trkpt lat="56.155145" lon="-3.333192">
        <ele>107.334089</ele>
        <time>2024-09-01T09:16:28.000Z</time>
      </trkpt>
      <trkpt lat="56.155175" lon="-3.333224">
        <ele>107.442898</ele>
        <time>2024-09-01T09:16:28.000Z</time>
      </trkpt>
      <trkpt lat="56.155231" lon="-3.333252">
        <ele>107.661404</ele>
        <time>2024-09-01T09:16:29.000Z</time>
      </trkpt>
      <trkpt lat="56.155302" lon="-3.33327">
        <ele>107.855683</ele>
        <time>2024-09-01T09:16:30.000Z</time>
      </trkpt>
      <trkpt lat="56.155359" lon="-3.333314">
        <ele>108.055235</ele>
        <time>2024-09-01T09:16:31.000Z</time>
      </trkpt>
      <trkpt lat="56.155409" lon="-3.333342">
        <ele>108.253207</ele>
        <time>2024-09-01T09:16:32.000Z</time>
      </trkpt>
      <trkpt lat="56.155478" lon="-3.333356">
        <ele>108.451876</ele>
        <time>2024-09-01T09:16:33.000Z</time>
      </trkpt>
      <trkpt lat="56.155533" lon="-3.333384">
        <ele>108.650211</ele>
        <time>2024-09-01T09:16:34.000Z</time>
      </trkpt>
      <trkpt lat="56.155605" lon="-3.333378">
        <ele>108.860985</ele>
        <time>2024-09-01T09:16:35.000Z</time>
      </trkpt>
      <trkpt lat="56.15567" lon="-3.333382">
        <ele>109.065629</ele>
        <time>2024-09-01T09:16:36.000Z</time>
      </trkpt>
      <trkpt lat="56.155732" lon="-3.333369">
        <ele>109.273799</ele>
        <time>2024-09-01T09:16:37.000Z</time>
      </trkpt>
      <trkpt lat="56.155789" lon="-3.333358">
        <ele>109.478446</ele>
        <time>2024-09-01T09:16:38.000Z</time>
      </trkpt>
      <trkpt lat="56.155854" lon="-3.333337">
        <ele>109.674727</ele>
        <time>2024-09-01T09:16:39.000Z</time>
      </trkpt>
      <trkpt lat="56.155901" lon="-3.333283">
        <ele>109.882215</ele>
        <time>2024-09-01T09:16:40.000Z</time>
      </trkpt>
      <trkpt lat="56.155934" lon="-3.333236">
        <ele>109.996438</ele>
        <time>2024-09-01T09:16:40.000Z</time>
      </trkpt>
      <trkpt lat="56.155943" lon="-3.333085">
        <ele>110.259613</ele>
        <time>2024-09-01T09:16:41.000Z</time>
      </trkpt>
      <trkpt lat="56.155969" lon="-3.332935">
        <ele>110.535445</ele>
        <time>2024-09-01T09:16:42.000Z</time>
      </trkpt>
      <trkpt lat="56.155984" lon="-3.332847">
        <ele>110.685689</ele>
        <time>2024-09-01T09:16:43.000Z</time>
      </trkpt>
      <trkpt lat="56.155978" lon="-3.332781">
        <ele>110.829251</ele>
        <time>2024-09-01T09:16:43.000Z</time>
      </trkpt>
      <trkpt lat="56.155913" lon="-3.332682">
        <ele>111.111983</ele>
        <time>2024-09-01T09:16:44.000Z</time>
      </trkpt>
      <trkpt lat="56.155885" lon="-3.332655">
        <ele>111.238851</ele>
        <time>2024-09-01T09:16:44.000Z</time>
      </trkpt>
      <trkpt lat="56.155827" lon="-3.332531">
        <ele>111.527538</ele>
        <time>2024-09-01T09:16:45.000Z</time>
      </trkpt>
      <trkpt lat="56.155763" lon="-3.332339">
        <ele>111.916276</ele>
        <time>2024-09-01T09:16:46.000Z</time>
      </trkpt>
      <trkpt lat="56.155739" lon="-3.33223">
        <ele>112.118577</ele>
        <time>2024-09-01T09:16:47.000Z</time>
      </trkpt>
      <trkpt lat="56.15571" lon="-3.332017">
        <ele>112.513527</ele>
        <time>2024-09-01T09:16:48.000Z</time>
      </trkpt>
      <trkpt lat="56.155699" lon="-3.331679">
        <ele>113.086275</ele>
        <time>2024-09-01T09:16:50.000Z</time>
      </trkpt>
      <trkpt lat="56.15569" lon="-3.331464">
        <ele>113.443757</ele>
        <time>2024-09-01T09:16:51.000Z</time>
      </trkpt>
      <trkpt lat="56.155697" lon="-3.331327">
        <ele>113.699686</ele>
        <time>2024-09-01T09:16:52.000Z</time>
      </trkpt>
      <trkpt lat="56.155746" lon="-3.331225">
        <ele>113.902184</ele>
        <time>2024-09-01T09:16:53.000Z</time>
      </trkpt>
      <trkpt lat="56.155778" lon="-3.331111">
        <ele>114.117136</ele>
        <time>2024-09-01T09:16:54.000Z</time>
      </trkpt>
      <trkpt lat="56.155827" lon="-3.331076">
        <ele>114.282927</ele>
        <time>2024-09-01T09:16:55.000Z</time>
      </trkpt>
      <trkpt lat="56.155898" lon="-3.331116">
        <ele>114.507235</ele>
        <time>2024-09-01T09:16:56.000Z</time>
      </trkpt>
      <trkpt lat="56.155957" lon="-3.331073">
        <ele>114.730259</ele>
        <time>2024-09-01T09:16:57.000Z</time>
      </trkpt>
      <trkpt lat="56.156002" lon="-3.33093">
        <ele>114.968348</ele>
        <time>2024-09-01T09:16:58.000Z</time>
      </trkpt>
      <trkpt lat="56.156043" lon="-3.330876">
        <ele>115.153013</ele>
        <time>2024-09-01T09:16:59.000Z</time>
      </trkpt>
      <trkpt lat="56.156099" lon="-3.330901">
        <ele>115.30994</ele>
        <time>2024-09-01T09:17:00.000Z</time>
      </trkpt>
      <trkpt lat="56.15611" lon="-3.33092">
        <ele>115.391508</ele>
        <time>2024-09-01T09:17:00.000Z</time>
      </trkpt>
      <trkpt lat="56.156197" lon="-3.331008">
        <ele>115.670252</ele>
        <time>2024-09-01T09:17:01.000Z</time>
      </trkpt>
      <trkpt lat="56.156252" lon="-3.331097">
        <ele>115.887984</ele>
        <time>2024-09-01T09:17:02.000Z</time>
      </trkpt>
      <trkpt lat="56.156275" lon="-3.331119">
        <ele>115.970341</ele>
        <time>2024-09-01T09:17:02.000Z</time>
      </trkpt>
      <trkpt lat="56.15634" lon="-3.331111">
        <ele>116.165249</ele>
        <time>2024-09-01T09:17:03.000Z</time>
      </trkpt>
      <trkpt lat="56.156365" lon="-3.331109">
        <ele>116.218888</ele>
        <time>2024-09-01T09:17:03.000Z</time>
      </trkpt>
      <trkpt lat="56.156418" lon="-3.331098">
        <ele>116.394151</ele>
        <time>2024-09-01T09:17:04.000Z</time>
      </trkpt>
      <trkpt lat="56.156441" lon="-3.331094">
        <ele>116.449037</ele>
        <time>2024-09-01T09:17:04.000Z</time>
      </trkpt>
      <trkpt lat="56.156471" lon="-3.331128">
        <ele>116.567008</ele>
        <time>2024-09-01T09:17:04.000Z</time>
      </trkpt>
      <trkpt lat="56.156518" lon="-3.330998">
        <ele>116.803862</ele>
        <time>2024-09-01T09:17:05.000Z</time>
      </trkpt>
      <trkpt lat="56.156562" lon="-3.330921">
        <ele>116.986414</ele>
        <time>2024-09-01T09:17:06.000Z</time>
      </trkpt>
      <trkpt lat="56.156622" lon="-3.330853">
        <ele>117.212927</ele>
        <time>2024-09-01T09:17:07.000Z</time>
      </trkpt>
      <trkpt lat="56.156676" lon="-3.330783">
        <ele>117.42068</ele>
        <time>2024-09-01T09:17:08.000Z</time>
      </trkpt>
      <trkpt lat="56.156716" lon="-3.330766">
        <ele>117.56242</ele>
        <time>2024-09-01T09:17:08.000Z</time>
      </trkpt>
      <trkpt lat="56.156776" lon="-3.330728">
        <ele>117.717131</ele>
        <time>2024-09-01T09:17:09.000Z</time>
      </trkpt>
      <trkpt lat="56.156842" lon="-3.330704">
        <ele>117.900423</ele>
        <time>2024-09-01T09:17:10.000Z</time>
      </trkpt>
      <trkpt lat="56.156844" lon="-3.330685">
        <ele>117.951099</ele>
        <time>2024-09-01T09:17:10.000Z</time>
      </trkpt>
      <trkpt lat="56.156874" lon="-3.330609">
        <ele>118.131681</ele>
        <time>2024-09-01T09:17:11.000Z</time>
      </trkpt>
      <trkpt lat="56.156902" lon="-3.330577">
        <ele>118.203311</ele>
        <time>2024-09-01T09:17:11.000Z</time>
      </trkpt>
      <trkpt lat="56.156962" lon="-3.330607">
        <ele>118.410469</ele>
        <time>2024-09-01T09:17:12.000Z</time>
      </trkpt>
      <trkpt lat="56.156973" lon="-3.330598">
        <ele>118.447302</ele>
        <time>2024-09-01T09:17:12.000Z</time>
      </trkpt>
      <trkpt lat="56.157032" lon="-3.330652">
        <ele>118.668001</ele>
        <time>2024-09-01T09:17:13.000Z</time>
      </trkpt>
      <trkpt lat="56.157087" lon="-3.330693">
        <ele>118.896318</ele>
        <time>2024-09-01T09:17:14.000Z</time>
      </trkpt>
      <trkpt lat="56.157123" lon="-3.330765">
        <ele>119.11018</ele>
        <time>2024-09-01T09:17:15.000Z</time>
      </trkpt>
      <trkpt lat="56.157182" lon="-3.330831">
        <ele>119.34931</ele>
        <time>2024-09-01T09:17:16.000Z</time>
      </trkpt>
      <trkpt lat="56.157216" lon="-3.330918">
        <ele>119.592771</ele>
        <time>2024-09-01T09:17:17.000Z</time>
      </trkpt>
      <trkpt lat="56.157238" lon="-3.331001">
        <ele>119.783433</ele>
        <time>2024-09-01T09:17:18.000Z</time>
      </trkpt>
      <trkpt lat="56.15723" lon="-3.331083">
        <ele>119.962505</ele>
        <time>2024-09-01T09:17:19.000Z</time>
      </trkpt>
      <trkpt lat="56.157231" lon="-3.331178">
        <ele>120.186693</ele>
        <time>2024-09-01T09:17:20.000Z</time>
      </trkpt>
      <trkpt lat="56.157271" lon="-3.331247">
        <ele>120.371312</ele>
        <time>2024-09-01T09:17:21.000Z</time>
      </trkpt>
      <trkpt lat="56.15728" lon="-3.331271">
        <ele>120.430152</ele>
        <time>2024-09-01T09:17:21.000Z</time>
      </trkpt>
      <trkpt lat="56.157262" lon="-3.331363">
        <ele>120.650498</ele>
        <time>2024-09-01T09:17:22.000Z</time>
      </trkpt>
      <trkpt lat="56.157214" lon="-3.331433">
        <ele>120.85431</ele>
        <time>2024-09-01T09:17:23.000Z</time>
      </trkpt>
      <trkpt lat="56.15717" lon="-3.331446">
        <ele>121.020862</ele>
        <time>2024-09-01T09:17:23.000Z</time>
      </trkpt>
      <trkpt lat="56.157127" lon="-3.331454">
        <ele>121.227378</ele>
        <time>2024-09-01T09:17:23.000Z</time>
      </trkpt>
      <trkpt lat="56.157067" lon="-3.331507">
        <ele>121.461384</ele>
        <time>2024-09-01T09:17:24.000Z</time>
      </trkpt>
      <trkpt lat="56.157048" lon="-3.331546">
        <ele>121.578085</ele>
        <time>2024-09-01T09:17:24.000Z</time>
      </trkpt>
      <trkpt lat="56.157007" lon="-3.331661">
        <ele>121.881559</ele>
        <time>2024-09-01T09:17:25.000Z</time>
      </trkpt>
      <trkpt lat="56.156984" lon="-3.33171">
        <ele>122.013395</ele>
        <time>2024-09-01T09:17:25.000Z</time>
      </trkpt>
      <trkpt lat="56.156985" lon="-3.3319">
        <ele>122.427937</ele>
        <time>2024-09-01T09:17:26.000Z</time>
      </trkpt>
      <trkpt lat="56.156986" lon="-3.332023">
        <ele>122.693113</ele>
        <time>2024-09-01T09:17:27.000Z</time>
      </trkpt>
      <trkpt lat="56.156989" lon="-3.33214">
        <ele>122.933052</ele>
        <time>2024-09-01T09:17:28.000Z</time>
      </trkpt>
      <trkpt lat="56.157023" lon="-3.332239">
        <ele>123.170963</ele>
        <time>2024-09-01T09:17:29.000Z</time>
      </trkpt>
      <trkpt lat="56.157048" lon="-3.332318">
        <ele>123.383781</ele>
        <time>2024-09-01T09:17:30.000Z</time>
      </trkpt>
      <trkpt lat="56.157084" lon="-3.332392">
        <ele>123.575315</ele>
        <time>2024-09-01T09:17:31.000Z</time>
      </trkpt>
      <trkpt lat="56.157109" lon="-3.332463">
        <ele>123.769115</ele>
        <time>2024-09-01T09:17:32.000Z</time>
      </trkpt>
      <trkpt lat="56.157141" lon="-3.332534">
        <ele>123.948699</ele>
        <time>2024-09-01T09:17:33.000Z</time>
      </trkpt>
      <trkpt lat="56.15714" lon="-3.332657">
        <ele>124.194042</ele>
        <time>2024-09-01T09:17:34.000Z</time>
      </trkpt>
      <trkpt lat="56.157145" lon="-3.332677">
        <ele>124.23303</ele>
        <time>2024-09-01T09:17:34.000Z</time>
      </trkpt>
      <trkpt lat="56.157119" lon="-3.332808">
        <ele>124.536374</ele>
        <time>2024-09-01T09:17:35.000Z</time>
      </trkpt>
      <trkpt lat="56.157086" lon="-3.332889">
        <ele>124.758767</ele>
        <time>2024-09-01T09:17:36.000Z</time>
      </trkpt>
      <trkpt lat="56.157067" lon="-3.332995">
        <ele>125.000133</ele>
        <time>2024-09-01T09:17:37.000Z</time>
      </trkpt>
      <trkpt lat="56.157048" lon="-3.333044">
        <ele>125.126405</ele>
        <time>2024-09-01T09:17:37.000Z</time>
      </trkpt>
      <trkpt lat="56.157059" lon="-3.333171">
        <ele>125.43418</ele>
        <time>2024-09-01T09:17:38.000Z</time>
      </trkpt>
      <trkpt lat="56.157108" lon="-3.333223">
        <ele>125.840449</ele>
        <time>2024-09-01T09:17:39.000Z</time>
      </trkpt>
      <trkpt lat="56.157149" lon="-3.333277">
        <ele>126.287431</ele>
        <time>2024-09-01T09:17:40.000Z</time>
      </trkpt>
      <trkpt lat="56.157173" lon="-3.333279">
        <ele>126.49544</ele>
        <time>2024-09-01T09:17:40.000Z</time>
      </trkpt>
      <trkpt lat="56.157207" lon="-3.333294">
        <ele>126.695343</ele>
        <time>2024-09-01T09:17:40.000Z</time>
      </trkpt>
      <trkpt lat="56.157255" lon="-3.333348">
        <ele>127.091574</ele>
        <time>2024-09-01T09:17:41.000Z</time>
      </trkpt>
      <trkpt lat="56.15728" lon="-3.333378">
        <ele>127.294877</ele>
        <time>2024-09-01T09:17:41.000Z</time>
      </trkpt>
      <trkpt lat="56.157325" lon="-3.333447">
        <ele>127.709922</ele>
        <time>2024-09-01T09:17:42.000Z</time>
      </trkpt>
      <trkpt lat="56.157359" lon="-3.333488">
        <ele>128.117011</ele>
        <time>2024-09-01T09:17:42.000Z</time>
      </trkpt>
      <trkpt lat="56.1574" lon="-3.333562">
        <ele>128.537869</ele>
        <time>2024-09-01T09:17:43.000Z</time>
      </trkpt>
      <trkpt lat="56.157437" lon="-3.33362">
        <ele>128.933221</ele>
        <time>2024-09-01T09:17:44.000Z</time>
      </trkpt>
      <trkpt lat="56.157459" lon="-3.333659">
        <ele>129.171412</ele>
        <time>2024-09-01T09:17:44.000Z</time>
      </trkpt>
      <trkpt lat="56.157502" lon="-3.333824">
        <ele>129.830282</ele>
        <time>2024-09-01T09:17:45.000Z</time>
      </trkpt>
      <trkpt lat="56.15752" lon="-3.333942">
        <ele>130.34398</ele>
        <time>2024-09-01T09:17:46.000Z</time>
      </trkpt>
      <trkpt lat="56.157536" lon="-3.334053">
        <ele>130.838614</ele>
        <time>2024-09-01T09:17:47.000Z</time>
      </trkpt>
      <trkpt lat="56.157551" lon="-3.334087">
        <ele>131.065063</ele>
        <time>2024-09-01T09:17:47.000Z</time>
      </trkpt>
      <trkpt lat="56.157636" lon="-3.334138">
        <ele>131.64788</ele>
        <time>2024-09-01T09:17:48.000Z</time>
      </trkpt>
      <trkpt lat="56.157687" lon="-3.334201">
        <ele>132.116996</ele>
        <time>2024-09-01T09:17:49.000Z</time>
      </trkpt>
      <trkpt lat="56.157719" lon="-3.334294">
        <ele>132.621802</ele>
        <time>2024-09-01T09:17:50.000Z</time>
      </trkpt>
      <trkpt lat="56.15774" lon="-3.334311">
        <ele>132.782328</ele>
        <time>2024-09-01T09:17:50.000Z</time>
      </trkpt>
      <trkpt lat="56.157787" lon="-3.33437">
        <ele>133.225976</ele>
        <time>2024-09-01T09:17:51.000Z</time>
      </trkpt>
      <trkpt lat="56.157837" lon="-3.334454">
        <ele>133.72426</ele>
        <time>2024-09-01T09:17:52.000Z</time>
      </trkpt>
      <trkpt lat="56.157883" lon="-3.334525">
        <ele>134.155703</ele>
        <time>2024-09-01T09:17:53.000Z</time>
      </trkpt>
      <trkpt lat="56.157935" lon="-3.334598">
        <ele>134.576307</ele>
        <time>2024-09-01T09:17:54.000Z</time>
      </trkpt>
      <trkpt lat="56.15795" lon="-3.334661">
        <ele>134.944169</ele>
        <time>2024-09-01T09:17:54.000Z</time>
      </trkpt>
      <trkpt lat="56.157992" lon="-3.334731">
        <ele>135.316648</ele>
        <time>2024-09-01T09:17:55.000Z</time>
      </trkpt>
      <trkpt lat="56.158026" lon="-3.334797">
        <ele>135.697846</ele>
        <time>2024-09-01T09:17:56.000Z</time>
      </trkpt>
      <trkpt lat="56.158048" lon="-3.334869">
        <ele>136.078245</ele>
        <time>2024-09-01T09:17:57.000Z</time>
      </trkpt>
      <trkpt lat="56.158099" lon="-3.334945">
        <ele>136.528938</ele>
        <time>2024-09-01T09:17:58.000Z</time>
      </trkpt>
      <trkpt lat="56.158144" lon="-3.335003">
        <ele>136.989514</ele>
        <time>2024-09-01T09:17:59.000Z</time>
      </trkpt>
      <trkpt lat="56.158173" lon="-3.335053">
        <ele>137.270678</ele>
        <time>2024-09-01T09:17:59.000Z</time>
      </trkpt>
      <trkpt lat="56.158168" lon="-3.335179">
        <ele>137.787978</ele>
        <time>2024-09-01T09:18:00.000Z</time>
      </trkpt>
      <trkpt lat="56.158128" lon="-3.335287">
        <ele>138.250069</ele>
        <time>2024-09-01T09:18:01.000Z</time>
      </trkpt>
      <trkpt lat="56.158084" lon="-3.335395">
        <ele>138.820884</ele>
        <time>2024-09-01T09:18:02.000Z</time>
      </trkpt>
      <trkpt lat="56.158073" lon="-3.335446">
        <ele>139.009407</ele>
        <time>2024-09-01T09:18:02.000Z</time>
      </trkpt>
      <trkpt lat="56.158001" lon="-3.335564">
        <ele>139.404023</ele>
        <time>2024-09-01T09:18:03.000Z</time>
      </trkpt>
      <trkpt lat="56.157935" lon="-3.335677">
        <ele>139.804248</ele>
        <time>2024-09-01T09:18:04.000Z</time>
      </trkpt>
      <trkpt lat="56.157876" lon="-3.335798">
        <ele>140.240299</ele>
        <time>2024-09-01T09:18:05.000Z</time>
      </trkpt>
      <trkpt lat="56.157852" lon="-3.335864">
        <ele>140.448342</ele>
        <time>2024-09-01T09:18:05.000Z</time>
      </trkpt>
      <trkpt lat="56.157777" lon="-3.336078">
        <ele>141.081372</ele>
        <time>2024-09-01T09:18:07.000Z</time>
      </trkpt>
      <trkpt lat="56.157722" lon="-3.336213">
        <ele>141.508942</ele>
        <time>2024-09-01T09:18:08.000Z</time>
      </trkpt>
      <trkpt lat="56.157684" lon="-3.336266">
        <ele>141.722352</ele>
        <time>2024-09-01T09:18:09.000Z</time>
      </trkpt>
      <trkpt lat="56.157638" lon="-3.336452">
        <ele>142.234337</ele>
        <time>2024-09-01T09:18:10.000Z</time>
      </trkpt>
      <trkpt lat="56.157593" lon="-3.336638">
        <ele>142.749699</ele>
        <time>2024-09-01T09:18:11.000Z</time>
      </trkpt>
      <trkpt lat="56.157539" lon="-3.336808">
        <ele>143.279482</ele>
        <time>2024-09-01T09:18:12.000Z</time>
      </trkpt>
      <trkpt lat="56.157521" lon="-3.33688">
        <ele>143.459827</ele>
        <time>2024-09-01T09:18:12.000Z</time>
      </trkpt>
      <trkpt lat="56.157458" lon="-3.337142">
        <ele>144.180951</ele>
        <time>2024-09-01T09:18:14.000Z</time>
      </trkpt>
      <trkpt lat="56.157417" lon="-3.337298">
        <ele>144.59902</ele>
        <time>2024-09-01T09:18:15.000Z</time>
      </trkpt>
      <trkpt lat="56.157417" lon="-3.337384">
        <ele>144.817988</ele>
        <time>2024-09-01T09:18:16.000Z</time>
      </trkpt>
      <trkpt lat="56.157378" lon="-3.337628">
        <ele>145.475743</ele>
        <time>2024-09-01T09:18:18.000Z</time>
      </trkpt>
      <trkpt lat="56.157343" lon="-3.337784">
        <ele>145.897533</ele>
        <time>2024-09-01T09:18:19.000Z</time>
      </trkpt>
      <trkpt lat="56.157334" lon="-3.337952">
        <ele>146.333347</ele>
        <time>2024-09-01T09:18:20.000Z</time>
      </trkpt>
      <trkpt lat="56.157308" lon="-3.338107">
        <ele>146.747822</ele>
        <time>2024-09-01T09:18:21.000Z</time>
      </trkpt>
      <trkpt lat="56.157313" lon="-3.338184">
        <ele>146.952923</ele>
        <time>2024-09-01T09:18:21.000Z</time>
      </trkpt>
      <trkpt lat="56.157311" lon="-3.33843">
        <ele>147.485227</ele>
        <time>2024-09-01T09:18:23.000Z</time>
      </trkpt>
      <trkpt lat="56.157307" lon="-3.338574">
        <ele>147.847107</ele>
        <time>2024-09-01T09:18:24.000Z</time>
      </trkpt>
      <trkpt lat="56.157302" lon="-3.338721">
        <ele>148.156974</ele>
        <time>2024-09-01T09:18:25.000Z</time>
      </trkpt>
      <trkpt lat="56.157304" lon="-3.338885">
        <ele>148.548773</ele>
        <time>2024-09-01T09:18:26.000Z</time>
      </trkpt>
      <trkpt lat="56.157313" lon="-3.339055">
        <ele>148.9039</ele>
        <time>2024-09-01T09:18:27.000Z</time>
      </trkpt>
      <trkpt lat="56.157316" lon="-3.339127">
        <ele>149.094562</ele>
        <time>2024-09-01T09:18:27.000Z</time>
      </trkpt>
      <trkpt lat="56.157294" lon="-3.339387">
        <ele>149.671672</ele>
        <time>2024-09-01T09:18:29.000Z</time>
      </trkpt>
      <trkpt lat="56.157313" lon="-3.339546">
        <ele>150.047198</ele>
        <time>2024-09-01T09:18:30.000Z</time>
      </trkpt>
      <trkpt lat="56.157295" lon="-3.339634">
        <ele>150.232653</ele>
        <time>2024-09-01T09:18:31.000Z</time>
      </trkpt>
      <trkpt lat="56.157299" lon="-3.3398">
        <ele>150.603674</ele>
        <time>2024-09-01T09:18:32.000Z</time>
      </trkpt>
      <trkpt lat="56.157314" lon="-3.339957">
        <ele>150.977045</ele>
        <time>2024-09-01T09:18:33.000Z</time>
      </trkpt>
      <trkpt lat="56.157307" lon="-3.340132">
        <ele>151.338946</ele>
        <time>2024-09-01T09:18:34.000Z</time>
      </trkpt>
      <trkpt lat="56.157314" lon="-3.340299">
        <ele>151.712142</ele>
        <time>2024-09-01T09:18:35.000Z</time>
      </trkpt>
      <trkpt lat="56.157307" lon="-3.340452">
        <ele>152.067261</ele>
        <time>2024-09-01T09:18:36.000Z</time>
      </trkpt>
      <trkpt lat="56.157317" lon="-3.340603">
        <ele>152.427069</ele>
        <time>2024-09-01T09:18:37.000Z</time>
      </trkpt>
      <trkpt lat="56.157308" lon="-3.34076">
        <ele>152.791578</ele>
        <time>2024-09-01T09:18:38.000Z</time>
      </trkpt>
      <trkpt lat="56.157309" lon="-3.340853">
        <ele>152.971396</ele>
        <time>2024-09-01T09:18:39.000Z</time>
      </trkpt>
      <trkpt lat="56.157295" lon="-3.341002">
        <ele>153.317822</ele>
        <time>2024-09-01T09:18:40.000Z</time>
      </trkpt>
      <trkpt lat="56.157296" lon="-3.341082">
        <ele>153.485239</ele>
        <time>2024-09-01T09:18:40.000Z</time>
      </trkpt>
      <trkpt lat="56.157306" lon="-3.341289">
        <ele>153.98156</ele>
        <time>2024-09-01T09:18:41.000Z</time>
      </trkpt>
      <trkpt lat="56.157315" lon="-3.341367">
        <ele>154.147468</ele>
        <time>2024-09-01T09:18:41.000Z</time>
      </trkpt>
      <trkpt lat="56.157321" lon="-3.341433">
        <ele>154.321661</ele>
        <time>2024-09-01T09:18:41.000Z</time>
      </trkpt>
      <trkpt lat="56.157321" lon="-3.341583">
        <ele>154.574555</ele>
        <time>2024-09-01T09:18:42.000Z</time>
      </trkpt>
      <trkpt lat="56.157317" lon="-3.341742">
        <ele>154.818156</ele>
        <time>2024-09-01T09:18:43.000Z</time>
      </trkpt>
      <trkpt lat="56.157314" lon="-3.341804">
        <ele>154.946615</ele>
        <time>2024-09-01T09:18:43.000Z</time>
      </trkpt>
      <trkpt lat="56.157321" lon="-3.342015">
        <ele>155.282203</ele>
        <time>2024-09-01T09:18:44.000Z</time>
      </trkpt>
      <trkpt lat="56.15733" lon="-3.342013">
        <ele>155.282207</ele>
        <time>2024-09-01T09:18:44.000Z</time>
      </trkpt>
      <trkpt lat="56.15733" lon="-3.342338">
        <ele>155.824344</ele>
        <time>2024-09-01T09:18:46.000Z</time>
      </trkpt>
      <trkpt lat="56.157347" lon="-3.342479">
        <ele>156.065616</ele>
        <time>2024-09-01T09:18:47.000Z</time>
      </trkpt>
      <trkpt lat="56.157358" lon="-3.342542">
        <ele>156.191747</ele>
        <time>2024-09-01T09:18:47.000Z</time>
      </trkpt>
      <trkpt lat="56.157377" lon="-3.342587">
        <ele>156.275256</ele>
        <time>2024-09-01T09:18:47.000Z</time>
      </trkpt>
      <trkpt lat="56.157419" lon="-3.342804">
        <ele>156.667111</ele>
        <time>2024-09-01T09:18:48.000Z</time>
      </trkpt>
      <trkpt lat="56.157464" lon="-3.342933">
        <ele>156.902143</ele>
        <time>2024-09-01T09:18:49.000Z</time>
      </trkpt>
      <trkpt lat="56.157467" lon="-3.342988">
        <ele>157.0145</ele>
        <time>2024-09-01T09:18:49.000Z</time>
      </trkpt>
      <trkpt lat="56.157526" lon="-3.343113">
        <ele>157.249315</ele>
        <time>2024-09-01T09:18:50.000Z</time>
      </trkpt>
      <trkpt lat="56.15756" lon="-3.343244">
        <ele>157.495598</ele>
        <time>2024-09-01T09:18:51.000Z</time>
      </trkpt>
      <trkpt lat="56.157597" lon="-3.343389">
        <ele>157.755827</ele>
        <time>2024-09-01T09:18:52.000Z</time>
      </trkpt>
      <trkpt lat="56.157639" lon="-3.343527">
        <ele>158.025415</ele>
        <time>2024-09-01T09:18:53.000Z</time>
      </trkpt>
      <trkpt lat="56.157679" lon="-3.343669">
        <ele>158.294993</ele>
        <time>2024-09-01T09:18:54.000Z</time>
      </trkpt>
      <trkpt lat="56.157728" lon="-3.343811">
        <ele>158.569591</ele>
        <time>2024-09-01T09:18:55.000Z</time>
      </trkpt>
      <trkpt lat="56.157738" lon="-3.343882">
        <ele>158.701564</ele>
        <time>2024-09-01T09:18:55.000Z</time>
      </trkpt>
      <trkpt lat="56.157772" lon="-3.344041">
        <ele>158.969467</ele>
        <time>2024-09-01T09:18:56.000Z</time>
      </trkpt>
      <trkpt lat="56.157798" lon="-3.344186">
        <ele>159.240007</ele>
        <time>2024-09-01T09:18:57.000Z</time>
      </trkpt>
      <trkpt lat="56.157835" lon="-3.344366">
        <ele>159.533998</ele>
        <time>2024-09-01T09:18:58.000Z</time>
      </trkpt>
      <trkpt lat="56.157871" lon="-3.344527">
        <ele>159.801825</ele>
        <time>2024-09-01T09:18:59.000Z</time>
      </trkpt>
      <trkpt lat="56.157872" lon="-3.344613">
        <ele>159.894308</ele>
        <time>2024-09-01T09:19:00.000Z</time>
      </trkpt>
      <trkpt lat="56.157904" lon="-3.344707">
        <ele>159.99395</ele>
        <time>2024-09-01T09:19:01.000Z</time>
      </trkpt>
      <trkpt lat="56.157918" lon="-3.344939">
        <ele>160.25831</ele>
        <time>2024-09-01T09:19:02.000Z</time>
      </trkpt>
      <trkpt lat="56.157939" lon="-3.345014">
        <ele>160.341166</ele>
        <time>2024-09-01T09:19:03.000Z</time>
      </trkpt>
      <trkpt lat="56.157949" lon="-3.345257">
        <ele>160.605505</ele>
        <time>2024-09-01T09:19:05.000Z</time>
      </trkpt>
      <trkpt lat="56.157968" lon="-3.345448">
        <ele>160.80221</ele>
        <time>2024-09-01T09:19:06.000Z</time>
      </trkpt>
      <trkpt lat="56.157976" lon="-3.345637">
        <ele>160.998882</ele>
        <time>2024-09-01T09:19:07.000Z</time>
      </trkpt>
      <trkpt lat="56.157978" lon="-3.345721">
        <ele>161.103376</ele>
        <time>2024-09-01T09:19:08.000Z</time>
      </trkpt>
      <trkpt lat="56.157959" lon="-3.345915">
        <ele>161.305365</ele>
        <time>2024-09-01T09:19:09.000Z</time>
      </trkpt>
      <trkpt lat="56.157956" lon="-3.346114">
        <ele>161.51449</ele>
        <time>2024-09-01T09:19:10.000Z</time>
      </trkpt>
      <trkpt lat="56.157955" lon="-3.346217">
        <ele>161.622202</ele>
        <time>2024-09-01T09:19:11.000Z</time>
      </trkpt>
      <trkpt lat="56.157944" lon="-3.346321">
        <ele>161.73309</ele>
        <time>2024-09-01T09:19:12.000Z</time>
      </trkpt>
      <trkpt lat="56.157914" lon="-3.346723">
        <ele>162.174817</ele>
        <time>2024-09-01T09:19:15.000Z</time>
      </trkpt>
      <trkpt lat="56.157899" lon="-3.346943">
        <ele>162.405678</ele>
        <time>2024-09-01T09:19:16.000Z</time>
      </trkpt>
      <trkpt lat="56.157867" lon="-3.34714">
        <ele>162.63579</ele>
        <time>2024-09-01T09:19:17.000Z</time>
      </trkpt>
      <trkpt lat="56.157843" lon="-3.34725">
        <ele>162.749883</ele>
        <time>2024-09-01T09:19:18.000Z</time>
      </trkpt>
      <trkpt lat="56.157797" lon="-3.347558">
        <ele>163.099144</ele>
        <time>2024-09-01T09:19:20.000Z</time>
      </trkpt>
      <trkpt lat="56.157757" lon="-3.347768">
        <ele>163.429061</ele>
        <time>2024-09-01T09:19:21.000Z</time>
      </trkpt>
      <trkpt lat="56.157749" lon="-3.34787">
        <ele>163.626753</ele>
        <time>2024-09-01T09:19:22.000Z</time>
      </trkpt>
      <trkpt lat="56.157724" lon="-3.347984">
        <ele>163.825301</ele>
        <time>2024-09-01T09:19:23.000Z</time>
      </trkpt>
      <trkpt lat="56.157701" lon="-3.348196">
        <ele>164.229426</ele>
        <time>2024-09-01T09:19:24.000Z</time>
      </trkpt>
      <trkpt lat="56.157655" lon="-3.3484">
        <ele>164.632702</ele>
        <time>2024-09-01T09:19:25.000Z</time>
      </trkpt>
      <trkpt lat="56.157633" lon="-3.348632">
        <ele>165.056448</ele>
        <time>2024-09-01T09:19:26.000Z</time>
      </trkpt>
      <trkpt lat="56.157608" lon="-3.34884">
        <ele>165.455249</ele>
        <time>2024-09-01T09:19:27.000Z</time>
      </trkpt>
      <trkpt lat="56.15759" lon="-3.348959">
        <ele>165.665242</ele>
        <time>2024-09-01T09:19:28.000Z</time>
      </trkpt>
      <trkpt lat="56.157597" lon="-3.349185">
        <ele>166.083036</ele>
        <time>2024-09-01T09:19:29.000Z</time>
      </trkpt>
      <trkpt lat="56.157614" lon="-3.349417">
        <ele>166.484941</ele>
        <time>2024-09-01T09:19:30.000Z</time>
      </trkpt>
      <trkpt lat="56.15761" lon="-3.34961">
        <ele>166.85635</ele>
        <time>2024-09-01T09:19:31.000Z</time>
      </trkpt>
      <trkpt lat="56.157631" lon="-3.349809">
        <ele>167.208053</ele>
        <time>2024-09-01T09:19:32.000Z</time>
      </trkpt>
      <trkpt lat="56.157638" lon="-3.349991">
        <ele>167.541945</ele>
        <time>2024-09-01T09:19:33.000Z</time>
      </trkpt>
      <trkpt lat="56.157639" lon="-3.350146">
        <ele>167.837405</ele>
        <time>2024-09-01T09:19:34.000Z</time>
      </trkpt>
      <trkpt lat="56.157662" lon="-3.350297">
        <ele>168.122849</ele>
        <time>2024-09-01T09:19:35.000Z</time>
      </trkpt>
      <trkpt lat="56.157649" lon="-3.350371">
        <ele>168.261823</ele>
        <time>2024-09-01T09:19:35.000Z</time>
      </trkpt>
      <trkpt lat="56.1576" lon="-3.350537">
        <ele>168.599784</ele>
        <time>2024-09-01T09:19:36.000Z</time>
      </trkpt>
      <trkpt lat="56.157535" lon="-3.350522">
        <ele>168.82665</ele>
        <time>2024-09-01T09:19:37.000Z</time>
      </trkpt>
      <trkpt lat="56.157495" lon="-3.350533">
        <ele>168.954579</ele>
        <time>2024-09-01T09:19:37.000Z</time>
      </trkpt>
      <trkpt lat="56.15736" lon="-3.350498">
        <ele>169.449914</ele>
        <time>2024-09-01T09:19:39.000Z</time>
      </trkpt>
      <trkpt lat="56.157322" lon="-3.350483">
        <ele>169.62022</ele>
        <time>2024-09-01T09:19:39.000Z</time>
      </trkpt>
      <trkpt lat="56.157273" lon="-3.35045">
        <ele>169.799029</ele>
        <time>2024-09-01T09:19:40.000Z</time>
      </trkpt>
      <trkpt lat="56.157142" lon="-3.350379">
        <ele>170.298472</ele>
        <time>2024-09-01T09:19:42.000Z</time>
      </trkpt>
      <trkpt lat="56.157121" lon="-3.350349">
        <ele>170.442345</ele>
        <time>2024-09-01T09:19:42.000Z</time>
      </trkpt>
      <trkpt lat="56.157079" lon="-3.350338">
        <ele>170.582348</ele>
        <time>2024-09-01T09:19:42.000Z</time>
      </trkpt>
      <trkpt lat="56.157" lon="-3.350405">
        <ele>170.917639</ele>
        <time>2024-09-01T09:19:43.000Z</time>
      </trkpt>
      <trkpt lat="56.156977" lon="-3.35053">
        <ele>171.168769</ele>
        <time>2024-09-01T09:19:44.000Z</time>
      </trkpt>
      <trkpt lat="56.156975" lon="-3.350556">
        <ele>171.256313</ele>
        <time>2024-09-01T09:19:44.000Z</time>
      </trkpt>
      <trkpt lat="56.156957" lon="-3.350676">
        <ele>171.530556</ele>
        <time>2024-09-01T09:19:45.000Z</time>
      </trkpt>
      <trkpt lat="56.15691" lon="-3.350795">
        <ele>171.833005</ele>
        <time>2024-09-01T09:19:46.000Z</time>
      </trkpt>
      <trkpt lat="56.156846" lon="-3.350892">
        <ele>172.125861</ele>
        <time>2024-09-01T09:19:47.000Z</time>
      </trkpt>
      <trkpt lat="56.156856" lon="-3.350895">
        <ele>172.125858</ele>
        <time>2024-09-01T09:19:47.000Z</time>
      </trkpt>
      <trkpt lat="56.156721" lon="-3.351068">
        <ele>172.753679</ele>
        <time>2024-09-01T09:19:49.000Z</time>
      </trkpt>
      <trkpt lat="56.156656" lon="-3.351136">
        <ele>173.027193</ele>
        <time>2024-09-01T09:19:50.000Z</time>
      </trkpt>
      <trkpt lat="56.156625" lon="-3.351166">
        <ele>173.155592</ele>
        <time>2024-09-01T09:19:50.000Z</time>
      </trkpt>
      <trkpt lat="56.156548" lon="-3.351315">
        <ele>173.59939</ele>
        <time>2024-09-01T09:19:51.000Z</time>
      </trkpt>
      <trkpt lat="56.156528" lon="-3.351375">
        <ele>173.757703</ele>
        <time>2024-09-01T09:19:51.000Z</time>
      </trkpt>
      <trkpt lat="56.156504" lon="-3.351433">
        <ele>173.910679</ele>
        <time>2024-09-01T09:19:51.000Z</time>
      </trkpt>
      <trkpt lat="56.156459" lon="-3.351662">
        <ele>174.405126</ele>
        <time>2024-09-01T09:19:53.000Z</time>
      </trkpt>
      <trkpt lat="56.156422" lon="-3.351809">
        <ele>174.776139</ele>
        <time>2024-09-01T09:19:54.000Z</time>
      </trkpt>
      <trkpt lat="56.156401" lon="-3.351897">
        <ele>174.97062</ele>
        <time>2024-09-01T09:19:55.000Z</time>
      </trkpt>
      <trkpt lat="56.156384" lon="-3.352061">
        <ele>175.340961</ele>
        <time>2024-09-01T09:19:56.000Z</time>
      </trkpt>
      <trkpt lat="56.156376" lon="-3.352147">
        <ele>175.530271</ele>
        <time>2024-09-01T09:19:57.000Z</time>
      </trkpt>
      <trkpt lat="56.156333" lon="-3.352391">
        <ele>176.011169</ele>
        <time>2024-09-01T09:19:59.000Z</time>
      </trkpt>
      <trkpt lat="56.156335" lon="-3.352544">
        <ele>176.130051</ele>
        <time>2024-09-01T09:20:00.000Z</time>
      </trkpt>
      <trkpt lat="56.156318" lon="-3.352707">
        <ele>176.252907</ele>
        <time>2024-09-01T09:20:01.000Z</time>
      </trkpt>
      <trkpt lat="56.156302" lon="-3.352861">
        <ele>176.370053</ele>
        <time>2024-09-01T09:20:02.000Z</time>
      </trkpt>
      <trkpt lat="56.156296" lon="-3.352928">
        <ele>176.429518</ele>
        <time>2024-09-01T09:20:02.000Z</time>
      </trkpt>
      <trkpt lat="56.156278" lon="-3.353159">
        <ele>176.601654</ele>
        <time>2024-09-01T09:20:03.000Z</time>
      </trkpt>
      <trkpt lat="56.156258" lon="-3.353216">
        <ele>176.651877</ele>
        <time>2024-09-01T09:20:03.000Z</time>
      </trkpt>
      <trkpt lat="56.156222" lon="-3.353353">
        <ele>176.770847</ele>
        <time>2024-09-01T09:20:04.000Z</time>
      </trkpt>
      <trkpt lat="56.156161" lon="-3.35345">
        <ele>176.88359</ele>
        <time>2024-09-01T09:20:05.000Z</time>
      </trkpt>
      <trkpt lat="56.156123" lon="-3.353486">
        <ele>176.930821</ele>
        <time>2024-09-01T09:20:05.000Z</time>
      </trkpt>
      <trkpt lat="56.156059" lon="-3.353584">
        <ele>177.056452</ele>
        <time>2024-09-01T09:20:06.000Z</time>
      </trkpt>
      <trkpt lat="56.156003" lon="-3.353618">
        <ele>177.124914</ele>
        <time>2024-09-01T09:20:07.000Z</time>
      </trkpt>
      <trkpt lat="56.155958" lon="-3.353671">
        <ele>177.207603</ele>
        <time>2024-09-01T09:20:08.000Z</time>
      </trkpt>
      <trkpt lat="56.1559" lon="-3.35372">
        <ele>177.290766</ele>
        <time>2024-09-01T09:20:09.000Z</time>
      </trkpt>
      <trkpt lat="56.155861" lon="-3.353765">
        <ele>177.360939</ele>
        <time>2024-09-01T09:20:10.000Z</time>
      </trkpt>
      <trkpt lat="56.155809" lon="-3.353815">
        <ele>177.426255</ele>
        <time>2024-09-01T09:20:11.000Z</time>
      </trkpt>
      <trkpt lat="56.155793" lon="-3.353851">
        <ele>177.462182</ele>
        <time>2024-09-01T09:20:11.000Z</time>
      </trkpt>
      <trkpt lat="56.155773" lon="-3.354051">
        <ele>177.622337</ele>
        <time>2024-09-01T09:20:12.000Z</time>
      </trkpt>
      <trkpt lat="56.155718" lon="-3.35426">
        <ele>177.796337</ele>
        <time>2024-09-01T09:20:13.000Z</time>
      </trkpt>
      <trkpt lat="56.155579" lon="-3.354263">
        <ele>177.983698</ele>
        <time>2024-09-01T09:20:15.000Z</time>
      </trkpt>
      <trkpt lat="56.155503" lon="-3.354271">
        <ele>178.098136</ele>
        <time>2024-09-01T09:20:16.000Z</time>
      </trkpt>
      <trkpt lat="56.155468" lon="-3.354291">
        <ele>178.153629</ele>
        <time>2024-09-01T09:20:16.000Z</time>
      </trkpt>
      <trkpt lat="56.155439" lon="-3.354299">
        <ele>178.186806</ele>
        <time>2024-09-01T09:20:16.000Z</time>
      </trkpt>
      <trkpt lat="56.155307" lon="-3.354277">
        <ele>178.359733</ele>
        <time>2024-09-01T09:20:17.000Z</time>
      </trkpt>
      <trkpt lat="56.155274" lon="-3.354238">
        <ele>178.419106</ele>
        <time>2024-09-01T09:20:17.000Z</time>
      </trkpt>
      <trkpt lat="56.155182" lon="-3.3542">
        <ele>177.810011</ele>
        <time>2024-09-01T09:20:18.000Z</time>
      </trkpt>
      <trkpt lat="56.155148" lon="-3.354194">
        <ele>177.290279</ele>
        <time>2024-09-01T09:20:18.000Z</time>
      </trkpt>
      <trkpt lat="56.155093" lon="-3.354206">
        <ele>176.835989</ele>
        <time>2024-09-01T09:20:19.000Z</time>
      </trkpt>
      <trkpt lat="56.154894" lon="-3.354078">
        <ele>174.56345</ele>
        <time>2024-09-01T09:20:21.000Z</time>
      </trkpt>
      <trkpt lat="56.154807" lon="-3.354066">
        <ele>173.465027</ele>
        <time>2024-09-01T09:20:22.000Z</time>
      </trkpt>
      <trkpt lat="56.154703" lon="-3.354079">
        <ele>172.414896</ele>
        <time>2024-09-01T09:20:23.000Z</time>
      </trkpt>
      <trkpt lat="56.154653" lon="-3.354105">
        <ele>171.878239</ele>
        <time>2024-09-01T09:20:24.000Z</time>
      </trkpt>
      <trkpt lat="56.154609" lon="-3.354091">
        <ele>171.369861</ele>
        <time>2024-09-01T09:20:24.000Z</time>
      </trkpt>
      <trkpt lat="56.154516" lon="-3.354102">
        <ele>170.417728</ele>
        <time>2024-09-01T09:20:25.000Z</time>
      </trkpt>
      <trkpt lat="56.154428" lon="-3.354109">
        <ele>169.325197</ele>
        <time>2024-09-01T09:20:26.000Z</time>
      </trkpt>
      <trkpt lat="56.154318" lon="-3.35412">
        <ele>168.264587</ele>
        <time>2024-09-01T09:20:27.000Z</time>
      </trkpt>
      <trkpt lat="56.154282" lon="-3.354118">
        <ele>167.773356</ele>
        <time>2024-09-01T09:20:27.000Z</time>
      </trkpt>
      <trkpt lat="56.154177" lon="-3.354154">
        <ele>166.763034</ele>
        <time>2024-09-01T09:20:28.000Z</time>
      </trkpt>
      <trkpt lat="56.154094" lon="-3.354181">
        <ele>165.849559</ele>
        <time>2024-09-01T09:20:29.000Z</time>
      </trkpt>
      <trkpt lat="56.154066" lon="-3.354172">
        <ele>165.373603</ele>
        <time>2024-09-01T09:20:29.000Z</time>
      </trkpt>
      <trkpt lat="56.153965" lon="-3.354189">
        <ele>164.302356</ele>
        <time>2024-09-01T09:20:30.000Z</time>
      </trkpt>
      <trkpt lat="56.153844" lon="-3.354268">
        <ele>163.03186</ele>
        <time>2024-09-01T09:20:31.000Z</time>
      </trkpt>
      <trkpt lat="56.153728" lon="-3.354354">
        <ele>161.692028</ele>
        <time>2024-09-01T09:20:32.000Z</time>
      </trkpt>
      <trkpt lat="56.153609" lon="-3.354477">
        <ele>160.178286</ele>
        <time>2024-09-01T09:20:34.000Z</time>
      </trkpt>
      <trkpt lat="56.153518" lon="-3.35462">
        <ele>158.745126</ele>
        <time>2024-09-01T09:20:35.000Z</time>
      </trkpt>
      <trkpt lat="56.153411" lon="-3.354664">
        <ele>157.080335</ele>
        <time>2024-09-01T09:20:36.000Z</time>
      </trkpt>
      <trkpt lat="56.153284" lon="-3.354686">
        <ele>155.328937</ele>
        <time>2024-09-01T09:20:37.000Z</time>
      </trkpt>
      <trkpt lat="56.15323" lon="-3.354707">
        <ele>154.517034</ele>
        <time>2024-09-01T09:20:38.000Z</time>
      </trkpt>
      <trkpt lat="56.153185" lon="-3.354756">
        <ele>153.788082</ele>
        <time>2024-09-01T09:20:39.000Z</time>
      </trkpt>
      <trkpt lat="56.153123" lon="-3.354864">
        <ele>152.397314</ele>
        <time>2024-09-01T09:20:40.000Z</time>
      </trkpt>
      <trkpt lat="56.153056" lon="-3.354955">
        <ele>151.262029</ele>
        <time>2024-09-01T09:20:41.000Z</time>
      </trkpt>
      <trkpt lat="56.152981" lon="-3.354998">
        <ele>150.051472</ele>
        <time>2024-09-01T09:20:42.000Z</time>
      </trkpt>
      <trkpt lat="56.15289" lon="-3.35503">
        <ele>148.826711</ele>
        <time>2024-09-01T09:20:43.000Z</time>
      </trkpt>
      <trkpt lat="56.152858" lon="-3.355055">
        <ele>148.199645</ele>
        <time>2024-09-01T09:20:43.000Z</time>
      </trkpt>
      <trkpt lat="56.152761" lon="-3.355099">
        <ele>146.694826</ele>
        <time>2024-09-01T09:20:44.000Z</time>
      </trkpt>
      <trkpt lat="56.152665" lon="-3.355252">
        <ele>144.828754</ele>
        <time>2024-09-01T09:20:45.000Z</time>
      </trkpt>
      <trkpt lat="56.152562" lon="-3.355346">
        <ele>143.215037</ele>
        <time>2024-09-01T09:20:46.000Z</time>
      </trkpt>
      <trkpt lat="56.152511" lon="-3.355389">
        <ele>142.492322</ele>
        <time>2024-09-01T09:20:47.000Z</time>
      </trkpt>
      <trkpt lat="56.152474" lon="-3.35542">
        <ele>141.757001</ele>
        <time>2024-09-01T09:20:47.000Z</time>
      </trkpt>
      <trkpt lat="56.152389" lon="-3.355505">
        <ele>140.268131</ele>
        <time>2024-09-01T09:20:48.000Z</time>
      </trkpt>
      <trkpt lat="56.152206" lon="-3.355646">
        <ele>137.550132</ele>
        <time>2024-09-01T09:20:50.000Z</time>
      </trkpt>
      <trkpt lat="56.152168" lon="-3.355685">
        <ele>136.707477</ele>
        <time>2024-09-01T09:20:50.000Z</time>
      </trkpt>
      <trkpt lat="56.152056" lon="-3.355778">
        <ele>135.046329</ele>
        <time>2024-09-01T09:20:51.000Z</time>
      </trkpt>
      <trkpt lat="56.15201" lon="-3.3558">
        <ele>134.273741</ele>
        <time>2024-09-01T09:20:52.000Z</time>
      </trkpt>
      <trkpt lat="56.151865" lon="-3.355928">
        <ele>132.071758</ele>
        <time>2024-09-01T09:20:54.000Z</time>
      </trkpt>
      <trkpt lat="56.151821" lon="-3.355962">
        <ele>131.514938</ele>
        <time>2024-09-01T09:20:55.000Z</time>
      </trkpt>
      <trkpt lat="56.151774" lon="-3.355972">
        <ele>131.004024</ele>
        <time>2024-09-01T09:20:56.000Z</time>
      </trkpt>
      <trkpt lat="56.151737" lon="-3.356009">
        <ele>130.528223</ele>
        <time>2024-09-01T09:20:56.000Z</time>
      </trkpt>
      <trkpt lat="56.151653" lon="-3.356103">
        <ele>129.467456</ele>
        <time>2024-09-01T09:20:57.000Z</time>
      </trkpt>
      <trkpt lat="56.151566" lon="-3.356198">
        <ele>128.335948</ele>
        <time>2024-09-01T09:20:58.000Z</time>
      </trkpt>
      <trkpt lat="56.151459" lon="-3.356266">
        <ele>127.091927</ele>
        <time>2024-09-01T09:20:59.000Z</time>
      </trkpt>
      <trkpt lat="56.151351" lon="-3.356369">
        <ele>125.813849</ele>
        <time>2024-09-01T09:21:00.000Z</time>
      </trkpt>
      <trkpt lat="56.151298" lon="-3.356396">
        <ele>125.127116</ele>
        <time>2024-09-01T09:21:01.000Z</time>
      </trkpt>
      <trkpt lat="56.151233" lon="-3.356429">
        <ele>124.484954</ele>
        <time>2024-09-01T09:21:02.000Z</time>
      </trkpt>
      <trkpt lat="56.151109" lon="-3.356503">
        <ele>123.02815</ele>
        <time>2024-09-01T09:21:03.000Z</time>
      </trkpt>
      <trkpt lat="56.150994" lon="-3.356574">
        <ele>121.609141</ele>
        <time>2024-09-01T09:21:04.000Z</time>
      </trkpt>
      <trkpt lat="56.150864" lon="-3.356657">
        <ele>120.143977</ele>
        <time>2024-09-01T09:21:06.000Z</time>
      </trkpt>
      <trkpt lat="56.150806" lon="-3.356713">
        <ele>119.480796</ele>
        <time>2024-09-01T09:21:07.000Z</time>
      </trkpt>
      <trkpt lat="56.150753" lon="-3.356742">
        <ele>118.907839</ele>
        <time>2024-09-01T09:21:08.000Z</time>
      </trkpt>
      <trkpt lat="56.150659" lon="-3.356715">
        <ele>117.782925</ele>
        <time>2024-09-01T09:21:09.000Z</time>
      </trkpt>
      <trkpt lat="56.150604" lon="-3.356681">
        <ele>117.189267</ele>
        <time>2024-09-01T09:21:10.000Z</time>
      </trkpt>
      <trkpt lat="56.150487" lon="-3.356598">
        <ele>115.728009</ele>
        <time>2024-09-01T09:21:11.000Z</time>
      </trkpt>
      <trkpt lat="56.150433" lon="-3.356564">
        <ele>114.997987</ele>
        <time>2024-09-01T09:21:12.000Z</time>
      </trkpt>
      <trkpt lat="56.150225" lon="-3.356456">
        <ele>112.84416</ele>
        <time>2024-09-01T09:21:14.000Z</time>
      </trkpt>
      <trkpt lat="56.150089" lon="-3.356476">
        <ele>111.90218</ele>
        <time>2024-09-01T09:21:16.000Z</time>
      </trkpt>
      <trkpt lat="56.149947" lon="-3.356457">
        <ele>110.877836</ele>
        <time>2024-09-01T09:21:18.000Z</time>
      </trkpt>
      <trkpt lat="56.149726" lon="-3.356478">
        <ele>109.416284</ele>
        <time>2024-09-01T09:21:20.000Z</time>
      </trkpt>
      <trkpt lat="56.149578" lon="-3.356651">
        <ele>108.186972</ele>
        <time>2024-09-01T09:21:22.000Z</time>
      </trkpt>
      <trkpt lat="56.149519" lon="-3.356729">
        <ele>107.669113</ele>
        <time>2024-09-01T09:21:23.000Z</time>
      </trkpt>
      <trkpt lat="56.149389" lon="-3.356917">
        <ele>106.595588</ele>
        <time>2024-09-01T09:21:25.000Z</time>
      </trkpt>
      <trkpt lat="56.149272" lon="-3.357089">
        <ele>105.45731</ele>
        <time>2024-09-01T09:21:27.000Z</time>
      </trkpt>
      <trkpt lat="56.149213" lon="-3.357175">
        <ele>104.938003</ele>
        <time>2024-09-01T09:21:28.000Z</time>
      </trkpt>
      <trkpt lat="56.149082" lon="-3.357282">
        <ele>103.969688</ele>
        <time>2024-09-01T09:21:30.000Z</time>
      </trkpt>
      <trkpt lat="56.149022" lon="-3.357217">
        <ele>103.530135</ele>
        <time>2024-09-01T09:21:31.000Z</time>
      </trkpt>
      <trkpt lat="56.149017" lon="-3.357042">
        <ele>102.864788</ele>
        <time>2024-09-01T09:21:32.000Z</time>
      </trkpt>
      <trkpt lat="56.149046" lon="-3.356971">
        <ele>102.529221</ele>
        <time>2024-09-01T09:21:33.000Z</time>
      </trkpt>
      <trkpt lat="56.149116" lon="-3.356791">
        <ele>101.695976</ele>
        <time>2024-09-01T09:21:34.000Z</time>
      </trkpt>
      <trkpt lat="56.149185" lon="-3.356571">
        <ele>100.782569</ele>
        <time>2024-09-01T09:21:36.000Z</time>
      </trkpt>
      <trkpt lat="56.149244" lon="-3.356342">
        <ele>100.283347</ele>
        <time>2024-09-01T09:21:38.000Z</time>
      </trkpt>
      <trkpt lat="56.149293" lon="-3.356095">
        <ele>99.865044</ele>
        <time>2024-09-01T09:21:40.000Z</time>
      </trkpt>
      <trkpt lat="56.149362" lon="-3.355854">
        <ele>99.420721</ele>
        <time>2024-09-01T09:21:42.000Z</time>
      </trkpt>
      <trkpt lat="56.149441" lon="-3.35556">
        <ele>98.937572</ele>
        <time>2024-09-01T09:21:44.000Z</time>
      </trkpt>
      <trkpt lat="56.149484" lon="-3.355417">
        <ele>98.689758</ele>
        <time>2024-09-01T09:21:45.000Z</time>
      </trkpt>
      <trkpt lat="56.149558" lon="-3.355131">
        <ele>98.199712</ele>
        <time>2024-09-01T09:21:47.000Z</time>
      </trkpt>
      <trkpt lat="56.149624" lon="-3.354866">
        <ele>97.727695</ele>
        <time>2024-09-01T09:21:49.000Z</time>
      </trkpt>
      <trkpt lat="56.149642" lon="-3.354719">
        <ele>97.495954</ele>
        <time>2024-09-01T09:21:50.000Z</time>
      </trkpt>
      <trkpt lat="56.149691" lon="-3.354599">
        <ele>97.257969</ele>
        <time>2024-09-01T09:21:51.000Z</time>
      </trkpt>
      <trkpt lat="56.149701" lon="-3.354216">
        <ele>96.661704</ele>
        <time>2024-09-01T09:21:53.000Z</time>
      </trkpt>
      <trkpt lat="56.149664" lon="-3.353933">
        <ele>96.226262</ele>
        <time>2024-09-01T09:21:55.000Z</time>
      </trkpt>
      <trkpt lat="56.149634" lon="-3.353658">
        <ele>95.775129</ele>
        <time>2024-09-01T09:21:57.000Z</time>
      </trkpt>
      <trkpt lat="56.149628" lon="-3.353528">
        <ele>95.569551</ele>
        <time>2024-09-01T09:21:58.000Z</time>
      </trkpt>
      <trkpt lat="56.149628" lon="-3.353393">
        <ele>95.557851</ele>
        <time>2024-09-01T09:21:59.000Z</time>
      </trkpt>
      <trkpt lat="56.149654" lon="-3.35297">
        <ele>95.56912</ele>
        <time>2024-09-01T09:22:02.000Z</time>
      </trkpt>
      <trkpt lat="56.149646" lon="-3.352701">
        <ele>95.576522</ele>
        <time>2024-09-01T09:22:04.000Z</time>
      </trkpt>
      <trkpt lat="56.149636" lon="-3.352408">
        <ele>95.584066</ele>
        <time>2024-09-01T09:22:06.000Z</time>
      </trkpt>
      <trkpt lat="56.149632" lon="-3.35214">
        <ele>95.591483</ele>
        <time>2024-09-01T09:22:08.000Z</time>
      </trkpt>
      <trkpt lat="56.149615" lon="-3.351865">
        <ele>95.599113</ele>
        <time>2024-09-01T09:22:10.000Z</time>
      </trkpt>
      <trkpt lat="56.149594" lon="-3.351616">
        <ele>95.605676</ele>
        <time>2024-09-01T09:22:12.000Z</time>
      </trkpt>
      <trkpt lat="56.149582" lon="-3.351375">
        <ele>95.612135</ele>
        <time>2024-09-01T09:22:13.000Z</time>
      </trkpt>
      <trkpt lat="56.149573" lon="-3.351282">
        <ele>95.614871</ele>
        <time>2024-09-01T09:22:14.000Z</time>
      </trkpt>
      <trkpt lat="56.149577" lon="-3.35128">
        <ele>95.61487</ele>
        <time>2024-09-01T09:22:14.000Z</time>
      </trkpt>
      <trkpt lat="56.149651" lon="-3.35118">
        <ele>95.619572</ele>
        <time>2024-09-01T09:22:15.000Z</time>
      </trkpt>
      <trkpt lat="56.149694" lon="-3.35121">
        <ele>95.621259</ele>
        <time>2024-09-01T09:22:16.000Z</time>
      </trkpt>
      <trkpt lat="56.149748" lon="-3.351172">
        <ele>95.624453</ele>
        <time>2024-09-01T09:22:17.000Z</time>
      </trkpt>
      <trkpt lat="56.149786" lon="-3.351088">
        <ele>95.627083</ele>
        <time>2024-09-01T09:22:18.000Z</time>
      </trkpt>
      <trkpt lat="56.149809" lon="-3.351043">
        <ele>95.628663</ele>
        <time>2024-09-01T09:22:18.000Z</time>
      </trkpt>
      <trkpt lat="56.149872" lon="-3.350908">
        <ele>95.633825</ele>
        <time>2024-09-01T09:22:19.000Z</time>
      </trkpt>
      <trkpt lat="56.149956" lon="-3.350862">
        <ele>95.637767</ele>
        <time>2024-09-01T09:22:20.000Z</time>
      </trkpt>
      <trkpt lat="56.150039" lon="-3.350811">
        <ele>95.63834</ele>
        <time>2024-09-01T09:22:21.000Z</time>
      </trkpt>
      <trkpt lat="56.15006" lon="-3.350752">
        <ele>95.631516</ele>
        <time>2024-09-01T09:22:21.000Z</time>
      </trkpt>
      <trkpt lat="56.150101" lon="-3.350712">
        <ele>95.625439</ele>
        <time>2024-09-01T09:22:22.000Z</time>
      </trkpt>
      <trkpt lat="56.150147" lon="-3.350535">
        <ele>95.607976</ele>
        <time>2024-09-01T09:22:23.000Z</time>
      </trkpt>
      <trkpt lat="56.150198" lon="-3.35042">
        <ele>95.595462</ele>
        <time>2024-09-01T09:22:24.000Z</time>
      </trkpt>
      <trkpt lat="56.150247" lon="-3.350311">
        <ele>95.58148</ele>
        <time>2024-09-01T09:22:25.000Z</time>
      </trkpt>
      <trkpt lat="56.150274" lon="-3.350242">
        <ele>95.574425</ele>
        <time>2024-09-01T09:22:26.000Z</time>
      </trkpt>
      <trkpt lat="56.150282" lon="-3.350101">
        <ele>95.561292</ele>
        <time>2024-09-01T09:22:27.000Z</time>
      </trkpt>
      <trkpt lat="56.150283" lon="-3.34995">
        <ele>95.548935</ele>
        <time>2024-09-01T09:22:28.000Z</time>
      </trkpt>
      <trkpt lat="56.150359" lon="-3.349867">
        <ele>95.534699</ele>
        <time>2024-09-01T09:22:29.000Z</time>
      </trkpt>
      <trkpt lat="56.150414" lon="-3.349683">
        <ele>95.51719</ele>
        <time>2024-09-01T09:22:30.000Z</time>
      </trkpt>
      <trkpt lat="56.15041" lon="-3.349529">
        <ele>95.502862</ele>
        <time>2024-09-01T09:22:31.000Z</time>
      </trkpt>
      <trkpt lat="56.150401" lon="-3.349421">
        <ele>95.492829</ele>
        <time>2024-09-01T09:22:32.000Z</time>
      </trkpt>
      <trkpt lat="56.150416" lon="-3.349284">
        <ele>95.480206</ele>
        <time>2024-09-01T09:22:33.000Z</time>
      </trkpt>
      <trkpt lat="56.150421" lon="-3.349203">
        <ele>95.472776</ele>
        <time>2024-09-01T09:22:34.000Z</time>
      </trkpt>
      <trkpt lat="56.150434" lon="-3.349117">
        <ele>95.465628</ele>
        <time>2024-09-01T09:22:35.000Z</time>
      </trkpt>
      <trkpt lat="56.150451" lon="-3.348963">
        <ele>95.450231</ele>
        <time>2024-09-01T09:22:36.000Z</time>
      </trkpt>
      <trkpt lat="56.150452" lon="-3.348796">
        <ele>95.435731</ele>
        <time>2024-09-01T09:22:37.000Z</time>
      </trkpt>
      <trkpt lat="56.150409" lon="-3.348633">
        <ele>95.420326</ele>
        <time>2024-09-01T09:22:38.000Z</time>
      </trkpt>
      <trkpt lat="56.150403" lon="-3.3485">
        <ele>95.407793</ele>
        <time>2024-09-01T09:22:39.000Z</time>
      </trkpt>
      <trkpt lat="56.150443" lon="-3.348336">
        <ele>95.393145</ele>
        <time>2024-09-01T09:22:40.000Z</time>
      </trkpt>
      <trkpt lat="56.150449" lon="-3.348287">
        <ele>95.388495</ele>
        <time>2024-09-01T09:22:40.000Z</time>
      </trkpt>
      <trkpt lat="56.15044" lon="-3.348159">
        <ele>95.377047</ele>
        <time>2024-09-01T09:22:41.000Z</time>
      </trkpt>
      <trkpt lat="56.150435" lon="-3.347927">
        <ele>95.35563</ele>
        <time>2024-09-01T09:22:42.000Z</time>
      </trkpt>
      <trkpt lat="56.150428" lon="-3.347874">
        <ele>95.350299</ele>
        <time>2024-09-01T09:22:42.000Z</time>
      </trkpt>
      <trkpt lat="56.150452" lon="-3.347745">
        <ele>95.337761</ele>
        <time>2024-09-01T09:22:43.000Z</time>
      </trkpt>
      <trkpt lat="56.150463" lon="-3.347693">
        <ele>95.330865</ele>
        <time>2024-09-01T09:22:43.000Z</time>
      </trkpt>
      <trkpt lat="56.150472" lon="-3.347622">
        <ele>95.324021</ele>
        <time>2024-09-01T09:22:43.000Z</time>
      </trkpt>
      <trkpt lat="56.150508" lon="-3.347375">
        <ele>95.296526</ele>
        <time>2024-09-01T09:22:45.000Z</time>
      </trkpt>
      <trkpt lat="56.150512" lon="-3.347245">
        <ele>95.283646</ele>
        <time>2024-09-01T09:22:46.000Z</time>
      </trkpt>
      <trkpt lat="56.15051" lon="-3.347134">
        <ele>95.272395</ele>
        <time>2024-09-01T09:22:47.000Z</time>
      </trkpt>
      <trkpt lat="56.150494" lon="-3.347078">
        <ele>95.264834</ele>
        <time>2024-09-01T09:22:47.000Z</time>
      </trkpt>
      <trkpt lat="56.150436" lon="-3.346926">
        <ele>95.246669</ele>
        <time>2024-09-01T09:22:48.000Z</time>
      </trkpt>
      <trkpt lat="56.150403" lon="-3.346839">
        <ele>95.23609</ele>
        <time>2024-09-01T09:22:49.000Z</time>
      </trkpt>
      <trkpt lat="56.150314" lon="-3.346694">
        <ele>95.214682</ele>
        <time>2024-09-01T09:22:50.000Z</time>
      </trkpt>
      <trkpt lat="56.150245" lon="-3.346515">
        <ele>95.191826</ele>
        <time>2024-09-01T09:22:51.000Z</time>
      </trkpt>
      <trkpt lat="56.150207" lon="-3.346431">
        <ele>95.180469</ele>
        <time>2024-09-01T09:22:52.000Z</time>
      </trkpt>
      <trkpt lat="56.150123" lon="-3.346287">
        <ele>95.159791</ele>
        <time>2024-09-01T09:22:53.000Z</time>
      </trkpt>
      <trkpt lat="56.150121" lon="-3.346188">
        <ele>95.150122</ele>
        <time>2024-09-01T09:22:54.000Z</time>
      </trkpt>
      <trkpt lat="56.150102" lon="-3.346">
        <ele>95.130126</ele>
        <time>2024-09-01T09:22:55.000Z</time>
      </trkpt>
      <trkpt lat="56.150062" lon="-3.345793">
        <ele>95.107011</ele>
        <time>2024-09-01T09:22:56.000Z</time>
      </trkpt>
      <trkpt lat="56.150034" lon="-3.345692">
        <ele>95.095496</ele>
        <time>2024-09-01T09:22:57.000Z</time>
      </trkpt>
      <trkpt lat="56.149999" lon="-3.345605">
        <ele>95.084803</ele>
        <time>2024-09-01T09:22:58.000Z</time>
      </trkpt>
      <trkpt lat="56.150014" lon="-3.34539">
        <ele>95.06252</ele>
        <time>2024-09-01T09:22:59.000Z</time>
      </trkpt>
      <trkpt lat="56.150043" lon="-3.345262">
        <ele>95.047795</ele>
        <time>2024-09-01T09:23:00.000Z</time>
      </trkpt>
      <trkpt lat="56.150006" lon="-3.345146">
        <ele>95.033398</ele>
        <time>2024-09-01T09:23:01.000Z</time>
      </trkpt>
      <trkpt lat="56.149966" lon="-3.345028">
        <ele>95.029593</ele>
        <time>2024-09-01T09:23:02.000Z</time>
      </trkpt>
      <trkpt lat="56.14992" lon="-3.344966">
        <ele>95.068583</ele>
        <time>2024-09-01T09:23:03.000Z</time>
      </trkpt>
      <trkpt lat="56.149883" lon="-3.344896">
        <ele>95.111616</ele>
        <time>2024-09-01T09:23:04.000Z</time>
      </trkpt>
      <trkpt lat="56.149831" lon="-3.344757">
        <ele>95.191807</ele>
        <time>2024-09-01T09:23:05.000Z</time>
      </trkpt>
      <trkpt lat="56.149806" lon="-3.344687">
        <ele>95.232223</ele>
        <time>2024-09-01T09:23:06.000Z</time>
      </trkpt>
      <trkpt lat="56.149722" lon="-3.344488">
        <ele>95.351153</ele>
        <time>2024-09-01T09:23:08.000Z</time>
      </trkpt>
      <trkpt lat="56.149697" lon="-3.344429">
        <ele>95.386827</ele>
        <time>2024-09-01T09:23:08.000Z</time>
      </trkpt>
      <trkpt lat="56.149698" lon="-3.3443">
        <ele>95.452012</ele>
        <time>2024-09-01T09:23:09.000Z</time>
      </trkpt>
      <trkpt lat="56.149653" lon="-3.344202">
        <ele>95.511556</ele>
        <time>2024-09-01T09:23:10.000Z</time>
      </trkpt>
      <trkpt lat="56.149561" lon="-3.34415">
        <ele>95.584567</ele>
        <time>2024-09-01T09:23:11.000Z</time>
      </trkpt>
      <trkpt lat="56.149525" lon="-3.344112">
        <ele>95.621326</ele>
        <time>2024-09-01T09:23:11.000Z</time>
      </trkpt>
      <trkpt lat="56.149474" lon="-3.343988">
        <ele>95.689607</ele>
        <time>2024-09-01T09:23:12.000Z</time>
      </trkpt>
      <trkpt lat="56.149428" lon="-3.343907">
        <ele>95.750391</ele>
        <time>2024-09-01T09:23:13.000Z</time>
      </trkpt>
      <trkpt lat="56.14942" lon="-3.343918">
        <ele>95.750386</ele>
        <time>2024-09-01T09:23:13.000Z</time>
      </trkpt>
      <trkpt lat="56.149255" lon="-3.343727">
        <ele>95.922232</ele>
        <time>2024-09-01T09:23:15.000Z</time>
      </trkpt>
      <trkpt lat="56.149203" lon="-3.343668">
        <ele>95.964415</ele>
        <time>2024-09-01T09:23:16.000Z</time>
      </trkpt>
      <trkpt lat="56.149185" lon="-3.343607">
        <ele>96.008146</ele>
        <time>2024-09-01T09:23:16.000Z</time>
      </trkpt>
      <trkpt lat="56.149064" lon="-3.343415">
        <ele>96.138479</ele>
        <time>2024-09-01T09:23:18.000Z</time>
      </trkpt>
      <trkpt lat="56.149064" lon="-3.343422">
        <ele>96.138464</ele>
        <time>2024-09-01T09:23:18.000Z</time>
      </trkpt>
      <trkpt lat="56.148913" lon="-3.34316">
        <ele>96.318541</ele>
        <time>2024-09-01T09:23:20.000Z</time>
      </trkpt>
      <trkpt lat="56.148882" lon="-3.3431">
        <ele>96.362668</ele>
        <time>2024-09-01T09:23:21.000Z</time>
      </trkpt>
      <trkpt lat="56.148781" lon="-3.342972">
        <ele>96.456383</ele>
        <time>2024-09-01T09:23:22.000Z</time>
      </trkpt>
      <trkpt lat="56.148758" lon="-3.342913">
        <ele>96.497185</ele>
        <time>2024-09-01T09:23:22.000Z</time>
      </trkpt>
      <trkpt lat="56.148696" lon="-3.342776">
        <ele>96.557582</ele>
        <time>2024-09-01T09:23:23.000Z</time>
      </trkpt>
      <trkpt lat="56.148609" lon="-3.34271">
        <ele>96.57318</ele>
        <time>2024-09-01T09:23:24.000Z</time>
      </trkpt>
      <trkpt lat="56.148612" lon="-3.34261">
        <ele>96.582843</ele>
        <time>2024-09-01T09:23:25.000Z</time>
      </trkpt>
      <trkpt lat="56.148605" lon="-3.342464">
        <ele>96.595858</ele>
        <time>2024-09-01T09:23:26.000Z</time>
      </trkpt>
      <trkpt lat="56.148595" lon="-3.342342">
        <ele>96.608011</ele>
        <time>2024-09-01T09:23:27.000Z</time>
      </trkpt>
      <trkpt lat="56.148658" lon="-3.342314">
        <ele>96.618676</ele>
        <time>2024-09-01T09:23:28.000Z</time>
      </trkpt>
      <trkpt lat="56.14874" lon="-3.342327">
        <ele>96.633279</ele>
        <time>2024-09-01T09:23:29.000Z</time>
      </trkpt>
      <trkpt lat="56.148849" lon="-3.342364">
        <ele>96.649233</ele>
        <time>2024-09-01T09:23:30.000Z</time>
      </trkpt>
      <trkpt lat="56.148917" lon="-3.342322">
        <ele>96.662343</ele>
        <time>2024-09-01T09:23:31.000Z</time>
      </trkpt>
      <trkpt lat="56.148945" lon="-3.342166">
        <ele>96.678021</ele>
        <time>2024-09-01T09:23:32.000Z</time>
      </trkpt>
      <trkpt lat="56.148964" lon="-3.342072">
        <ele>96.687903</ele>
        <time>2024-09-01T09:23:33.000Z</time>
      </trkpt>
      <trkpt lat="56.149009" lon="-3.341878">
        <ele>96.707646</ele>
        <time>2024-09-01T09:23:34.000Z</time>
      </trkpt>
      <trkpt lat="56.149063" lon="-3.34166">
        <ele>96.730039</ele>
        <time>2024-09-01T09:23:35.000Z</time>
      </trkpt>
      <trkpt lat="56.149139" lon="-3.341457">
        <ele>96.753748</ele>
        <time>2024-09-01T09:23:37.000Z</time>
      </trkpt>
      <trkpt lat="56.14921" lon="-3.341227">
        <ele>96.777789</ele>
        <time>2024-09-01T09:23:39.000Z</time>
      </trkpt>
      <trkpt lat="56.149268" lon="-3.341022">
        <ele>96.801163</ele>
        <time>2024-09-01T09:23:40.000Z</time>
      </trkpt>
      <trkpt lat="56.149331" lon="-3.340811">
        <ele>96.824041</ele>
        <time>2024-09-01T09:23:41.000Z</time>
      </trkpt>
      <trkpt lat="56.149358" lon="-3.340705">
        <ele>96.834487</ele>
        <time>2024-09-01T09:23:42.000Z</time>
      </trkpt>
      <trkpt lat="56.149433" lon="-3.340589">
        <ele>96.851107</ele>
        <time>2024-09-01T09:23:43.000Z</time>
      </trkpt>
      <trkpt lat="56.14943" lon="-3.340451">
        <ele>96.872732</ele>
        <time>2024-09-01T09:23:44.000Z</time>
      </trkpt>
      <trkpt lat="56.14939" lon="-3.340266">
        <ele>96.930877</ele>
        <time>2024-09-01T09:23:45.000Z</time>
      </trkpt>
      <trkpt lat="56.149388" lon="-3.34007">
        <ele>96.993207</ele>
        <time>2024-09-01T09:23:46.000Z</time>
      </trkpt>
      <trkpt lat="56.149395" lon="-3.339984">
        <ele>97.016663</ele>
        <time>2024-09-01T09:23:47.000Z</time>
      </trkpt>
      <trkpt lat="56.149452" lon="-3.339926">
        <ele>97.04719</ele>
        <time>2024-09-01T09:23:48.000Z</time>
      </trkpt>
      <trkpt lat="56.149512" lon="-3.339879">
        <ele>97.086783</ele>
        <time>2024-09-01T09:23:49.000Z</time>
      </trkpt>
      <trkpt lat="56.149542" lon="-3.339821">
        <ele>97.116062</ele>
        <time>2024-09-01T09:23:49.000Z</time>
      </trkpt>
      <trkpt lat="56.149589" lon="-3.33978">
        <ele>97.143827</ele>
        <time>2024-09-01T09:23:50.000Z</time>
      </trkpt>
      <trkpt lat="56.149632" lon="-3.339719">
        <ele>97.172264</ele>
        <time>2024-09-01T09:23:51.000Z</time>
      </trkpt>
      <trkpt lat="56.149737" lon="-3.33959">
        <ele>97.241539</ele>
        <time>2024-09-01T09:23:52.000Z</time>
      </trkpt>
      <trkpt lat="56.149792" lon="-3.339565">
        <ele>97.269907</ele>
        <time>2024-09-01T09:23:53.000Z</time>
      </trkpt>
      <trkpt lat="56.149915" lon="-3.339511">
        <ele>97.335474</ele>
        <time>2024-09-01T09:23:54.000Z</time>
      </trkpt>
      <trkpt lat="56.149969" lon="-3.339497">
        <ele>97.366236</ele>
        <time>2024-09-01T09:23:55.000Z</time>
      </trkpt>
      <trkpt lat="56.150076" lon="-3.339523">
        <ele>97.429709</ele>
        <time>2024-09-01T09:23:56.000Z</time>
      </trkpt>
      <trkpt lat="56.150147" lon="-3.33963">
        <ele>97.480531</ele>
        <time>2024-09-01T09:23:57.000Z</time>
      </trkpt>
      <trkpt lat="56.150188" lon="-3.339698">
        <ele>97.509733</ele>
        <time>2024-09-01T09:23:58.000Z</time>
      </trkpt>
      <trkpt lat="56.150272" lon="-3.339839">
        <ele>97.570081</ele>
        <time>2024-09-01T09:23:59.000Z</time>
      </trkpt>
      <trkpt lat="56.150385" lon="-3.34">
        <ele>97.655919</ele>
        <time>2024-09-01T09:24:01.000Z</time>
      </trkpt>
      <trkpt lat="56.150486" lon="-3.339937">
        <ele>97.714384</ele>
        <time>2024-09-01T09:24:02.000Z</time>
      </trkpt>
      <trkpt lat="56.150595" lon="-3.339895">
        <ele>97.77279</ele>
        <time>2024-09-01T09:24:03.000Z</time>
      </trkpt>
      <trkpt lat="56.150702" lon="-3.339894">
        <ele>97.827383</ele>
        <time>2024-09-01T09:24:04.000Z</time>
      </trkpt>
      <trkpt lat="56.150735" lon="-3.339909">
        <ele>97.849911</ele>
        <time>2024-09-01T09:24:04.000Z</time>
      </trkpt>
      <trkpt lat="56.150833" lon="-3.33994">
        <ele>97.888731</ele>
        <time>2024-09-01T09:24:05.000Z</time>
      </trkpt>
      <trkpt lat="56.150943" lon="-3.339844">
        <ele>97.937079</ele>
        <time>2024-09-01T09:24:06.000Z</time>
      </trkpt>
      <trkpt lat="56.151026" lon="-3.339749">
        <ele>97.976663</ele>
        <time>2024-09-01T09:24:07.000Z</time>
      </trkpt>
      <trkpt lat="56.151124" lon="-3.339721">
        <ele>98.018503</ele>
        <time>2024-09-01T09:24:08.000Z</time>
      </trkpt>
      <trkpt lat="56.151175" lon="-3.339683">
        <ele>98.039889</ele>
        <time>2024-09-01T09:24:09.000Z</time>
      </trkpt>
      <trkpt lat="56.151216" lon="-3.339637">
        <ele>98.06136</ele>
        <time>2024-09-01T09:24:10.000Z</time>
      </trkpt>
      <trkpt lat="56.151326" lon="-3.339588">
        <ele>98.103059</ele>
        <time>2024-09-01T09:24:11.000Z</time>
      </trkpt>
      <trkpt lat="56.151357" lon="-3.339543">
        <ele>98.125215</ele>
        <time>2024-09-01T09:24:11.000Z</time>
      </trkpt>
      <trkpt lat="56.151457" lon="-3.339427">
        <ele>98.17008</ele>
        <time>2024-09-01T09:24:12.000Z</time>
      </trkpt>
      <trkpt lat="56.151567" lon="-3.33937">
        <ele>98.22098</ele>
        <time>2024-09-01T09:24:13.000Z</time>
      </trkpt>
      <trkpt lat="56.151668" lon="-3.339395">
        <ele>98.262047</ele>
        <time>2024-09-01T09:24:14.000Z</time>
      </trkpt>
      <trkpt lat="56.151745" lon="-3.339255">
        <ele>98.305136</ele>
        <time>2024-09-01T09:24:15.000Z</time>
      </trkpt>
      <trkpt lat="56.151769" lon="-3.339157">
        <ele>98.327467</ele>
        <time>2024-09-01T09:24:16.000Z</time>
      </trkpt>
      <trkpt lat="56.151772" lon="-3.339055">
        <ele>98.350745</ele>
        <time>2024-09-01T09:24:17.000Z</time>
      </trkpt>
      <trkpt lat="56.151827" lon="-3.338894">
        <ele>98.392422</ele>
        <time>2024-09-01T09:24:18.000Z</time>
      </trkpt>
      <trkpt lat="56.151791" lon="-3.338568">
        <ele>98.463775</ele>
        <time>2024-09-01T09:24:20.000Z</time>
      </trkpt>
      <trkpt lat="56.151806" lon="-3.338393">
        <ele>98.505449</ele>
        <time>2024-09-01T09:24:21.000Z</time>
      </trkpt>
      <trkpt lat="56.151865" lon="-3.338228">
        <ele>98.548933</ele>
        <time>2024-09-01T09:24:22.000Z</time>
      </trkpt>
      <trkpt lat="56.151913" lon="-3.338188">
        <ele>98.570086</ele>
        <time>2024-09-01T09:24:23.000Z</time>
      </trkpt>
      <trkpt lat="56.152021" lon="-3.33812">
        <ele>98.625422</ele>
        <time>2024-09-01T09:24:24.000Z</time>
      </trkpt>
      <trkpt lat="56.15207" lon="-3.338118">
        <ele>98.652978</ele>
        <time>2024-09-01T09:24:25.000Z</time>
      </trkpt>
      <trkpt lat="56.152161" lon="-3.338134">
        <ele>98.703776</ele>
        <time>2024-09-01T09:24:26.000Z</time>
      </trkpt>
      <trkpt lat="56.152246" lon="-3.338053">
        <ele>98.756264</ele>
        <time>2024-09-01T09:24:27.000Z</time>
      </trkpt>
      <trkpt lat="56.152335" lon="-3.338063">
        <ele>98.804534</ele>
        <time>2024-09-01T09:24:28.000Z</time>
      </trkpt>
      <trkpt lat="56.152463" lon="-3.338092">
        <ele>98.864504</ele>
        <time>2024-09-01T09:24:29.000Z</time>
      </trkpt>
      <trkpt lat="56.152546" lon="-3.338098">
        <ele>98.914036</ele>
        <time>2024-09-01T09:24:30.000Z</time>
      </trkpt>
      <trkpt lat="56.152654" lon="-3.338157">
        <ele>98.968126</ele>
        <time>2024-09-01T09:24:31.000Z</time>
      </trkpt>
      <trkpt lat="56.152742" lon="-3.338169">
        <ele>99.019988</ele>
        <time>2024-09-01T09:24:32.000Z</time>
      </trkpt>
      <trkpt lat="56.152835" lon="-3.338235">
        <ele>99.067902</ele>
        <time>2024-09-01T09:24:33.000Z</time>
      </trkpt>
      <trkpt lat="56.152878" lon="-3.338283">
        <ele>99.095895</ele>
        <time>2024-09-01T09:24:34.000Z</time>
      </trkpt>
      <trkpt lat="56.152921" lon="-3.338345">
        <ele>99.123991</ele>
        <time>2024-09-01T09:24:35.000Z</time>
      </trkpt>
      <trkpt lat="56.153005" lon="-3.338431">
        <ele>99.173784</ele>
        <time>2024-09-01T09:24:36.000Z</time>
      </trkpt>
      <trkpt lat="56.153041" lon="-3.338562">
        <ele>99.217059</ele>
        <time>2024-09-01T09:24:37.000Z</time>
      </trkpt>
      <trkpt lat="56.153039" lon="-3.338643">
        <ele>99.244746</ele>
        <time>2024-09-01T09:24:38.000Z</time>
      </trkpt>
      <trkpt lat="56.153062" lon="-3.338736">
        <ele>99.271468</ele>
        <time>2024-09-01T09:24:39.000Z</time>
      </trkpt>
      <trkpt lat="56.153117" lon="-3.338836">
        <ele>99.314198</ele>
        <time>2024-09-01T09:24:40.000Z</time>
      </trkpt>
      <trkpt lat="56.153169" lon="-3.338831">
        <ele>99.342233</ele>
        <time>2024-09-01T09:24:41.000Z</time>
      </trkpt>
      <trkpt lat="56.153275" lon="-3.338832">
        <ele>99.396213</ele>
        <time>2024-09-01T09:24:42.000Z</time>
      </trkpt>
      <trkpt lat="56.15338" lon="-3.33889">
        <ele>99.45367</ele>
        <time>2024-09-01T09:24:43.000Z</time>
      </trkpt>
      <trkpt lat="56.153477" lon="-3.33885">
        <ele>99.503747</ele>
        <time>2024-09-01T09:24:44.000Z</time>
      </trkpt>
      <trkpt lat="56.153574" lon="-3.33886">
        <ele>99.49434</ele>
        <time>2024-09-01T09:24:45.000Z</time>
      </trkpt>
      <trkpt lat="56.153611" lon="-3.33887">
        <ele>99.467499</ele>
        <time>2024-09-01T09:24:45.000Z</time>
      </trkpt>
      <trkpt lat="56.153656" lon="-3.338865">
        <ele>99.445448</ele>
        <time>2024-09-01T09:24:46.000Z</time>
      </trkpt>
      <trkpt lat="56.15368" lon="-3.338782">
        <ele>99.416656</ele>
        <time>2024-09-01T09:24:47.000Z</time>
      </trkpt>
      <trkpt lat="56.153674" lon="-3.338735">
        <ele>99.400924</ele>
        <time>2024-09-01T09:24:47.000Z</time>
      </trkpt>
      <trkpt lat="56.153669" lon="-3.338577">
        <ele>99.358363</ele>
        <time>2024-09-01T09:24:48.000Z</time>
      </trkpt>
      <trkpt lat="56.153588" lon="-3.338371">
        <ele>99.283053</ele>
        <time>2024-09-01T09:24:50.000Z</time>
      </trkpt>
      <trkpt lat="56.153479" lon="-3.338315">
        <ele>99.22921</ele>
        <time>2024-09-01T09:24:51.000Z</time>
      </trkpt>
      <trkpt lat="56.153393" lon="-3.338255">
        <ele>99.174919</ele>
        <time>2024-09-01T09:24:52.000Z</time>
      </trkpt>
      <trkpt lat="56.153351" lon="-3.338223">
        <ele>99.1549</ele>
        <time>2024-09-01T09:24:53.000Z</time>
      </trkpt>
      <trkpt lat="56.153243" lon="-3.338129">
        <ele>99.087706</ele>
        <time>2024-09-01T09:24:54.000Z</time>
      </trkpt>
      <trkpt lat="56.153128" lon="-3.33803">
        <ele>99.026697</ele>
        <time>2024-09-01T09:24:55.000Z</time>
      </trkpt>
      <trkpt lat="56.153138" lon="-3.338039">
        <ele>99.026707</ele>
        <time>2024-09-01T09:24:55.000Z</time>
      </trkpt>
      <trkpt lat="56.152927" lon="-3.337869">
        <ele>98.905674</ele>
        <time>2024-09-01T09:24:58.000Z</time>
      </trkpt>
      <trkpt lat="56.15281" lon="-3.337827">
        <ele>98.843108</ele>
        <time>2024-09-01T09:24:59.000Z</time>
      </trkpt>
      <trkpt lat="56.152687" lon="-3.337797">
        <ele>98.779873</ele>
        <time>2024-09-01T09:25:00.000Z</time>
      </trkpt>
      <trkpt lat="56.152556" lon="-3.337762">
        <ele>98.716018</ele>
        <time>2024-09-01T09:25:01.000Z</time>
      </trkpt>
      <trkpt lat="56.152457" lon="-3.337723">
        <ele>98.654008</ele>
        <time>2024-09-01T09:25:02.000Z</time>
      </trkpt>
      <trkpt lat="56.152331" lon="-3.337704">
        <ele>98.588688</ele>
        <time>2024-09-01T09:25:03.000Z</time>
      </trkpt>
      <trkpt lat="56.152228" lon="-3.337711">
        <ele>98.5550665118</ele>
        <time>2024-09-01T09:25:04.000Z</time>
      </trkpt>
      <trkpt lat="56.152128" lon="-3.337708">
        <ele>98.5224430981</ele>
        <time>2024-09-01T09:25:05.000Z</time>
      </trkpt>
      <trkpt lat="56.152039" lon="-3.337704">
        <ele>98.4934032175</ele>
        <time>2024-09-01T09:25:06.000Z</time>
      </trkpt>
      <trkpt lat="56.151991" lon="-3.337716">
        <ele>98.4775950985</ele>
        <time>2024-09-01T09:25:07.000Z</time>
      </trkpt>
      <trkpt lat="56.151828" lon="-3.33779">
        <ele>98.4227528309</ele>
        <time>2024-09-01T09:25:09.000Z</time>
      </trkpt>
      <trkpt lat="56.151782" lon="-3.337842">
        <ele>98.4050215579</ele>
        <time>2024-09-01T09:25:10.000Z</time>
      </trkpt>
      <trkpt lat="56.151646" lon="-3.337919">
        <ele>98.3585062876</ele>
        <time>2024-09-01T09:25:12.000Z</time>
      </trkpt>
      <trkpt lat="56.151561" lon="-3.337957">
        <ele>98.3299335898</ele>
        <time>2024-09-01T09:25:13.000Z</time>
      </trkpt>
      <trkpt lat="56.151466" lon="-3.337994">
        <ele>98.2982248885</ele>
        <time>2024-09-01T09:25:14.000Z</time>
      </trkpt>
      <trkpt lat="56.151382" lon="-3.338041">
        <ele>98.269525222</ele>
        <time>2024-09-01T09:25:15.000Z</time>
      </trkpt>
      <trkpt lat="56.151328" lon="-3.338076">
        <ele>98.2507983133</ele>
        <time>2024-09-01T09:25:16.000Z</time>
      </trkpt>
      <trkpt lat="56.151196" lon="-3.338125">
        <ele>98.206830662</ele>
        <time>2024-09-01T09:25:17.000Z</time>
      </trkpt>
      <trkpt lat="56.151131" lon="-3.338112">
        <ele>98.1854972471</ele>
        <time>2024-09-01T09:25:18.000Z</time>
      </trkpt>
      <trkpt lat="56.150977" lon="-3.338067">
        <ele>98.1346031837</ele>
        <time>2024-09-01T09:25:20.000Z</time>
      </trkpt>
      <trkpt lat="56.15093" lon="-3.338036">
        <ele>98.1182704265</ele>
        <time>2024-09-01T09:25:21.000Z</time>
      </trkpt>
      <trkpt lat="56.150803" lon="-3.337957">
        <ele>98.0744283002</ele>
        <time>2024-09-01T09:25:22.000Z</time>
      </trkpt>
      <trkpt lat="56.150762" lon="-3.337929">
        <ele>98.0601196466</ele>
        <time>2024-09-01T09:25:22.000Z</time>
      </trkpt>
      <trkpt lat="56.150665" lon="-3.337778">
        <ele>98.0182412379</ele>
        <time>2024-09-01T09:25:23.000Z</time>
      </trkpt>
      <trkpt lat="56.150645" lon="-3.337718">
        <ele>98.0055368688</ele>
        <time>2024-09-01T09:25:23.000Z</time>
      </trkpt>
      <trkpt lat="56.150616" lon="-3.337592">
        <ele>97.9807664676</ele>
        <time>2024-09-01T09:25:24.000Z</time>
      </trkpt>
      <trkpt lat="56.150574" lon="-3.337521">
        <ele>97.9619489405</ele>
        <time>2024-09-01T09:25:25.000Z</time>
      </trkpt>
      <trkpt lat="56.150538" lon="-3.337524">
        <ele>97.9501935071</ele>
        <time>2024-09-01T09:25:25.000Z</time>
      </trkpt>
      <trkpt lat="56.150477" lon="-3.337494">
        <ele>97.9295629164</ele>
        <time>2024-09-01T09:25:26.000Z</time>
      </trkpt>
      <trkpt lat="56.150401" lon="-3.337478">
        <ele>97.9046027143</ele>
        <time>2024-09-01T09:25:27.000Z</time>
      </trkpt>
      <trkpt lat="56.150342" lon="-3.337467">
        <ele>97.8852540868</ele>
        <time>2024-09-01T09:25:28.000Z</time>
      </trkpt>
      <trkpt lat="56.150268" lon="-3.337447">
        <ele>97.8608441341</ele>
        <time>2024-09-01T09:25:29.000Z</time>
      </trkpt>
      <trkpt lat="56.150208" lon="-3.337405">
        <ele>97.8398377074</ele>
        <time>2024-09-01T09:25:30.000Z</time>
      </trkpt>
      <trkpt lat="56.150164" lon="-3.337312">
        <ele>97.81766764</ele>
        <time>2024-09-01T09:25:31.000Z</time>
      </trkpt>
      <trkpt lat="56.150107" lon="-3.337224">
        <ele>97.7931454394</ele>
        <time>2024-09-01T09:25:32.000Z</time>
      </trkpt>
      <trkpt lat="56.150088" lon="-3.337118">
        <ele>97.7729133363</ele>
        <time>2024-09-01T09:25:33.000Z</time>
      </trkpt>
      <trkpt lat="56.150074" lon="-3.337002">
        <ele>97.7513478502</ele>
        <time>2024-09-01T09:25:34.000Z</time>
      </trkpt>
    </trkseg>
  </trk>
</gpx>

<!--
Performance optimized by W3 Total Cache. Learn more: https://www.boldgrid.com/w3-total-cache/?utm_source=w3tc&utm_medium=footer_comment&utm_campaign=free_plugin

Page Caching using Disk: Enhanced{w3tc_pagecache_reject_reason} 

Served from: www.aquabike.world @ 2026-05-08 01:13:03 by W3 Total Cache
-->